<?xml version="1.0" encoding="UTF-8"?>
<gpx version="1.1" creator="2bulu-scraper" xmlns="http://www.topografix.com/GPX/1/1">
  <metadata><name>宜宾翠屏区</name><desc>source: 2bulu.com trackId=74574951; exported 2026-08-31T01:42:03.505Z</desc>
    <bounds minlat="28.71304" minlon="104.7254351" maxlat="28.7400268" maxlon="104.7636572"/>
    <link href="https://www.2bulu.com/track/t-%252F2CKq2C4P%252Bvp%252FR2KBg5Tzw%253D%253D.htm"><text>2bulu 源页面</text></link>
  </metadata>
  <wpt lat="28.7392699" lon="104.7500806"><ele>269</ele><name>出发！
        </name></wpt>
  <wpt lat="28.7381062" lon="104.7461628"><ele>254</ele><name>
        </name></wpt>
  <wpt lat="28.7386162" lon="104.7452158"><ele>247</ele><name>从这里上去
        </name></wpt>
  <wpt lat="28.7388042" lon="104.7420495"><ele>261</ele><name>全是稀泥巴！
        </name></wpt>
  <wpt lat="28.7385129" lon="104.7419572"><ele>264</ele><name>上去
        </name></wpt>
  <wpt lat="28.7381112" lon="104.7417357"><ele>272</ele><name>
        </name></wpt>
  <wpt lat="28.7375943" lon="104.7417152"><ele>289</ele><name>从这里过去
        </name></wpt>
  <wpt lat="28.738201" lon="104.7410963"><ele>296</ele><name>
        </name></wpt>
  <wpt lat="28.7380509" lon="104.7409735"><ele>297</ele><name>这路下雨天太难走了！
        </name></wpt>
  <wpt lat="28.7374098" lon="104.740656"><ele>334</ele><name>
        </name></wpt>
  <wpt lat="28.7366228" lon="104.7399424"><ele>375</ele><name>太难走了！
        </name></wpt>
  <wpt lat="28.7364184" lon="104.7400027"><ele>387</ele><name>下雨千万别来！太滑了！
        </name></wpt>
  <wpt lat="28.736373" lon="104.7405803"><ele>445</ele><name>上来了！！
        </name></wpt>
  <wpt lat="28.7362708" lon="104.740532"><ele>447</ele><name>往这边走
        </name></wpt>
  <wpt lat="28.7328999" lon="104.7411429"><ele>460</ele><name>走大路了
        </name></wpt>
  <wpt lat="28.7338908" lon="104.7409313"><ele>479</ele><name>
        </name></wpt>
  <wpt lat="28.7341605" lon="104.74048"><ele>481</ele><name>雅静！
        </name></wpt>
  <wpt lat="28.734702" lon="104.7399344"><ele>482</ele><name>从这里过去
        </name></wpt>
  <wpt lat="28.7333878" lon="104.7368169"><ele>490</ele><name>坐下吃饭
        </name></wpt>
  <wpt lat="28.7334095" lon="104.7367919"><ele>496</ele><name>
        </name></wpt>
  <wpt lat="28.7326384" lon="104.7351748"><ele>483</ele><name>这里堵了，走前面
        </name></wpt>
  <wpt lat="28.7325789" lon="104.73518"><ele>481</ele><name>从这里进去
        </name></wpt>
  <wpt lat="28.7316448" lon="104.7355101"><ele>464</ele><name>走这边
        </name></wpt>
  <wpt lat="28.731343" lon="104.7356577"><ele>466</ele><name>到大路上去
        </name></wpt>
  <wpt lat="28.7302769" lon="104.7355607"><ele>471</ele><name>到水库了
        </name></wpt>
  <wpt lat="28.7301457" lon="104.7357678"><ele>478</ele><name>上来后走右边
        </name></wpt>
  <wpt lat="28.7288587" lon="104.7341552"><ele>484</ele><name>走这边
        </name></wpt>
  <wpt lat="28.7285978" lon="104.7346404"><ele>487</ele><name>出来了！
        </name></wpt>
  <wpt lat="28.72851" lon="104.7347503"><ele>494</ele><name>这条路太美了！
        </name></wpt>
  <wpt lat="28.7237811" lon="104.7349354"><ele>533</ele><name>从这里上去
        </name></wpt>
  <wpt lat="28.7233768" lon="104.7345518"><ele>533</ele><name>走这里下去
        </name></wpt>
  <wpt lat="28.7219154" lon="104.7336158"><ele>515</ele><name>恐龙世界
        </name></wpt>
  <wpt lat="28.7217671" lon="104.7325661"><ele>515</ele><name>这段路到处都是断木
        </name></wpt>
  <wpt lat="28.721728" lon="104.731741"><ele>504</ele><name>从这里下去
        </name></wpt>
  <wpt lat="28.7220469" lon="104.7309274"><ele>497</ele><name>从这里下去，旁边有个旱厕
        </name></wpt>
  <wpt lat="28.7219146" lon="104.7299336"><ele>500</ele><name>到女娲这里了
        </name></wpt>
  <wpt lat="28.7215406" lon="104.7298531"><ele>504</ele><name>太危险了！
        </name></wpt>
  <wpt lat="28.7214939" lon="104.729885"><ele>516</ele><name>太危险了！
        </name></wpt>
  <wpt lat="28.7203064" lon="104.7297359"><ele>527</ele><name>
        </name></wpt>
  <wpt lat="28.7194325" lon="104.7257602"><ele>521</ele><name>从门前过去
        </name></wpt>
  <wpt lat="28.7161251" lon="104.7254351"><ele>554</ele><name>往这边走红土地
        </name></wpt>
  <wpt lat="28.7149558" lon="104.7332443"><ele>526</ele><name>不走这里，差点走错了
        </name></wpt>
  <wpt lat="28.714845" lon="104.7341359"><ele>533</ele><name>从这里下去
        </name></wpt>
  <wpt lat="28.7136264" lon="104.7351605"><ele>456</ele><name>往左走这边
        </name></wpt>
  <wpt lat="28.71304" lon="104.7355954"><ele>419</ele><name>到大路上了，出来后往左沿路走
        </name></wpt>
  <wpt lat="28.7178042" lon="104.7448229"><ele>407</ele><name>从这里出去
        </name></wpt>
  <wpt lat="28.7171976" lon="104.7485861"><ele>407</ele><name>天快黑了
        </name></wpt>
  <wpt lat="28.7177725" lon="104.7485495"><ele>444</ele><name>从门前过
        </name></wpt>
  <wpt lat="28.719" lon="104.7486308"><ele>403</ele><name>走左前方
        </name></wpt>
  <wpt lat="28.7191106" lon="104.749547"><ele>404</ele><name>过去
        </name></wpt>
  <wpt lat="28.7193045" lon="104.7506031"><ele>411</ele><name>走上大路！天都黑了！
        </name></wpt>
  <wpt lat="28.7198229" lon="104.7532479"><ele>404</ele><name>从这里下去，天已经完全黑了！
        </name></wpt>
  <wpt lat="28.719778" lon="104.7539454"><ele>398</ele><name>完全看不到！
        </name></wpt>
  <wpt lat="28.7207443" lon="104.7559355"><ele>389</ele><name>上大路了！！
        </name></wpt>
  <wpt lat="28.7250621" lon="104.7610778"><ele>376</ele><name>黢黑！完全看不到路了，走上大路了，下来左转
        </name></wpt>
  <wpt lat="28.7303141" lon="104.761081"><ele>339</ele><name>后面是一条大路了！
        </name></wpt>
  <wpt lat="28.7385688" lon="104.7516247"><ele>276</ele><name>还有100m左右就成功了！！！
        </name></wpt>
  <wpt lat="28.7393153" lon="104.7508294"><ele>281</ele><name>成功！
        </name></wpt>
  <trk><name>宜宾翠屏区</name>
      <trkseg>
        <trkpt lat="28.7400268" lon="104.7505546"><ele>286.99</ele><time>2025-11-14T19:10:00.000Z</time></trkpt>
        <trkpt lat="28.7399581" lon="104.7506124"><ele>286.99</ele><time>2025-11-14T19:10:12.000Z</time></trkpt>
        <trkpt lat="28.739886" lon="104.7506982"><ele>286.24</ele><time>2025-11-14T19:10:25.000Z</time></trkpt>
        <trkpt lat="28.7397965" lon="104.7507491"><ele>286</ele><time>2025-11-14T19:10:32.000Z</time></trkpt>
        <trkpt lat="28.7396928" lon="104.7507624"><ele>285.71</ele><time>2025-11-14T19:10:40.000Z</time></trkpt>
        <trkpt lat="28.739579" lon="104.7507721"><ele>284.67</ele><time>2025-11-14T19:10:50.000Z</time></trkpt>
        <trkpt lat="28.7394805" lon="104.7507969"><ele>285.74</ele><time>2025-11-14T19:11:00.000Z</time></trkpt>
        <trkpt lat="28.7393787" lon="104.7508269"><ele>286.1</ele><time>2025-11-14T19:11:10.000Z</time></trkpt>
        <trkpt lat="28.7392785" lon="104.7508524"><ele>285.83</ele><time>2025-11-14T19:11:18.000Z</time></trkpt>
        <trkpt lat="28.7391746" lon="104.7508529"><ele>284.81</ele><time>2025-11-14T19:11:28.000Z</time></trkpt>
        <trkpt lat="28.7390896" lon="104.7508696"><ele>284.48</ele><time>2025-11-14T19:11:36.000Z</time></trkpt>
        <trkpt lat="28.7390033" lon="104.7508293"><ele>284.24</ele><time>2025-11-14T19:11:52.000Z</time></trkpt>
        <trkpt lat="28.7389802" lon="104.7507906"><ele>283.55</ele><time>2025-11-14T19:11:58.000Z</time></trkpt>
        <trkpt lat="28.7389854" lon="104.7506933"><ele>283.06</ele><time>2025-11-14T19:12:36.000Z</time></trkpt>
        <trkpt lat="28.7389989" lon="104.750577"><ele>281.43</ele><time>2025-11-14T19:12:48.000Z</time></trkpt>
        <trkpt lat="28.7390322" lon="104.7504616"><ele>279.91</ele><time>2025-11-14T19:12:58.000Z</time></trkpt>
        <trkpt lat="28.7390741" lon="104.750347"><ele>277.36</ele><time>2025-11-14T19:13:10.000Z</time></trkpt>
        <trkpt lat="28.7391342" lon="104.7502512"><ele>274.46</ele><time>2025-11-14T19:13:20.000Z</time></trkpt>
        <trkpt lat="28.7392166" lon="104.7501716"><ele>271.92</ele><time>2025-11-14T19:13:28.000Z</time></trkpt>
        <trkpt lat="28.7392699" lon="104.7500806"><ele>270.41</ele><time>2025-11-14T19:13:36.000Z</time></trkpt>
        <trkpt lat="28.7392936" lon="104.7499642"><ele>269.92</ele><time>2025-11-14T19:14:25.000Z</time></trkpt>
        <trkpt lat="28.7393158" lon="104.7498559"><ele>268.89</ele><time>2025-11-14T19:14:32.000Z</time></trkpt>
        <trkpt lat="28.7392956" lon="104.7497412"><ele>268.7</ele><time>2025-11-14T19:14:40.000Z</time></trkpt>
        <trkpt lat="28.7392657" lon="104.7496248"><ele>268.64</ele><time>2025-11-14T19:14:50.000Z</time></trkpt>
        <trkpt lat="28.7392289" lon="104.7495042"><ele>269.75</ele><time>2025-11-14T19:15:01.000Z</time></trkpt>
        <trkpt lat="28.7392037" lon="104.7493793"><ele>270.92</ele><time>2025-11-14T19:15:10.000Z</time></trkpt>
        <trkpt lat="28.7391419" lon="104.7492878"><ele>270.34</ele><time>2025-11-14T19:15:18.000Z</time></trkpt>
        <trkpt lat="28.7390818" lon="104.7492039"><ele>269.76</ele><time>2025-11-14T19:15:28.000Z</time></trkpt>
        <trkpt lat="28.739022" lon="104.7491076"><ele>269.62</ele><time>2025-11-14T19:15:38.000Z</time></trkpt>
        <trkpt lat="28.7389716" lon="104.7490172"><ele>268.07</ele><time>2025-11-14T19:15:46.000Z</time></trkpt>
        <trkpt lat="28.7389289" lon="104.7489246"><ele>266.18</ele><time>2025-11-14T19:15:54.000Z</time></trkpt>
        <trkpt lat="28.7388846" lon="104.7488218"><ele>264.62</ele><time>2025-11-14T19:16:02.000Z</time></trkpt>
        <trkpt lat="28.7388367" lon="104.7487237"><ele>263.12</ele><time>2025-11-14T19:16:13.000Z</time></trkpt>
        <trkpt lat="28.7387891" lon="104.7486222"><ele>262.28</ele><time>2025-11-14T19:16:18.000Z</time></trkpt>
        <trkpt lat="28.7387563" lon="104.7485217"><ele>261.18</ele><time>2025-11-14T19:16:28.000Z</time></trkpt>
        <trkpt lat="28.7387172" lon="104.7484082"><ele>257.59</ele><time>2025-11-14T19:16:36.000Z</time></trkpt>
        <trkpt lat="28.7386825" lon="104.7482998"><ele>255.26</ele><time>2025-11-14T19:16:44.000Z</time></trkpt>
        <trkpt lat="28.7386412" lon="104.7482028"><ele>254.14</ele><time>2025-11-14T19:16:53.000Z</time></trkpt>
        <trkpt lat="28.7386017" lon="104.7480931"><ele>253.57</ele><time>2025-11-14T19:17:01.000Z</time></trkpt>
        <trkpt lat="28.7385379" lon="104.7479925"><ele>257.43</ele><time>2025-11-14T19:17:11.000Z</time></trkpt>
        <trkpt lat="28.7385148" lon="104.7478738"><ele>259.31</ele><time>2025-11-14T19:17:21.000Z</time></trkpt>
        <trkpt lat="28.738474" lon="104.7477583"><ele>260.6</ele><time>2025-11-14T19:22:31.000Z</time></trkpt>
        <trkpt lat="28.7383844" lon="104.7477091"><ele>259.66</ele><time>2025-11-14T19:22:49.000Z</time></trkpt>
        <trkpt lat="28.7382968" lon="104.7476691"><ele>259.84</ele><time>2025-11-14T19:22:59.000Z</time></trkpt>
        <trkpt lat="28.7382176" lon="104.747607"><ele>260.53</ele><time>2025-11-14T19:23:12.000Z</time></trkpt>
        <trkpt lat="28.7381315" lon="104.7475558"><ele>261.88</ele><time>2025-11-14T19:23:22.000Z</time></trkpt>
        <trkpt lat="28.7380699" lon="104.7474713"><ele>262.89</ele><time>2025-11-14T19:23:35.000Z</time></trkpt>
        <trkpt lat="28.7380592" lon="104.7473551"><ele>262.88</ele><time>2025-11-14T19:23:47.000Z</time></trkpt>
        <trkpt lat="28.7380672" lon="104.7472304"><ele>262.39</ele><time>2025-11-14T19:23:58.000Z</time></trkpt>
        <trkpt lat="28.7380143" lon="104.7471438"><ele>263.19</ele><time>2025-11-14T19:24:08.000Z</time></trkpt>
        <trkpt lat="28.7379427" lon="104.7470573"><ele>262.15</ele><time>2025-11-14T19:24:18.000Z</time></trkpt>
        <trkpt lat="28.7378908" lon="104.7469472"><ele>261.37</ele><time>2025-11-14T19:24:28.000Z</time></trkpt>
        <trkpt lat="28.7378945" lon="104.7468231"><ele>260.62</ele><time>2025-11-14T19:24:37.000Z</time></trkpt>
        <trkpt lat="28.7379407" lon="104.746708"><ele>259.8</ele><time>2025-11-14T19:24:47.000Z</time></trkpt>
        <trkpt lat="28.7379966" lon="104.7465957"><ele>258.87</ele><time>2025-11-14T19:24:57.000Z</time></trkpt>
        <trkpt lat="28.7380571" lon="104.746484"><ele>257.73</ele><time>2025-11-14T19:25:08.000Z</time></trkpt>
        <trkpt lat="28.7380809" lon="104.7463727"><ele>257.03</ele><time>2025-11-14T19:25:16.000Z</time></trkpt>
        <trkpt lat="28.7380834" lon="104.7462618"><ele>256.37</ele><time>2025-11-14T19:25:28.000Z</time></trkpt>
        <trkpt lat="28.7381062" lon="104.7461628"><ele>255.58</ele><time>2025-11-14T19:25:35.000Z</time></trkpt>
        <trkpt lat="28.7381255" lon="104.7460629"><ele>254.99</ele><time>2025-11-14T19:25:55.000Z</time></trkpt>
        <trkpt lat="28.738162" lon="104.7459546"><ele>254.07</ele><time>2025-11-14T19:26:04.000Z</time></trkpt>
        <trkpt lat="28.7382073" lon="104.7458398"><ele>253.97</ele><time>2025-11-14T19:26:14.000Z</time></trkpt>
        <trkpt lat="28.7381999" lon="104.7457357"><ele>255.42</ele><time>2025-11-14T19:26:19.000Z</time></trkpt>
        <trkpt lat="28.7381717" lon="104.7456272"><ele>256.02</ele><time>2025-11-14T19:26:27.000Z</time></trkpt>
        <trkpt lat="28.7381432" lon="104.7455051"><ele>255.48</ele><time>2025-11-14T19:26:37.000Z</time></trkpt>
        <trkpt lat="28.738144" lon="104.7453945"><ele>254.72</ele><time>2025-11-14T19:26:43.000Z</time></trkpt>
        <trkpt lat="28.7381996" lon="104.7453123"><ele>255</ele><time>2025-11-14T19:26:52.000Z</time></trkpt>
        <trkpt lat="28.7382954" lon="104.7452727"><ele>253.77</ele><time>2025-11-14T19:26:59.000Z</time></trkpt>
        <trkpt lat="28.7383994" lon="104.7452218"><ele>252.82</ele><time>2025-11-14T19:27:07.000Z</time></trkpt>
        <trkpt lat="28.7385102" lon="104.7451932"><ele>253.85</ele><time>2025-11-14T19:27:16.000Z</time></trkpt>
        <trkpt lat="28.7386162" lon="104.7452158"><ele>250.69</ele><time>2025-11-14T19:27:23.000Z</time></trkpt>
        <trkpt lat="28.7386904" lon="104.7452438"><ele>249.27</ele><time>2025-11-14T19:27:37.000Z</time></trkpt>
        <trkpt lat="28.7387215" lon="104.745173"><ele>250.1</ele><time>2025-11-14T19:28:17.000Z</time></trkpt>
        <trkpt lat="28.7387948" lon="104.7451328"><ele>252.62</ele><time>2025-11-14T19:29:37.000Z</time></trkpt>
        <trkpt lat="28.7388528" lon="104.7450472"><ele>254.68</ele><time>2025-11-14T19:30:07.000Z</time></trkpt>
        <trkpt lat="28.7389048" lon="104.7449452"><ele>256.62</ele><time>2025-11-14T19:30:21.000Z</time></trkpt>
        <trkpt lat="28.7389479" lon="104.7448497"><ele>257.11</ele><time>2025-11-14T19:30:35.000Z</time></trkpt>
        <trkpt lat="28.7390093" lon="104.744762"><ele>257.9</ele><time>2025-11-14T19:30:57.000Z</time></trkpt>
        <trkpt lat="28.7390684" lon="104.7446806"><ele>259.16</ele><time>2025-11-14T19:31:15.000Z</time></trkpt>
        <trkpt lat="28.739091" lon="104.744567"><ele>259.83</ele><time>2025-11-14T19:31:29.000Z</time></trkpt>
        <trkpt lat="28.7391007" lon="104.7444464"><ele>259.82</ele><time>2025-11-14T19:31:38.000Z</time></trkpt>
        <trkpt lat="28.7391351" lon="104.7443325"><ele>261.16</ele><time>2025-11-14T19:31:48.000Z</time></trkpt>
        <trkpt lat="28.7391741" lon="104.7442303"><ele>260.78</ele><time>2025-11-14T19:32:47.000Z</time></trkpt>
        <trkpt lat="28.7392171" lon="104.7441357"><ele>260.93</ele><time>2025-11-14T19:33:01.000Z</time></trkpt>
        <trkpt lat="28.7392777" lon="104.7440461"><ele>266.24</ele><time>2025-11-14T19:33:52.000Z</time></trkpt>
        <trkpt lat="28.7393244" lon="104.7439514"><ele>269.75</ele><time>2025-11-14T19:34:05.000Z</time></trkpt>
        <trkpt lat="28.7393683" lon="104.7438543"><ele>271.32</ele><time>2025-11-14T19:34:18.000Z</time></trkpt>
        <trkpt lat="28.7394118" lon="104.7437542"><ele>270.66</ele><time>2025-11-14T19:34:32.000Z</time></trkpt>
        <trkpt lat="28.7394224" lon="104.7436509"><ele>268.75</ele><time>2025-11-14T19:34:59.000Z</time></trkpt>
        <trkpt lat="28.739445" lon="104.7435473"><ele>265.92</ele><time>2025-11-14T19:35:15.000Z</time></trkpt>
        <trkpt lat="28.7394546" lon="104.7434417"><ele>264.33</ele><time>2025-11-14T19:35:31.000Z</time></trkpt>
        <trkpt lat="28.7394206" lon="104.743342"><ele>263.02</ele><time>2025-11-14T19:35:49.000Z</time></trkpt>
        <trkpt lat="28.7394068" lon="104.7432298"><ele>263.31</ele><time>2025-11-14T19:36:01.000Z</time></trkpt>
        <trkpt lat="28.7393793" lon="104.7431215"><ele>262.62</ele><time>2025-11-14T19:36:24.000Z</time></trkpt>
        <trkpt lat="28.7393475" lon="104.7430107"><ele>262.4</ele><time>2025-11-14T19:36:57.000Z</time></trkpt>
        <trkpt lat="28.7393379" lon="104.742899"><ele>263.62</ele><time>2025-11-14T19:38:09.000Z</time></trkpt>
        <trkpt lat="28.7392931" lon="104.7428084"><ele>267</ele><time>2025-11-14T19:38:22.000Z</time></trkpt>
        <trkpt lat="28.7392639" lon="104.7427103"><ele>269.63</ele><time>2025-11-14T19:38:37.000Z</time></trkpt>
        <trkpt lat="28.7392339" lon="104.7426089"><ele>270.4</ele><time>2025-11-14T19:38:51.000Z</time></trkpt>
        <trkpt lat="28.739196" lon="104.7425118"><ele>268.97</ele><time>2025-11-14T19:39:01.000Z</time></trkpt>
        <trkpt lat="28.7391415" lon="104.7424112"><ele>267.1</ele><time>2025-11-14T19:39:16.000Z</time></trkpt>
        <trkpt lat="28.7390968" lon="104.7423074"><ele>266.41</ele><time>2025-11-14T19:39:28.000Z</time></trkpt>
        <trkpt lat="28.7390301" lon="104.7422214"><ele>266.16</ele><time>2025-11-14T19:40:11.000Z</time></trkpt>
        <trkpt lat="28.7389445" lon="104.7421875"><ele>265.44</ele><time>2025-11-14T19:40:23.000Z</time></trkpt>
        <trkpt lat="28.7388837" lon="104.7421195"><ele>265.11</ele><time>2025-11-14T19:40:37.000Z</time></trkpt>
        <trkpt lat="28.7388042" lon="104.7420495"><ele>263.74</ele><time>2025-11-14T19:40:57.000Z</time></trkpt>
        <trkpt lat="28.7387167" lon="104.7419911"><ele>262.65</ele><time>2025-11-14T19:41:45.000Z</time></trkpt>
        <trkpt lat="28.7386142" lon="104.7419782"><ele>262.8</ele><time>2025-11-14T19:41:58.000Z</time></trkpt>
        <trkpt lat="28.7385129" lon="104.7419572"><ele>263.22</ele><time>2025-11-14T19:42:11.000Z</time></trkpt>
        <trkpt lat="28.7384371" lon="104.7419019"><ele>263.38</ele><time>2025-11-14T19:43:21.000Z</time></trkpt>
        <trkpt lat="28.7383557" lon="104.7418575"><ele>263.4</ele><time>2025-11-14T19:49:25.000Z</time></trkpt>
        <trkpt lat="28.7382982" lon="104.7417773"><ele>265.35</ele><time>2025-11-14T19:50:11.000Z</time></trkpt>
        <trkpt lat="28.7382112" lon="104.7417424"><ele>267.86</ele><time>2025-11-14T19:50:41.000Z</time></trkpt>
        <trkpt lat="28.7381112" lon="104.7417357"><ele>269.07</ele><time>2025-11-14T19:51:34.000Z</time></trkpt>
        <trkpt lat="28.738016" lon="104.7417337"><ele>270.51</ele><time>2025-11-14T19:52:25.000Z</time></trkpt>
        <trkpt lat="28.7379233" lon="104.7417388"><ele>272.03</ele><time>2025-11-14T19:53:17.000Z</time></trkpt>
        <trkpt lat="28.7378344" lon="104.7417697"><ele>273.19</ele><time>2025-11-14T19:53:43.000Z</time></trkpt>
        <trkpt lat="28.7377683" lon="104.7418445"><ele>275.92</ele><time>2025-11-14T19:54:31.000Z</time></trkpt>
        <trkpt lat="28.7376853" lon="104.7418768"><ele>278.42</ele><time>2025-11-14T19:55:17.000Z</time></trkpt>
        <trkpt lat="28.7376348" lon="104.741814"><ele>281.99</ele><time>2025-11-14T19:55:33.000Z</time></trkpt>
        <trkpt lat="28.7375943" lon="104.7417152"><ele>284.81</ele><time>2025-11-14T19:56:11.000Z</time></trkpt>
        <trkpt lat="28.7375625" lon="104.741592"><ele>286.56</ele><time>2025-11-14T19:58:03.000Z</time></trkpt>
        <trkpt lat="28.7376429" lon="104.7415215"><ele>287.19</ele><time>2025-11-14T19:58:43.000Z</time></trkpt>
        <trkpt lat="28.7377318" lon="104.7414703"><ele>288.56</ele><time>2025-11-14T19:59:07.000Z</time></trkpt>
        <trkpt lat="28.7377526" lon="104.7414009"><ele>290.53</ele><time>2025-11-14T19:59:27.000Z</time></trkpt>
        <trkpt lat="28.7377943" lon="104.7413147"><ele>290.76</ele><time>2025-11-14T19:59:59.000Z</time></trkpt>
        <trkpt lat="28.7378391" lon="104.7412164"><ele>288.24</ele><time>2025-11-14T20:00:29.000Z</time></trkpt>
        <trkpt lat="28.7379149" lon="104.7411624"><ele>288.42</ele><time>2025-11-14T20:01:03.000Z</time></trkpt>
        <trkpt lat="28.7380119" lon="104.7411328"><ele>294.98</ele><time>2025-11-14T20:02:01.000Z</time></trkpt>
        <trkpt lat="28.7381051" lon="104.7411015"><ele>298.12</ele><time>2025-11-14T20:02:33.000Z</time></trkpt>
        <trkpt lat="28.738201" lon="104.7410963"><ele>297.3</ele><time>2025-11-14T20:02:55.000Z</time></trkpt>
        <trkpt lat="28.738134" lon="104.7410373"><ele>296.59</ele><time>2025-11-14T20:04:47.000Z</time></trkpt>
        <trkpt lat="28.7380509" lon="104.7409735"><ele>296.79</ele><time>2025-11-14T20:05:07.000Z</time></trkpt>
        <trkpt lat="28.7379615" lon="104.7409591"><ele>296.71</ele><time>2025-11-14T20:05:55.000Z</time></trkpt>
        <trkpt lat="28.7378716" lon="104.7409329"><ele>298.08</ele><time>2025-11-14T20:06:33.000Z</time></trkpt>
        <trkpt lat="28.7377963" lon="104.7408705"><ele>299.38</ele><time>2025-11-14T20:07:57.000Z</time></trkpt>
        <trkpt lat="28.7377088" lon="104.7408421"><ele>302.47</ele><time>2025-11-14T20:08:27.000Z</time></trkpt>
        <trkpt lat="28.7376147" lon="104.7408683"><ele>307.38</ele><time>2025-11-14T20:08:56.000Z</time></trkpt>
        <trkpt lat="28.7376264" lon="104.7408157"><ele>311.51</ele><time>2025-11-14T20:09:09.000Z</time></trkpt>
        <trkpt lat="28.7375836" lon="104.7407308"><ele>315.41</ele><time>2025-11-14T20:10:53.000Z</time></trkpt>
        <trkpt lat="28.7374909" lon="104.740701"><ele>319.24</ele><time>2025-11-14T20:12:43.000Z</time></trkpt>
        <trkpt lat="28.7374098" lon="104.740656"><ele>322.87</ele><time>2025-11-14T20:14:07.000Z</time></trkpt>
        <trkpt lat="28.7373382" lon="104.7405809"><ele>327.85</ele><time>2025-11-14T20:15:29.000Z</time></trkpt>
        <trkpt lat="28.73726" lon="104.7405271"><ele>331.84</ele><time>2025-11-14T20:16:59.000Z</time></trkpt>
        <trkpt lat="28.7371735" lon="104.7404946"><ele>339.16</ele><time>2025-11-14T20:20:51.000Z</time></trkpt>
        <trkpt lat="28.7371309" lon="104.7403922"><ele>345.27</ele><time>2025-11-14T20:21:55.000Z</time></trkpt>
        <trkpt lat="28.7370647" lon="104.740323"><ele>350.07</ele><time>2025-11-14T20:22:39.000Z</time></trkpt>
        <trkpt lat="28.7369722" lon="104.740307"><ele>354.34</ele><time>2025-11-14T20:24:41.000Z</time></trkpt>
        <trkpt lat="28.7369006" lon="104.7402299"><ele>359.26</ele><time>2025-11-14T20:25:53.000Z</time></trkpt>
        <trkpt lat="28.7368616" lon="104.7401368"><ele>363.25</ele><time>2025-11-14T20:26:27.000Z</time></trkpt>
        <trkpt lat="28.7367872" lon="104.7400679"><ele>366.5</ele><time>2025-11-14T20:26:40.000Z</time></trkpt>
        <trkpt lat="28.7366951" lon="104.7400053"><ele>369.18</ele><time>2025-11-14T20:27:45.000Z</time></trkpt>
        <trkpt lat="28.7366228" lon="104.7399424"><ele>371.11</ele><time>2025-11-14T20:28:25.000Z</time></trkpt>
        <trkpt lat="28.7365417" lon="104.7398881"><ele>372.63</ele><time>2025-11-14T20:29:55.000Z</time></trkpt>
        <trkpt lat="28.7364369" lon="104.7398939"><ele>375.33</ele><time>2025-11-14T20:33:16.000Z</time></trkpt>
        <trkpt lat="28.7364184" lon="104.7400027"><ele>380.98</ele><time>2025-11-14T20:34:10.000Z</time></trkpt>
        <trkpt lat="28.7364944" lon="104.7400625"><ele>383.45</ele><time>2025-11-14T20:35:43.000Z</time></trkpt>
        <trkpt lat="28.7365506" lon="104.7401524"><ele>390.69</ele><time>2025-11-14T20:35:59.000Z</time></trkpt>
        <trkpt lat="28.7365455" lon="104.740258"><ele>395.5</ele><time>2025-11-14T20:36:27.000Z</time></trkpt>
        <trkpt lat="28.7365691" lon="104.740362"><ele>399.53</ele><time>2025-11-14T20:36:52.000Z</time></trkpt>
        <trkpt lat="28.7365949" lon="104.7404701"><ele>403.12</ele><time>2025-11-14T20:37:57.000Z</time></trkpt>
        <trkpt lat="28.736503" lon="104.740457"><ele>408.08</ele><time>2025-11-14T20:39:34.000Z</time></trkpt>
        <trkpt lat="28.7364013" lon="104.7404128"><ele>414.54</ele><time>2025-11-14T20:41:13.000Z</time></trkpt>
        <trkpt lat="28.7363098" lon="104.7403882"><ele>420.68</ele><time>2025-11-14T20:42:21.000Z</time></trkpt>
        <trkpt lat="28.7363416" lon="104.7404879"><ele>425.74</ele><time>2025-11-14T20:42:50.000Z</time></trkpt>
        <trkpt lat="28.7362611" lon="104.7405512"><ele>430.55</ele><time>2025-11-14T20:44:58.000Z</time></trkpt>
        <trkpt lat="28.736373" lon="104.7405803"><ele>436.26</ele><time>2025-11-14T20:46:10.000Z</time></trkpt>
        <trkpt lat="28.7362708" lon="104.740532"><ele>440.13</ele><time>2025-11-14T20:47:22.000Z</time></trkpt>
        <trkpt lat="28.7361682" lon="104.7405092"><ele>443.23</ele><time>2025-11-14T20:47:39.000Z</time></trkpt>
        <trkpt lat="28.7360733" lon="104.7405088"><ele>445.19</ele><time>2025-11-14T20:47:53.000Z</time></trkpt>
        <trkpt lat="28.7359805" lon="104.7405076"><ele>446.33</ele><time>2025-11-14T20:48:04.000Z</time></trkpt>
        <trkpt lat="28.735891" lon="104.7404951"><ele>446.36</ele><time>2025-11-14T20:48:11.000Z</time></trkpt>
        <trkpt lat="28.7357943" lon="104.7404714"><ele>446.09</ele><time>2025-11-14T20:48:23.000Z</time></trkpt>
        <trkpt lat="28.7357116" lon="104.7405169"><ele>446.62</ele><time>2025-11-14T20:48:41.000Z</time></trkpt>
        <trkpt lat="28.7356236" lon="104.7405733"><ele>447.49</ele><time>2025-11-14T20:48:57.000Z</time></trkpt>
        <trkpt lat="28.7355335" lon="104.7406388"><ele>447.29</ele><time>2025-11-14T20:49:25.000Z</time></trkpt>
        <trkpt lat="28.7354304" lon="104.7406626"><ele>447.88</ele><time>2025-11-14T20:49:59.000Z</time></trkpt>
        <trkpt lat="28.7353306" lon="104.7406797"><ele>447.88</ele><time>2025-11-14T20:50:29.000Z</time></trkpt>
        <trkpt lat="28.7352594" lon="104.7407458"><ele>447.29</ele><time>2025-11-14T20:51:03.000Z</time></trkpt>
        <trkpt lat="28.7352008" lon="104.7408313"><ele>446.8</ele><time>2025-11-14T20:51:33.000Z</time></trkpt>
        <trkpt lat="28.7351953" lon="104.7408539"><ele>446.08</ele><time>2025-11-14T20:51:43.000Z</time></trkpt>
        <trkpt lat="28.7351452" lon="104.7408093"><ele>445.4</ele><time>2025-11-14T20:52:01.000Z</time></trkpt>
        <trkpt lat="28.7350642" lon="104.7408094"><ele>445.73</ele><time>2025-11-14T20:52:33.000Z</time></trkpt>
        <trkpt lat="28.7349721" lon="104.7408328"><ele>445.97</ele><time>2025-11-14T20:53:17.000Z</time></trkpt>
        <trkpt lat="28.7348668" lon="104.7408813"><ele>445.98</ele><time>2025-11-14T20:55:33.000Z</time></trkpt>
        <trkpt lat="28.7348024" lon="104.7409575"><ele>444.65</ele><time>2025-11-14T20:55:40.000Z</time></trkpt>
        <trkpt lat="28.734727" lon="104.7410185"><ele>443.2</ele><time>2025-11-14T20:55:56.000Z</time></trkpt>
        <trkpt lat="28.734704" lon="104.7411112"><ele>444.35</ele><time>2025-11-14T20:56:08.000Z</time></trkpt>
        <trkpt lat="28.7346824" lon="104.7412146"><ele>445.31</ele><time>2025-11-14T20:56:28.000Z</time></trkpt>
        <trkpt lat="28.7346268" lon="104.7412951"><ele>446.48</ele><time>2025-11-14T20:56:46.000Z</time></trkpt>
        <trkpt lat="28.734549" lon="104.7413519"><ele>448.8</ele><time>2025-11-14T20:57:06.000Z</time></trkpt>
        <trkpt lat="28.7344516" lon="104.7413078"><ele>449.26</ele><time>2025-11-14T20:59:09.000Z</time></trkpt>
        <trkpt lat="28.7344186" lon="104.7414137"><ele>450.24</ele><time>2025-11-14T20:59:59.000Z</time></trkpt>
        <trkpt lat="28.7343786" lon="104.7415162"><ele>451.63</ele><time>2025-11-14T21:00:19.000Z</time></trkpt>
        <trkpt lat="28.7343581" lon="104.7416203"><ele>452.39</ele><time>2025-11-14T21:01:10.000Z</time></trkpt>
        <trkpt lat="28.7342996" lon="104.7416988"><ele>452.79</ele><time>2025-11-14T21:01:23.000Z</time></trkpt>
        <trkpt lat="28.7342148" lon="104.741741"><ele>453.26</ele><time>2025-11-14T21:02:05.000Z</time></trkpt>
        <trkpt lat="28.7341299" lon="104.7417041"><ele>456.16</ele><time>2025-11-14T21:02:21.000Z</time></trkpt>
        <trkpt lat="28.7340391" lon="104.7416469"><ele>457.02</ele><time>2025-11-14T21:03:16.000Z</time></trkpt>
        <trkpt lat="28.7339531" lon="104.7415735"><ele>455.16</ele><time>2025-11-14T21:03:37.000Z</time></trkpt>
        <trkpt lat="28.7338643" lon="104.7415605"><ele>454.98</ele><time>2025-11-14T21:03:53.000Z</time></trkpt>
        <trkpt lat="28.7337714" lon="104.7416019"><ele>456.01</ele><time>2025-11-14T21:04:35.000Z</time></trkpt>
        <trkpt lat="28.7336778" lon="104.7416191"><ele>456.73</ele><time>2025-11-14T21:04:49.000Z</time></trkpt>
        <trkpt lat="28.7335804" lon="104.7415956"><ele>458.28</ele><time>2025-11-14T21:05:05.000Z</time></trkpt>
        <trkpt lat="28.7334968" lon="104.7415434"><ele>459.64</ele><time>2025-11-14T21:05:25.000Z</time></trkpt>
        <trkpt lat="28.7334277" lon="104.7414618"><ele>461.27</ele><time>2025-11-14T21:06:09.000Z</time></trkpt>
        <trkpt lat="28.7333513" lon="104.7413689"><ele>462.98</ele><time>2025-11-14T21:06:23.000Z</time></trkpt>
        <trkpt lat="28.7332576" lon="104.7413035"><ele>463.82</ele><time>2025-11-14T21:06:37.000Z</time></trkpt>
        <trkpt lat="28.7331625" lon="104.7412607"><ele>464.74</ele><time>2025-11-14T21:07:05.000Z</time></trkpt>
        <trkpt lat="28.7330593" lon="104.7412546"><ele>464.79</ele><time>2025-11-14T21:07:21.000Z</time></trkpt>
        <trkpt lat="28.7329636" lon="104.7412163"><ele>463.85</ele><time>2025-11-14T21:07:41.000Z</time></trkpt>
        <trkpt lat="28.7328999" lon="104.7411429"><ele>462.22</ele><time>2025-11-14T21:07:55.000Z</time></trkpt>
        <trkpt lat="28.7329962" lon="104.7410619"><ele>461.12</ele><time>2025-11-14T21:09:45.000Z</time></trkpt>
        <trkpt lat="28.7330778" lon="104.741014"><ele>462.54</ele><time>2025-11-14T21:09:59.000Z</time></trkpt>
        <trkpt lat="28.7331481" lon="104.7409386"><ele>463.49</ele><time>2025-11-14T21:10:12.000Z</time></trkpt>
        <trkpt lat="28.7332437" lon="104.7409094"><ele>463.7</ele><time>2025-11-14T21:11:22.000Z</time></trkpt>
        <trkpt lat="28.7333253" lon="104.7408438"><ele>465.33</ele><time>2025-11-14T21:11:45.000Z</time></trkpt>
        <trkpt lat="28.7334101" lon="104.7407959"><ele>465.99</ele><time>2025-11-14T21:11:54.000Z</time></trkpt>
        <trkpt lat="28.7335079" lon="104.7407753"><ele>465.87</ele><time>2025-11-14T21:12:29.000Z</time></trkpt>
        <trkpt lat="28.7336075" lon="104.7407912"><ele>464.94</ele><time>2025-11-14T21:12:45.000Z</time></trkpt>
        <trkpt lat="28.7336988" lon="104.7408426"><ele>465.89</ele><time>2025-11-14T21:13:00.000Z</time></trkpt>
        <trkpt lat="28.7337914" lon="104.7408976"><ele>470.11</ele><time>2025-11-14T21:13:14.000Z</time></trkpt>
        <trkpt lat="28.7338908" lon="104.7409313"><ele>471.49</ele><time>2025-11-14T21:13:39.000Z</time></trkpt>
        <trkpt lat="28.7339933" lon="104.7409013"><ele>474.81</ele><time>2025-11-14T21:16:46.000Z</time></trkpt>
        <trkpt lat="28.7340633" lon="104.7408222"><ele>475.37</ele><time>2025-11-14T21:17:09.000Z</time></trkpt>
        <trkpt lat="28.7340834" lon="104.7407024"><ele>475.8</ele><time>2025-11-14T21:17:31.000Z</time></trkpt>
        <trkpt lat="28.7341294" lon="104.740588"><ele>476.9</ele><time>2025-11-14T21:17:43.000Z</time></trkpt>
        <trkpt lat="28.7341605" lon="104.74048"><ele>477.97</ele><time>2025-11-14T21:17:55.000Z</time></trkpt>
        <trkpt lat="28.7341651" lon="104.7403662"><ele>479.15</ele><time>2025-11-14T21:18:23.000Z</time></trkpt>
        <trkpt lat="28.7341915" lon="104.7402531"><ele>480.37</ele><time>2025-11-14T21:18:36.000Z</time></trkpt>
        <trkpt lat="28.7342525" lon="104.7401617"><ele>480.64</ele><time>2025-11-14T21:18:46.000Z</time></trkpt>
        <trkpt lat="28.7343325" lon="104.7401063"><ele>480.32</ele><time>2025-11-14T21:19:00.000Z</time></trkpt>
        <trkpt lat="28.7344228" lon="104.7400776"><ele>479.71</ele><time>2025-11-14T21:19:14.000Z</time></trkpt>
        <trkpt lat="28.7345176" lon="104.7400353"><ele>478.54</ele><time>2025-11-14T21:19:28.000Z</time></trkpt>
        <trkpt lat="28.7346149" lon="104.7399922"><ele>477.62</ele><time>2025-11-14T21:19:38.000Z</time></trkpt>
        <trkpt lat="28.734702" lon="104.7399344"><ele>477.4</ele><time>2025-11-14T21:19:43.000Z</time></trkpt>
        <trkpt lat="28.734736" lon="104.7398741"><ele>479.24</ele><time>2025-11-14T21:20:05.000Z</time></trkpt>
        <trkpt lat="28.7347339" lon="104.7397795"><ele>481.1</ele><time>2025-11-14T21:20:15.000Z</time></trkpt>
        <trkpt lat="28.7347126" lon="104.7396696"><ele>482.04</ele><time>2025-11-14T21:20:31.000Z</time></trkpt>
        <trkpt lat="28.7346568" lon="104.7395654"><ele>482.55</ele><time>2025-11-14T21:20:43.000Z</time></trkpt>
        <trkpt lat="28.7346082" lon="104.7394537"><ele>483.2</ele><time>2025-11-14T21:21:16.000Z</time></trkpt>
        <trkpt lat="28.7345457" lon="104.7393621"><ele>482.21</ele><time>2025-11-14T21:21:45.000Z</time></trkpt>
        <trkpt lat="28.7344473" lon="104.7393362"><ele>480.05</ele><time>2025-11-14T21:23:05.000Z</time></trkpt>
        <trkpt lat="28.7343751" lon="104.7392462"><ele>477.35</ele><time>2025-11-14T21:23:27.000Z</time></trkpt>
        <trkpt lat="28.7342785" lon="104.7392215"><ele>475.44</ele><time>2025-11-14T21:23:49.000Z</time></trkpt>
        <trkpt lat="28.734185" lon="104.7391828"><ele>473.08</ele><time>2025-11-14T21:24:03.000Z</time></trkpt>
        <trkpt lat="28.7341943" lon="104.7391028"><ele>471.45</ele><time>2025-11-14T21:24:31.000Z</time></trkpt>
        <trkpt lat="28.7342761" lon="104.7390851"><ele>470.99</ele><time>2025-11-14T21:25:05.000Z</time></trkpt>
        <trkpt lat="28.7343241" lon="104.7390082"><ele>470.93</ele><time>2025-11-14T21:25:15.000Z</time></trkpt>
        <trkpt lat="28.7343451" lon="104.7388946"><ele>470.82</ele><time>2025-11-14T21:25:25.000Z</time></trkpt>
        <trkpt lat="28.7343452" lon="104.738779"><ele>470.68</ele><time>2025-11-14T21:25:39.000Z</time></trkpt>
        <trkpt lat="28.7343082" lon="104.7386781"><ele>471.1</ele><time>2025-11-14T21:25:51.000Z</time></trkpt>
        <trkpt lat="28.7342507" lon="104.7385802"><ele>472.26</ele><time>2025-11-14T21:26:07.000Z</time></trkpt>
        <trkpt lat="28.7341902" lon="104.7384777"><ele>473.7</ele><time>2025-11-14T21:26:19.000Z</time></trkpt>
        <trkpt lat="28.7341197" lon="104.7383761"><ele>474.91</ele><time>2025-11-14T21:26:41.000Z</time></trkpt>
        <trkpt lat="28.7340626" lon="104.7382771"><ele>475.53</ele><time>2025-11-14T21:27:01.000Z</time></trkpt>
        <trkpt lat="28.7340089" lon="104.7381871"><ele>475.34</ele><time>2025-11-14T21:27:16.000Z</time></trkpt>
        <trkpt lat="28.7339371" lon="104.7381211"><ele>475.53</ele><time>2025-11-14T21:27:29.000Z</time></trkpt>
        <trkpt lat="28.7339055" lon="104.7380651"><ele>475.86</ele><time>2025-11-14T21:27:35.000Z</time></trkpt>
        <trkpt lat="28.7338538" lon="104.7379916"><ele>476.57</ele><time>2025-11-14T21:28:21.000Z</time></trkpt>
        <trkpt lat="28.7338083" lon="104.7379037"><ele>479.3</ele><time>2025-11-14T21:28:35.000Z</time></trkpt>
        <trkpt lat="28.7337312" lon="104.7378543"><ele>481.69</ele><time>2025-11-14T21:29:01.000Z</time></trkpt>
        <trkpt lat="28.7337109" lon="104.7377598"><ele>482.13</ele><time>2025-11-14T21:29:40.000Z</time></trkpt>
        <trkpt lat="28.7336443" lon="104.7376893"><ele>480.54</ele><time>2025-11-14T21:30:16.000Z</time></trkpt>
        <trkpt lat="28.7336444" lon="104.7375866"><ele>478.66</ele><time>2025-11-14T21:31:05.000Z</time></trkpt>
        <trkpt lat="28.7336429" lon="104.7375552"><ele>475.99</ele><time>2025-11-14T21:31:13.000Z</time></trkpt>
        <trkpt lat="28.7336282" lon="104.7374796"><ele>474.43</ele><time>2025-11-14T21:31:45.000Z</time></trkpt>
        <trkpt lat="28.7335536" lon="104.7374175"><ele>473.14</ele><time>2025-11-14T21:32:01.000Z</time></trkpt>
        <trkpt lat="28.7334726" lon="104.7373575"><ele>471.48</ele><time>2025-11-14T21:32:17.000Z</time></trkpt>
        <trkpt lat="28.7333799" lon="104.7373373"><ele>469.27</ele><time>2025-11-14T21:32:35.000Z</time></trkpt>
        <trkpt lat="28.7332964" lon="104.7372921"><ele>467.07</ele><time>2025-11-14T21:33:29.000Z</time></trkpt>
        <trkpt lat="28.7332101" lon="104.737254"><ele>465.89</ele><time>2025-11-14T21:33:47.000Z</time></trkpt>
        <trkpt lat="28.7332424" lon="104.737182"><ele>465.51</ele><time>2025-11-14T21:34:29.000Z</time></trkpt>
        <trkpt lat="28.7333152" lon="104.7370907"><ele>466.28</ele><time>2025-11-14T21:34:55.000Z</time></trkpt>
        <trkpt lat="28.7333614" lon="104.7369822"><ele>467.35</ele><time>2025-11-14T21:35:09.000Z</time></trkpt>
        <trkpt lat="28.7333743" lon="104.7368685"><ele>469.2</ele><time>2025-11-14T21:35:29.000Z</time></trkpt>
        <trkpt lat="28.7333743" lon="104.7368685"><ele>469.2</ele><time>2025-11-14T21:42:11.000Z</time></trkpt>
        <trkpt lat="28.7333743" lon="104.7368685"><ele>469.2</ele><time>2025-11-14T22:00:53.000Z</time></trkpt>
        <trkpt lat="28.7333743" lon="104.7368685"><ele>469.2</ele><time>2025-11-14T22:01:05.000Z</time></trkpt>
      </trkseg>
      <trkseg>
        <trkpt lat="28.733466" lon="104.7366849"><ele>470.64</ele><time>2025-11-14T22:33:19.000Z</time></trkpt>
        <trkpt lat="28.733466" lon="104.7366849"><ele>470.64</ele><time>2025-11-14T22:33:21.000Z</time></trkpt>
        <trkpt lat="28.7333538" lon="104.7367555"><ele>471.33</ele><time>2025-11-14T22:33:26.000Z</time></trkpt>
        <trkpt lat="28.733346" lon="104.736672"><ele>483.24</ele><time>2025-11-14T22:33:51.000Z</time></trkpt>
        <trkpt lat="28.7332909" lon="104.7365821"><ele>489.34</ele><time>2025-11-14T22:33:59.000Z</time></trkpt>
        <trkpt lat="28.7331952" lon="104.7365422"><ele>488.8</ele><time>2025-11-14T22:34:08.000Z</time></trkpt>
        <trkpt lat="28.7331048" lon="104.7364836"><ele>488.8</ele><time>2025-11-14T22:34:16.000Z</time></trkpt>
        <trkpt lat="28.7330251" lon="104.7364073"><ele>490.06</ele><time>2025-11-14T22:34:26.000Z</time></trkpt>
        <trkpt lat="28.7330428" lon="104.7363145"><ele>491.29</ele><time>2025-11-14T22:34:54.000Z</time></trkpt>
        <trkpt lat="28.733073" lon="104.7361959"><ele>490.31</ele><time>2025-11-14T22:35:10.000Z</time></trkpt>
        <trkpt lat="28.7331101" lon="104.7360759"><ele>489.25</ele><time>2025-11-14T22:35:21.000Z</time></trkpt>
        <trkpt lat="28.7331423" lon="104.7359665"><ele>488.34</ele><time>2025-11-14T22:35:29.000Z</time></trkpt>
        <trkpt lat="28.7331381" lon="104.7358557"><ele>488.69</ele><time>2025-11-14T22:35:40.000Z</time></trkpt>
        <trkpt lat="28.7330998" lon="104.7357441"><ele>488.39</ele><time>2025-11-14T22:35:49.000Z</time></trkpt>
        <trkpt lat="28.7330492" lon="104.7356225"><ele>487.99</ele><time>2025-11-14T22:36:00.000Z</time></trkpt>
        <trkpt lat="28.7330059" lon="104.7355129"><ele>489.79</ele><time>2025-11-14T22:36:08.000Z</time></trkpt>
        <trkpt lat="28.73295" lon="104.7354108"><ele>490.92</ele><time>2025-11-14T22:36:18.000Z</time></trkpt>
        <trkpt lat="28.7328877" lon="104.7353268"><ele>491.89</ele><time>2025-11-14T22:36:26.000Z</time></trkpt>
        <trkpt lat="28.7328284" lon="104.7352333"><ele>492.66</ele><time>2025-11-14T22:36:34.000Z</time></trkpt>
        <trkpt lat="28.7327441" lon="104.7351621"><ele>492.91</ele><time>2025-11-14T22:36:48.000Z</time></trkpt>
        <trkpt lat="28.7326362" lon="104.7351367"><ele>493.51</ele><time>2025-11-14T22:36:58.000Z</time></trkpt>
        <trkpt lat="28.7325218" lon="104.7351091"><ele>494.1</ele><time>2025-11-14T22:37:08.000Z</time></trkpt>
        <trkpt lat="28.7324556" lon="104.7350376"><ele>494.6</ele><time>2025-11-14T22:37:18.000Z</time></trkpt>
        <trkpt lat="28.7324533" lon="104.735106"><ele>494.65</ele><time>2025-11-14T22:38:05.000Z</time></trkpt>
        <trkpt lat="28.7324157" lon="104.7351983"><ele>491.09</ele><time>2025-11-14T22:38:55.000Z</time></trkpt>
        <trkpt lat="28.7323466" lon="104.7352729"><ele>489.02</ele><time>2025-11-14T22:39:09.000Z</time></trkpt>
        <trkpt lat="28.7322605" lon="104.735335"><ele>488.61</ele><time>2025-11-14T22:39:24.000Z</time></trkpt>
        <trkpt lat="28.732334" lon="104.7352778"><ele>488.27</ele><time>2025-11-14T22:40:43.000Z</time></trkpt>
        <trkpt lat="28.7324235" lon="104.7352492"><ele>488.2</ele><time>2025-11-14T22:40:57.000Z</time></trkpt>
        <trkpt lat="28.732472" lon="104.7351602"><ele>486.37</ele><time>2025-11-14T22:41:07.000Z</time></trkpt>
        <trkpt lat="28.7325487" lon="104.735161"><ele>485.42</ele><time>2025-11-14T22:41:15.000Z</time></trkpt>
        <trkpt lat="28.7326384" lon="104.7351748"><ele>484.57</ele><time>2025-11-14T22:41:24.000Z</time></trkpt>
        <trkpt lat="28.7326455" lon="104.7352632"><ele>484.07</ele><time>2025-11-14T22:41:53.000Z</time></trkpt>
        <trkpt lat="28.7325991" lon="104.7353632"><ele>483.65</ele><time>2025-11-14T22:42:05.000Z</time></trkpt>
        <trkpt lat="28.7326082" lon="104.7353266"><ele>482.73</ele><time>2025-11-14T22:43:04.000Z</time></trkpt>
        <trkpt lat="28.7326448" lon="104.7352269"><ele>479.97</ele><time>2025-11-14T22:43:18.000Z</time></trkpt>
        <trkpt lat="28.7325789" lon="104.73518"><ele>478.9</ele><time>2025-11-14T22:43:37.000Z</time></trkpt>
        <trkpt lat="28.7324784" lon="104.7351884"><ele>479.59</ele><time>2025-11-14T22:44:15.000Z</time></trkpt>
        <trkpt lat="28.7323799" lon="104.7352285"><ele>482.55</ele><time>2025-11-14T22:44:25.000Z</time></trkpt>
        <trkpt lat="28.7322871" lon="104.7352878"><ele>484.03</ele><time>2025-11-14T22:44:46.000Z</time></trkpt>
        <trkpt lat="28.732186" lon="104.7353258"><ele>485.52</ele><time>2025-11-14T22:45:02.000Z</time></trkpt>
        <trkpt lat="28.7320996" lon="104.7353874"><ele>486.5</ele><time>2025-11-14T22:45:21.000Z</time></trkpt>
        <trkpt lat="28.7320484" lon="104.7354955"><ele>487.4</ele><time>2025-11-14T22:45:34.000Z</time></trkpt>
        <trkpt lat="28.7320467" lon="104.7356219"><ele>486.58</ele><time>2025-11-14T22:45:42.000Z</time></trkpt>
        <trkpt lat="28.7320203" lon="104.7357329"><ele>484.45</ele><time>2025-11-14T22:46:03.000Z</time></trkpt>
        <trkpt lat="28.7319513" lon="104.7357244"><ele>482.52</ele><time>2025-11-14T22:46:47.000Z</time></trkpt>
        <trkpt lat="28.7318305" lon="104.7356802"><ele>480.78</ele><time>2025-11-14T22:48:58.000Z</time></trkpt>
        <trkpt lat="28.7317321" lon="104.7356475"><ele>474.79</ele><time>2025-11-14T22:49:23.000Z</time></trkpt>
        <trkpt lat="28.7316425" lon="104.7356051"><ele>471.36</ele><time>2025-11-14T22:49:55.000Z</time></trkpt>
        <trkpt lat="28.7316453" lon="104.7354957"><ele>468.19</ele><time>2025-11-14T22:51:01.000Z</time></trkpt>
        <trkpt lat="28.7317247" lon="104.7354167"><ele>465.78</ele><time>2025-11-14T22:52:05.000Z</time></trkpt>
        <trkpt lat="28.7318043" lon="104.7353645"><ele>464.99</ele><time>2025-11-14T22:52:15.000Z</time></trkpt>
        <trkpt lat="28.7317081" lon="104.7354177"><ele>464.54</ele><time>2025-11-14T22:53:15.000Z</time></trkpt>
        <trkpt lat="28.7316448" lon="104.7355101"><ele>465.31</ele><time>2025-11-14T22:53:24.000Z</time></trkpt>
        <trkpt lat="28.7315605" lon="104.7355631"><ele>464.77</ele><time>2025-11-14T22:54:11.000Z</time></trkpt>
        <trkpt lat="28.7314734" lon="104.7355453"><ele>464.62</ele><time>2025-11-14T22:54:27.000Z</time></trkpt>
        <trkpt lat="28.7314122" lon="104.7355962"><ele>463.81</ele><time>2025-11-14T22:55:11.000Z</time></trkpt>
        <trkpt lat="28.731343" lon="104.7356577"><ele>463.85</ele><time>2025-11-14T22:55:41.000Z</time></trkpt>
        <trkpt lat="28.7312521" lon="104.7356515"><ele>464.68</ele><time>2025-11-14T22:57:01.000Z</time></trkpt>
        <trkpt lat="28.7311499" lon="104.7356167"><ele>465.12</ele><time>2025-11-14T22:57:13.000Z</time></trkpt>
        <trkpt lat="28.7311479" lon="104.7355233"><ele>464.02</ele><time>2025-11-14T22:57:44.000Z</time></trkpt>
        <trkpt lat="28.7310838" lon="104.7355275"><ele>462.94</ele><time>2025-11-14T22:57:58.000Z</time></trkpt>
        <trkpt lat="28.730989" lon="104.7355567"><ele>468.06</ele><time>2025-11-14T22:58:38.000Z</time></trkpt>
        <trkpt lat="28.7308849" lon="104.7355357"><ele>467.64</ele><time>2025-11-14T22:58:48.000Z</time></trkpt>
        <trkpt lat="28.7307985" lon="104.7354688"><ele>473.16</ele><time>2025-11-14T22:59:00.000Z</time></trkpt>
        <trkpt lat="28.7307294" lon="104.73539"><ele>477.78</ele><time>2025-11-14T22:59:10.000Z</time></trkpt>
        <trkpt lat="28.7306483" lon="104.7353339"><ele>480.97</ele><time>2025-11-14T22:59:20.000Z</time></trkpt>
        <trkpt lat="28.7305608" lon="104.7352985"><ele>482.68</ele><time>2025-11-14T22:59:32.000Z</time></trkpt>
        <trkpt lat="28.7304663" lon="104.7353136"><ele>483.43</ele><time>2025-11-14T22:59:46.000Z</time></trkpt>
        <trkpt lat="28.7303821" lon="104.7353662"><ele>483.45</ele><time>2025-11-14T22:59:54.000Z</time></trkpt>
        <trkpt lat="28.7303336" lon="104.735466"><ele>483.01</ele><time>2025-11-14T23:00:17.000Z</time></trkpt>
        <trkpt lat="28.7302769" lon="104.7355607"><ele>478.86</ele><time>2025-11-14T23:00:39.000Z</time></trkpt>
        <trkpt lat="28.7301966" lon="104.735628"><ele>475.67</ele><time>2025-11-14T23:00:55.000Z</time></trkpt>
        <trkpt lat="28.7301222" lon="104.7356954"><ele>473.92</ele><time>2025-11-14T23:01:05.000Z</time></trkpt>
        <trkpt lat="28.730125" lon="104.735789"><ele>473.79</ele><time>2025-11-14T23:01:35.000Z</time></trkpt>
        <trkpt lat="28.7300986" lon="104.7357342"><ele>472.43</ele><time>2025-11-14T23:02:09.000Z</time></trkpt>
        <trkpt lat="28.7301271" lon="104.7357742"><ele>471.25</ele><time>2025-11-14T23:02:45.000Z</time></trkpt>
        <trkpt lat="28.730175" lon="104.7358867"><ele>470.03</ele><time>2025-11-14T23:04:01.000Z</time></trkpt>
        <trkpt lat="28.7301565" lon="104.7359974"><ele>470.69</ele><time>2025-11-14T23:04:29.000Z</time></trkpt>
        <trkpt lat="28.7301715" lon="104.7358911"><ele>474.14</ele><time>2025-11-14T23:05:31.000Z</time></trkpt>
        <trkpt lat="28.7301457" lon="104.7357678"><ele>477.32</ele><time>2025-11-14T23:05:43.000Z</time></trkpt>
        <trkpt lat="28.7300997" lon="104.7356755"><ele>477.5</ele><time>2025-11-14T23:05:53.000Z</time></trkpt>
        <trkpt lat="28.7300375" lon="104.7356002"><ele>477.69</ele><time>2025-11-14T23:06:03.000Z</time></trkpt>
        <trkpt lat="28.7299778" lon="104.7355572"><ele>480.67</ele><time>2025-11-14T23:06:13.000Z</time></trkpt>
        <trkpt lat="28.729881" lon="104.7355783"><ele>482.51</ele><time>2025-11-14T23:06:55.000Z</time></trkpt>
        <trkpt lat="28.7297823" lon="104.73559"><ele>482.9</ele><time>2025-11-14T23:07:07.000Z</time></trkpt>
        <trkpt lat="28.7296895" lon="104.735626"><ele>483.54</ele><time>2025-11-14T23:07:33.000Z</time></trkpt>
        <trkpt lat="28.7295965" lon="104.7356"><ele>485.65</ele><time>2025-11-14T23:08:01.000Z</time></trkpt>
        <trkpt lat="28.7295398" lon="104.7355191"><ele>487.88</ele><time>2025-11-14T23:08:37.000Z</time></trkpt>
        <trkpt lat="28.7294673" lon="104.7354557"><ele>489.13</ele><time>2025-11-14T23:08:47.000Z</time></trkpt>
        <trkpt lat="28.7293912" lon="104.7353889"><ele>490.39</ele><time>2025-11-14T23:08:58.000Z</time></trkpt>
        <trkpt lat="28.7293144" lon="104.7353179"><ele>491.83</ele><time>2025-11-14T23:09:16.000Z</time></trkpt>
        <trkpt lat="28.72925" lon="104.7352284"><ele>492.87</ele><time>2025-11-14T23:09:27.000Z</time></trkpt>
        <trkpt lat="28.729185" lon="104.735147"><ele>493.42</ele><time>2025-11-14T23:09:35.000Z</time></trkpt>
        <trkpt lat="28.7291281" lon="104.7350465"><ele>493.49</ele><time>2025-11-14T23:09:48.000Z</time></trkpt>
        <trkpt lat="28.7290966" lon="104.7349319"><ele>495.67</ele><time>2025-11-14T23:10:15.000Z</time></trkpt>
        <trkpt lat="28.7290805" lon="104.7348206"><ele>493.86</ele><time>2025-11-14T23:10:25.000Z</time></trkpt>
        <trkpt lat="28.7291013" lon="104.7347089"><ele>493.46</ele><time>2025-11-14T23:10:46.000Z</time></trkpt>
        <trkpt lat="28.7291386" lon="104.7346046"><ele>493.88</ele><time>2025-11-14T23:11:04.000Z</time></trkpt>
        <trkpt lat="28.7291017" lon="104.73452"><ele>494.34</ele><time>2025-11-14T23:11:17.000Z</time></trkpt>
        <trkpt lat="28.7290371" lon="104.7344429"><ele>494.24</ele><time>2025-11-14T23:11:40.000Z</time></trkpt>
        <trkpt lat="28.7290055" lon="104.7343452"><ele>493.35</ele><time>2025-11-14T23:11:51.000Z</time></trkpt>
        <trkpt lat="28.7289865" lon="104.7342433"><ele>492.18</ele><time>2025-11-14T23:12:05.000Z</time></trkpt>
        <trkpt lat="28.7289376" lon="104.7341516"><ele>491.65</ele><time>2025-11-14T23:12:23.000Z</time></trkpt>
        <trkpt lat="28.7288587" lon="104.7341552"><ele>490.13</ele><time>2025-11-14T23:12:39.000Z</time></trkpt>
        <trkpt lat="28.7288115" lon="104.7342427"><ele>487.64</ele><time>2025-11-14T23:13:17.000Z</time></trkpt>
        <trkpt lat="28.7287564" lon="104.7343418"><ele>484.22</ele><time>2025-11-14T23:13:35.000Z</time></trkpt>
        <trkpt lat="28.7287236" lon="104.7344566"><ele>482.07</ele><time>2025-11-14T23:14:05.000Z</time></trkpt>
        <trkpt lat="28.7286592" lon="104.7345462"><ele>481.53</ele><time>2025-11-14T23:14:33.000Z</time></trkpt>
        <trkpt lat="28.7285978" lon="104.7346404"><ele>482.15</ele><time>2025-11-14T23:15:05.000Z</time></trkpt>
        <trkpt lat="28.7285767" lon="104.7347425"><ele>484.28</ele><time>2025-11-14T23:15:29.000Z</time></trkpt>
        <trkpt lat="28.72851" lon="104.7347503"><ele>487.66</ele><time>2025-11-14T23:15:43.000Z</time></trkpt>
        <trkpt lat="28.7285141" lon="104.7348144"><ele>490.34</ele><time>2025-11-14T23:16:37.000Z</time></trkpt>
        <trkpt lat="28.728528" lon="104.7348464"><ele>490.95</ele><time>2025-11-14T23:16:41.000Z</time></trkpt>
        <trkpt lat="28.7285205" lon="104.7347235"><ele>491.18</ele><time>2025-11-14T23:18:43.000Z</time></trkpt>
        <trkpt lat="28.7284763" lon="104.7346319"><ele>489.76</ele><time>2025-11-14T23:18:52.000Z</time></trkpt>
        <trkpt lat="28.7284183" lon="104.7345348"><ele>487.97</ele><time>2025-11-14T23:19:04.000Z</time></trkpt>
        <trkpt lat="28.7283919" lon="104.7344332"><ele>486.97</ele><time>2025-11-14T23:19:16.000Z</time></trkpt>
        <trkpt lat="28.728384" lon="104.7343284"><ele>486.86</ele><time>2025-11-14T23:19:26.000Z</time></trkpt>
        <trkpt lat="28.7283855" lon="104.7342242"><ele>487.19</ele><time>2025-11-14T23:19:46.000Z</time></trkpt>
        <trkpt lat="28.7283974" lon="104.7341206"><ele>489</ele><time>2025-11-14T23:20:12.000Z</time></trkpt>
        <trkpt lat="28.7284128" lon="104.7340124"><ele>490.76</ele><time>2025-11-14T23:20:28.000Z</time></trkpt>
        <trkpt lat="28.7284324" lon="104.7339045"><ele>492.82</ele><time>2025-11-14T23:20:38.000Z</time></trkpt>
        <trkpt lat="28.7284509" lon="104.7337997"><ele>493.9</ele><time>2025-11-14T23:20:56.000Z</time></trkpt>
        <trkpt lat="28.728449" lon="104.7336943"><ele>495.64</ele><time>2025-11-14T23:22:31.000Z</time></trkpt>
        <trkpt lat="28.7284193" lon="104.7335814"><ele>501.68</ele><time>2025-11-14T23:22:53.000Z</time></trkpt>
        <trkpt lat="28.728358" lon="104.7334888"><ele>504.94</ele><time>2025-11-14T23:23:07.000Z</time></trkpt>
        <trkpt lat="28.7282681" lon="104.7334527"><ele>506.97</ele><time>2025-11-14T23:23:17.000Z</time></trkpt>
        <trkpt lat="28.7281718" lon="104.7334336"><ele>508.41</ele><time>2025-11-14T23:23:37.000Z</time></trkpt>
        <trkpt lat="28.728117" lon="104.7333549"><ele>510.34</ele><time>2025-11-14T23:23:47.000Z</time></trkpt>
        <trkpt lat="28.7280744" lon="104.7332622"><ele>507.93</ele><time>2025-11-14T23:23:55.000Z</time></trkpt>
        <trkpt lat="28.7280299" lon="104.7331519"><ele>509.38</ele><time>2025-11-14T23:24:05.000Z</time></trkpt>
        <trkpt lat="28.7279654" lon="104.7330632"><ele>509.94</ele><time>2025-11-14T23:24:16.000Z</time></trkpt>
        <trkpt lat="28.7278712" lon="104.7330291"><ele>510.42</ele><time>2025-11-14T23:24:27.000Z</time></trkpt>
        <trkpt lat="28.7277677" lon="104.7330001"><ele>511.78</ele><time>2025-11-14T23:24:37.000Z</time></trkpt>
        <trkpt lat="28.7276748" lon="104.7329476"><ele>514.32</ele><time>2025-11-14T23:24:49.000Z</time></trkpt>
        <trkpt lat="28.7276097" lon="104.7328649"><ele>513.94</ele><time>2025-11-14T23:24:59.000Z</time></trkpt>
        <trkpt lat="28.7275441" lon="104.7327901"><ele>514.05</ele><time>2025-11-14T23:25:07.000Z</time></trkpt>
        <trkpt lat="28.7274613" lon="104.7327344"><ele>516.44</ele><time>2025-11-14T23:25:19.000Z</time></trkpt>
        <trkpt lat="28.7273678" lon="104.7327006"><ele>515.91</ele><time>2025-11-14T23:25:28.000Z</time></trkpt>
        <trkpt lat="28.7272686" lon="104.7327191"><ele>515.39</ele><time>2025-11-14T23:25:39.000Z</time></trkpt>
        <trkpt lat="28.7271759" lon="104.732763"><ele>514.73</ele><time>2025-11-14T23:25:53.000Z</time></trkpt>
        <trkpt lat="28.727086" lon="104.7327576"><ele>513.71</ele><time>2025-11-14T23:26:04.000Z</time></trkpt>
        <trkpt lat="28.7269891" lon="104.7327735"><ele>513.01</ele><time>2025-11-14T23:26:17.000Z</time></trkpt>
        <trkpt lat="28.7268826" lon="104.7327726"><ele>512.6</ele><time>2025-11-14T23:26:30.000Z</time></trkpt>
        <trkpt lat="28.7267857" lon="104.7327877"><ele>512.57</ele><time>2025-11-14T23:26:40.000Z</time></trkpt>
        <trkpt lat="28.7266975" lon="104.7328515"><ele>511.25</ele><time>2025-11-14T23:26:52.000Z</time></trkpt>
        <trkpt lat="28.7266074" lon="104.7329244"><ele>508.9</ele><time>2025-11-14T23:27:04.000Z</time></trkpt>
        <trkpt lat="28.7264857" lon="104.7329757"><ele>508.54</ele><time>2025-11-14T23:27:16.000Z</time></trkpt>
        <trkpt lat="28.7263934" lon="104.7330464"><ele>508.73</ele><time>2025-11-14T23:27:34.000Z</time></trkpt>
        <trkpt lat="28.7263191" lon="104.7331339"><ele>513.48</ele><time>2025-11-14T23:27:48.000Z</time></trkpt>
        <trkpt lat="28.7262604" lon="104.7332199"><ele>514.81</ele><time>2025-11-14T23:28:04.000Z</time></trkpt>
        <trkpt lat="28.7261746" lon="104.7333176"><ele>514.42</ele><time>2025-11-14T23:28:18.000Z</time></trkpt>
        <trkpt lat="28.7260912" lon="104.7333949"><ele>515.77</ele><time>2025-11-14T23:28:24.000Z</time></trkpt>
        <trkpt lat="28.7260007" lon="104.7334549"><ele>517.03</ele><time>2025-11-14T23:28:38.000Z</time></trkpt>
        <trkpt lat="28.7259067" lon="104.7334368"><ele>519.63</ele><time>2025-11-14T23:29:00.000Z</time></trkpt>
        <trkpt lat="28.7258188" lon="104.7334677"><ele>523.44</ele><time>2025-11-14T23:29:10.000Z</time></trkpt>
        <trkpt lat="28.7257324" lon="104.7335218"><ele>527.37</ele><time>2025-11-14T23:29:17.000Z</time></trkpt>
        <trkpt lat="28.725644" lon="104.7335734"><ele>529.9</ele><time>2025-11-14T23:29:25.000Z</time></trkpt>
        <trkpt lat="28.7255974" lon="104.7336652"><ele>530.83</ele><time>2025-11-14T23:29:37.000Z</time></trkpt>
        <trkpt lat="28.7255619" lon="104.7337653"><ele>530.28</ele><time>2025-11-14T23:29:53.000Z</time></trkpt>
        <trkpt lat="28.7254991" lon="104.7338385"><ele>529.51</ele><time>2025-11-14T23:30:02.000Z</time></trkpt>
        <trkpt lat="28.7254424" lon="104.733935"><ele>534.8</ele><time>2025-11-14T23:30:12.000Z</time></trkpt>
        <trkpt lat="28.725387" lon="104.7340431"><ele>532.46</ele><time>2025-11-14T23:30:24.000Z</time></trkpt>
        <trkpt lat="28.7253312" lon="104.7341472"><ele>529.22</ele><time>2025-11-14T23:30:34.000Z</time></trkpt>
        <trkpt lat="28.7252709" lon="104.7342375"><ele>527.53</ele><time>2025-11-14T23:30:46.000Z</time></trkpt>
        <trkpt lat="28.7252003" lon="104.7343278"><ele>526.83</ele><time>2025-11-14T23:30:57.000Z</time></trkpt>
        <trkpt lat="28.7251193" lon="104.7343806"><ele>525.16</ele><time>2025-11-14T23:31:23.000Z</time></trkpt>
        <trkpt lat="28.7250411" lon="104.7344668"><ele>525.5</ele><time>2025-11-14T23:32:09.000Z</time></trkpt>
        <trkpt lat="28.7249377" lon="104.7344928"><ele>526.77</ele><time>2025-11-14T23:32:17.000Z</time></trkpt>
        <trkpt lat="28.7248406" lon="104.7345233"><ele>528.7</ele><time>2025-11-14T23:32:28.000Z</time></trkpt>
        <trkpt lat="28.7247491" lon="104.734547"><ele>529.5</ele><time>2025-11-14T23:32:42.000Z</time></trkpt>
        <trkpt lat="28.7246603" lon="104.7345863"><ele>530.26</ele><time>2025-11-14T23:32:50.000Z</time></trkpt>
        <trkpt lat="28.7245737" lon="104.734626"><ele>530.67</ele><time>2025-11-14T23:32:58.000Z</time></trkpt>
        <trkpt lat="28.7244858" lon="104.7346564"><ele>531.51</ele><time>2025-11-14T23:33:08.000Z</time></trkpt>
        <trkpt lat="28.724397" lon="104.7346839"><ele>532.21</ele><time>2025-11-14T23:33:16.000Z</time></trkpt>
        <trkpt lat="28.7242974" lon="104.7346895"><ele>532.92</ele><time>2025-11-14T23:33:26.000Z</time></trkpt>
        <trkpt lat="28.7241921" lon="104.7346837"><ele>533.59</ele><time>2025-11-14T23:33:36.000Z</time></trkpt>
        <trkpt lat="28.7240936" lon="104.7346835"><ele>535.42</ele><time>2025-11-14T23:33:46.000Z</time></trkpt>
        <trkpt lat="28.7239954" lon="104.7347102"><ele>536.98</ele><time>2025-11-14T23:33:56.000Z</time></trkpt>
        <trkpt lat="28.7239177" lon="104.7347727"><ele>538.24</ele><time>2025-11-14T23:34:03.000Z</time></trkpt>
        <trkpt lat="28.7238538" lon="104.7348544"><ele>538.47</ele><time>2025-11-14T23:34:11.000Z</time></trkpt>
        <trkpt lat="28.7237811" lon="104.7349354"><ele>536.83</ele><time>2025-11-14T23:34:23.000Z</time></trkpt>
        <trkpt lat="28.7237266" lon="104.7350172"><ele>535.37</ele><time>2025-11-14T23:34:33.000Z</time></trkpt>
        <trkpt lat="28.7237514" lon="104.7349643"><ele>535.03</ele><time>2025-11-14T23:35:09.000Z</time></trkpt>
        <trkpt lat="28.7237362" lon="104.7348682"><ele>533.48</ele><time>2025-11-14T23:35:46.000Z</time></trkpt>
        <trkpt lat="28.7236579" lon="104.7348374"><ele>534.64</ele><time>2025-11-14T23:35:58.000Z</time></trkpt>
        <trkpt lat="28.7235672" lon="104.7347647"><ele>532.77</ele><time>2025-11-14T23:36:06.000Z</time></trkpt>
        <trkpt lat="28.7235535" lon="104.7347367"><ele>537.33</ele><time>2025-11-14T23:36:08.000Z</time></trkpt>
        <trkpt lat="28.7235027" lon="104.7346783"><ele>537.66</ele><time>2025-11-14T23:36:37.000Z</time></trkpt>
        <trkpt lat="28.7234528" lon="104.734591"><ele>535.8</ele><time>2025-11-14T23:36:57.000Z</time></trkpt>
        <trkpt lat="28.7233728" lon="104.7345342"><ele>533.91</ele><time>2025-11-14T23:37:11.000Z</time></trkpt>
        <trkpt lat="28.7232823" lon="104.7345077"><ele>532.35</ele><time>2025-11-14T23:37:35.000Z</time></trkpt>
        <trkpt lat="28.7231831" lon="104.7345109"><ele>531.49</ele><time>2025-11-14T23:38:43.000Z</time></trkpt>
        <trkpt lat="28.7232851" lon="104.7345172"><ele>531.16</ele><time>2025-11-14T23:40:55.000Z</time></trkpt>
        <trkpt lat="28.7233768" lon="104.7345518"><ele>531.61</ele><time>2025-11-14T23:41:23.000Z</time></trkpt>
        <trkpt lat="28.7232768" lon="104.7345968"><ele>532.2</ele><time>2025-11-14T23:42:43.000Z</time></trkpt>
        <trkpt lat="28.7231874" lon="104.7346502"><ele>533.5</ele><time>2025-11-14T23:43:10.000Z</time></trkpt>
        <trkpt lat="28.7230943" lon="104.7346797"><ele>533.4</ele><time>2025-11-14T23:43:28.000Z</time></trkpt>
        <trkpt lat="28.723004" lon="104.7346762"><ele>532.63</ele><time>2025-11-14T23:43:57.000Z</time></trkpt>
        <trkpt lat="28.7229037" lon="104.734691"><ele>531.87</ele><time>2025-11-14T23:44:07.000Z</time></trkpt>
        <trkpt lat="28.7227931" lon="104.7347029"><ele>530.43</ele><time>2025-11-14T23:45:47.000Z</time></trkpt>
        <trkpt lat="28.7227051" lon="104.7347391"><ele>529.02</ele><time>2025-11-14T23:46:11.000Z</time></trkpt>
        <trkpt lat="28.7226002" lon="104.7347548"><ele>526.83</ele><time>2025-11-14T23:46:43.000Z</time></trkpt>
        <trkpt lat="28.7224957" lon="104.7347748"><ele>524.1</ele><time>2025-11-14T23:46:59.000Z</time></trkpt>
        <trkpt lat="28.7224028" lon="104.7347551"><ele>523.04</ele><time>2025-11-14T23:47:11.000Z</time></trkpt>
        <trkpt lat="28.7223181" lon="104.734696"><ele>523.22</ele><time>2025-11-14T23:47:29.000Z</time></trkpt>
        <trkpt lat="28.7222275" lon="104.7346888"><ele>523.5</ele><time>2025-11-14T23:48:16.000Z</time></trkpt>
        <trkpt lat="28.7221365" lon="104.7347161"><ele>524.35</ele><time>2025-11-14T23:48:32.000Z</time></trkpt>
        <trkpt lat="28.7220426" lon="104.7347118"><ele>529.17</ele><time>2025-11-14T23:48:55.000Z</time></trkpt>
        <trkpt lat="28.7219515" lon="104.734677"><ele>528.68</ele><time>2025-11-14T23:49:17.000Z</time></trkpt>
        <trkpt lat="28.7218617" lon="104.7346169"><ele>528.55</ele><time>2025-11-14T23:49:37.000Z</time></trkpt>
        <trkpt lat="28.721775" lon="104.7345653"><ele>528.42</ele><time>2025-11-14T23:49:51.000Z</time></trkpt>
        <trkpt lat="28.7217005" lon="104.7344826"><ele>528.11</ele><time>2025-11-14T23:50:01.000Z</time></trkpt>
        <trkpt lat="28.7216329" lon="104.7344064"><ele>526.72</ele><time>2025-11-14T23:50:17.000Z</time></trkpt>
        <trkpt lat="28.7215837" lon="104.7343005"><ele>526.71</ele><time>2025-11-14T23:50:29.000Z</time></trkpt>
        <trkpt lat="28.7215886" lon="104.7341756"><ele>525.53</ele><time>2025-11-14T23:50:40.000Z</time></trkpt>
        <trkpt lat="28.7216543" lon="104.7340829"><ele>531.69</ele><time>2025-11-14T23:51:25.000Z</time></trkpt>
        <trkpt lat="28.7217158" lon="104.7339945"><ele>528.64</ele><time>2025-11-14T23:51:32.000Z</time></trkpt>
        <trkpt lat="28.7217774" lon="104.7339054"><ele>525.65</ele><time>2025-11-14T23:51:40.000Z</time></trkpt>
        <trkpt lat="28.7218322" lon="104.7338062"><ele>522.54</ele><time>2025-11-14T23:51:56.000Z</time></trkpt>
        <trkpt lat="28.7219031" lon="104.7337169"><ele>521.49</ele><time>2025-11-14T23:52:35.000Z</time></trkpt>
        <trkpt lat="28.7219154" lon="104.7336158"><ele>518.39</ele><time>2025-11-14T23:52:53.000Z</time></trkpt>
        <trkpt lat="28.7218067" lon="104.7335604"><ele>516.86</ele><time>2025-11-14T23:54:09.000Z</time></trkpt>
        <trkpt lat="28.7217377" lon="104.7334885"><ele>517.85</ele><time>2025-11-14T23:55:29.000Z</time></trkpt>
        <trkpt lat="28.7216784" lon="104.7333893"><ele>520.13</ele><time>2025-11-14T23:56:31.000Z</time></trkpt>
        <trkpt lat="28.7216168" lon="104.7333118"><ele>521.56</ele><time>2025-11-14T23:56:45.000Z</time></trkpt>
        <trkpt lat="28.7216185" lon="104.7332065"><ele>521.76</ele><time>2025-11-14T23:57:27.000Z</time></trkpt>
        <trkpt lat="28.7216131" lon="104.7330978"><ele>521.02</ele><time>2025-11-14T23:57:53.000Z</time></trkpt>
        <trkpt lat="28.7216278" lon="104.7329892"><ele>520.78</ele><time>2025-11-14T23:58:05.000Z</time></trkpt>
        <trkpt lat="28.7216445" lon="104.7328766"><ele>518.95</ele><time>2025-11-14T23:58:35.000Z</time></trkpt>
        <trkpt lat="28.7216738" lon="104.7327714"><ele>516.96</ele><time>2025-11-14T23:58:55.000Z</time></trkpt>
        <trkpt lat="28.7217195" lon="104.7326665"><ele>515.89</ele><time>2025-11-14T23:59:07.000Z</time></trkpt>
        <trkpt lat="28.7217671" lon="104.7325661"><ele>515.65</ele><time>2025-11-14T23:59:25.000Z</time></trkpt>
        <trkpt lat="28.7217973" lon="104.7324648"><ele>515.52</ele><time>2025-11-15T00:00:59.000Z</time></trkpt>
        <trkpt lat="28.7218052" lon="104.7323567"><ele>516.88</ele><time>2025-11-15T00:01:17.000Z</time></trkpt>
        <trkpt lat="28.7218123" lon="104.7322532"><ele>518.76</ele><time>2025-11-15T00:01:35.000Z</time></trkpt>
        <trkpt lat="28.7217839" lon="104.7321525"><ele>518.49</ele><time>2025-11-15T00:03:43.000Z</time></trkpt>
        <trkpt lat="28.7217475" lon="104.7320561"><ele>515.45</ele><time>2025-11-15T00:04:37.000Z</time></trkpt>
        <trkpt lat="28.7217305" lon="104.7319535"><ele>512.45</ele><time>2025-11-15T00:05:37.000Z</time></trkpt>
        <trkpt lat="28.7217397" lon="104.7318485"><ele>510.48</ele><time>2025-11-15T00:06:34.000Z</time></trkpt>
        <trkpt lat="28.721728" lon="104.731741"><ele>507.06</ele><time>2025-11-15T00:07:11.000Z</time></trkpt>
        <trkpt lat="28.7218086" lon="104.7316823"><ele>505.9</ele><time>2025-11-15T00:08:49.000Z</time></trkpt>
        <trkpt lat="28.7218599" lon="104.7315982"><ele>504.82</ele><time>2025-11-15T00:09:21.000Z</time></trkpt>
        <trkpt lat="28.7218504" lon="104.731495"><ele>502.97</ele><time>2025-11-15T00:09:52.000Z</time></trkpt>
        <trkpt lat="28.7218344" lon="104.7313915"><ele>500.45</ele><time>2025-11-15T00:10:10.000Z</time></trkpt>
        <trkpt lat="28.7218537" lon="104.7312826"><ele>497.52</ele><time>2025-11-15T00:10:41.000Z</time></trkpt>
        <trkpt lat="28.7218837" lon="104.7311811"><ele>496.45</ele><time>2025-11-15T00:10:55.000Z</time></trkpt>
        <trkpt lat="28.7219443" lon="104.7311063"><ele>495.46</ele><time>2025-11-15T00:11:09.000Z</time></trkpt>
        <trkpt lat="28.7219956" lon="104.7310169"><ele>495.96</ele><time>2025-11-15T00:11:43.000Z</time></trkpt>
        <trkpt lat="28.7220469" lon="104.7309274"><ele>496.88</ele><time>2025-11-15T00:12:16.000Z</time></trkpt>
        <trkpt lat="28.7219863" lon="104.7308344"><ele>496.87</ele><time>2025-11-15T00:13:29.000Z</time></trkpt>
        <trkpt lat="28.7219054" lon="104.7307888"><ele>497.52</ele><time>2025-11-15T00:13:43.000Z</time></trkpt>
        <trkpt lat="28.7218217" lon="104.7307195"><ele>498.54</ele><time>2025-11-15T00:14:11.000Z</time></trkpt>
        <trkpt lat="28.7217901" lon="104.7306201"><ele>498.86</ele><time>2025-11-15T00:14:17.000Z</time></trkpt>
        <trkpt lat="28.7217406" lon="104.730535"><ele>501.89</ele><time>2025-11-15T00:14:25.000Z</time></trkpt>
        <trkpt lat="28.7217253" lon="104.7304338"><ele>504.2</ele><time>2025-11-15T00:14:37.000Z</time></trkpt>
        <trkpt lat="28.7217411" lon="104.7303177"><ele>503.36</ele><time>2025-11-15T00:15:01.000Z</time></trkpt>
        <trkpt lat="28.721789" lon="104.7302206"><ele>502.49</ele><time>2025-11-15T00:15:23.000Z</time></trkpt>
        <trkpt lat="28.7218515" lon="104.7301316"><ele>502.72</ele><time>2025-11-15T00:15:45.000Z</time></trkpt>
        <trkpt lat="28.72188" lon="104.7301062"><ele>501.81</ele><time>2025-11-15T00:15:47.000Z</time></trkpt>
        <trkpt lat="28.7219104" lon="104.7300352"><ele>501.31</ele><time>2025-11-15T00:16:23.000Z</time></trkpt>
        <trkpt lat="28.7219146" lon="104.7299336"><ele>501.14</ele><time>2025-11-15T00:16:35.000Z</time></trkpt>
        <trkpt lat="28.7218126" lon="104.7298958"><ele>500.66</ele><time>2025-11-15T00:24:07.000Z</time></trkpt>
        <trkpt lat="28.7217297" lon="104.7298544"><ele>501.22</ele><time>2025-11-15T00:25:31.000Z</time></trkpt>
        <trkpt lat="28.7216323" lon="104.7298617"><ele>501.67</ele><time>2025-11-15T00:26:33.000Z</time></trkpt>
        <trkpt lat="28.7215406" lon="104.7298531"><ele>502.17</ele><time>2025-11-15T00:27:13.000Z</time></trkpt>
        <trkpt lat="28.7214506" lon="104.7298586"><ele>503.14</ele><time>2025-11-15T00:30:11.000Z</time></trkpt>
        <trkpt lat="28.7213633" lon="104.7299018"><ele>509.78</ele><time>2025-11-15T00:31:25.000Z</time></trkpt>
        <trkpt lat="28.7212777" lon="104.7299438"><ele>513.99</ele><time>2025-11-15T00:31:46.000Z</time></trkpt>
        <trkpt lat="28.7211765" lon="104.7299261"><ele>516.96</ele><time>2025-11-15T00:32:07.000Z</time></trkpt>
        <trkpt lat="28.7210859" lon="104.7298824"><ele>518.17</ele><time>2025-11-15T00:32:20.000Z</time></trkpt>
        <trkpt lat="28.7209969" lon="104.7298339"><ele>521.39</ele><time>2025-11-15T00:32:30.000Z</time></trkpt>
        <trkpt lat="28.720898" lon="104.7298126"><ele>523.4</ele><time>2025-11-15T00:32:43.000Z</time></trkpt>
        <trkpt lat="28.7207941" lon="104.7298104"><ele>521.52</ele><time>2025-11-15T00:32:53.000Z</time></trkpt>
        <trkpt lat="28.7206958" lon="104.7298121"><ele>520.92</ele><time>2025-11-15T00:33:05.000Z</time></trkpt>
        <trkpt lat="28.7205926" lon="104.7298121"><ele>520.91</ele><time>2025-11-15T00:33:27.000Z</time></trkpt>
        <trkpt lat="28.7204992" lon="104.7297883"><ele>520.5</ele><time>2025-11-15T00:33:40.000Z</time></trkpt>
        <trkpt lat="28.7204064" lon="104.7297657"><ele>523.98</ele><time>2025-11-15T00:34:06.000Z</time></trkpt>
        <trkpt lat="28.7203064" lon="104.7297359"><ele>525.42</ele><time>2025-11-15T00:34:18.000Z</time></trkpt>
        <trkpt lat="28.7202145" lon="104.7297494"><ele>526.31</ele><time>2025-11-15T00:35:35.000Z</time></trkpt>
        <trkpt lat="28.7201236" lon="104.7297706"><ele>524.83</ele><time>2025-11-15T00:35:58.000Z</time></trkpt>
        <trkpt lat="28.7200201" lon="104.7297828"><ele>523.73</ele><time>2025-11-15T00:36:11.000Z</time></trkpt>
        <trkpt lat="28.7199271" lon="104.7297628"><ele>523.44</ele><time>2025-11-15T00:36:21.000Z</time></trkpt>
        <trkpt lat="28.7198915" lon="104.7296785"><ele>523.41</ele><time>2025-11-15T00:36:35.000Z</time></trkpt>
        <trkpt lat="28.7198801" lon="104.7295629"><ele>523.6</ele><time>2025-11-15T00:37:05.000Z</time></trkpt>
        <trkpt lat="28.7198995" lon="104.7294466"><ele>520.33</ele><time>2025-11-15T00:37:21.000Z</time></trkpt>
        <trkpt lat="28.7199539" lon="104.7293377"><ele>516.6</ele><time>2025-11-15T00:37:33.000Z</time></trkpt>
        <trkpt lat="28.7200002" lon="104.7292373"><ele>513.16</ele><time>2025-11-15T00:37:43.000Z</time></trkpt>
        <trkpt lat="28.7200442" lon="104.7291333"><ele>510.21</ele><time>2025-11-15T00:38:17.000Z</time></trkpt>
        <trkpt lat="28.7200835" lon="104.7290351"><ele>507.54</ele><time>2025-11-15T00:38:26.000Z</time></trkpt>
        <trkpt lat="28.7201143" lon="104.7289308"><ele>508.74</ele><time>2025-11-15T00:38:34.000Z</time></trkpt>
        <trkpt lat="28.7201624" lon="104.7288285"><ele>512.91</ele><time>2025-11-15T00:38:44.000Z</time></trkpt>
        <trkpt lat="28.7201979" lon="104.7287255"><ele>515.8</ele><time>2025-11-15T00:38:56.000Z</time></trkpt>
        <trkpt lat="28.7202365" lon="104.7286277"><ele>516.82</ele><time>2025-11-15T00:39:06.000Z</time></trkpt>
        <trkpt lat="28.7202803" lon="104.7285374"><ele>516.91</ele><time>2025-11-15T00:39:14.000Z</time></trkpt>
        <trkpt lat="28.720348" lon="104.7284721"><ele>516.38</ele><time>2025-11-15T00:39:22.000Z</time></trkpt>
        <trkpt lat="28.7204149" lon="104.7284024"><ele>516.18</ele><time>2025-11-15T00:39:30.000Z</time></trkpt>
        <trkpt lat="28.7204887" lon="104.7283218"><ele>515.98</ele><time>2025-11-15T00:39:40.000Z</time></trkpt>
        <trkpt lat="28.7205395" lon="104.728204"><ele>515.94</ele><time>2025-11-15T00:39:50.000Z</time></trkpt>
        <trkpt lat="28.7205944" lon="104.7280945"><ele>515.85</ele><time>2025-11-15T00:39:59.000Z</time></trkpt>
        <trkpt lat="28.7206324" lon="104.7279896"><ele>515.68</ele><time>2025-11-15T00:40:11.000Z</time></trkpt>
        <trkpt lat="28.7206599" lon="104.7278779"><ele>516.4</ele><time>2025-11-15T00:40:25.000Z</time></trkpt>
        <trkpt lat="28.7206545" lon="104.7277706"><ele>516.97</ele><time>2025-11-15T00:40:35.000Z</time></trkpt>
        <trkpt lat="28.7206004" lon="104.727673"><ele>517.76</ele><time>2025-11-15T00:41:22.000Z</time></trkpt>
        <trkpt lat="28.7205007" lon="104.7276543"><ele>520.63</ele><time>2025-11-15T00:41:30.000Z</time></trkpt>
        <trkpt lat="28.7204057" lon="104.7277062"><ele>522.1</ele><time>2025-11-15T00:41:38.000Z</time></trkpt>
        <trkpt lat="28.720322" lon="104.727794"><ele>523.36</ele><time>2025-11-15T00:41:50.000Z</time></trkpt>
        <trkpt lat="28.7202525" lon="104.7278984"><ele>523.83</ele><time>2025-11-15T00:42:00.000Z</time></trkpt>
        <trkpt lat="28.7201826" lon="104.7279948"><ele>524.33</ele><time>2025-11-15T00:42:16.000Z</time></trkpt>
        <trkpt lat="28.7201308" lon="104.7280971"><ele>524.32</ele><time>2025-11-15T00:42:28.000Z</time></trkpt>
        <trkpt lat="28.7200608" lon="104.7281676"><ele>524.12</ele><time>2025-11-15T00:42:39.000Z</time></trkpt>
        <trkpt lat="28.7199743" lon="104.7281871"><ele>524.77</ele><time>2025-11-15T00:42:52.000Z</time></trkpt>
        <trkpt lat="28.7199021" lon="104.7281307"><ele>524.48</ele><time>2025-11-15T00:43:03.000Z</time></trkpt>
        <trkpt lat="28.7198482" lon="104.7280362"><ele>524.28</ele><time>2025-11-15T00:43:25.000Z</time></trkpt>
        <trkpt lat="28.7198409" lon="104.7279196"><ele>524.02</ele><time>2025-11-15T00:43:47.000Z</time></trkpt>
        <trkpt lat="28.7198636" lon="104.7278001"><ele>523.33</ele><time>2025-11-15T00:44:11.000Z</time></trkpt>
        <trkpt lat="28.7198729" lon="104.7276751"><ele>521.92</ele><time>2025-11-15T00:44:26.000Z</time></trkpt>
        <trkpt lat="28.7198571" lon="104.7275672"><ele>519.96</ele><time>2025-11-15T00:44:34.000Z</time></trkpt>
        <trkpt lat="28.7198377" lon="104.7274501"><ele>519.91</ele><time>2025-11-15T00:44:44.000Z</time></trkpt>
        <trkpt lat="28.7198164" lon="104.7273279"><ele>519.73</ele><time>2025-11-15T00:44:54.000Z</time></trkpt>
        <trkpt lat="28.7197864" lon="104.7272151"><ele>519.95</ele><time>2025-11-15T00:45:09.000Z</time></trkpt>
        <trkpt lat="28.7197253" lon="104.7271226"><ele>518.96</ele><time>2025-11-15T00:45:19.000Z</time></trkpt>
        <trkpt lat="28.7196238" lon="104.7270847"><ele>518.73</ele><time>2025-11-15T00:45:30.000Z</time></trkpt>
        <trkpt lat="28.7195235" lon="104.7270709"><ele>521.3</ele><time>2025-11-15T00:45:38.000Z</time></trkpt>
        <trkpt lat="28.7194037" lon="104.7270463"><ele>522.91</ele><time>2025-11-15T00:45:48.000Z</time></trkpt>
        <trkpt lat="28.719291" lon="104.727018"><ele>523.54</ele><time>2025-11-15T00:45:58.000Z</time></trkpt>
        <trkpt lat="28.719185" lon="104.7270031"><ele>524.02</ele><time>2025-11-15T00:46:12.000Z</time></trkpt>
        <trkpt lat="28.7190898" lon="104.7269597"><ele>524.77</ele><time>2025-11-15T00:46:22.000Z</time></trkpt>
        <trkpt lat="28.7190496" lon="104.7268701"><ele>524.62</ele><time>2025-11-15T00:46:30.000Z</time></trkpt>
        <trkpt lat="28.7190546" lon="104.7267533"><ele>524.29</ele><time>2025-11-15T00:46:42.000Z</time></trkpt>
        <trkpt lat="28.7190721" lon="104.7266371"><ele>523.75</ele><time>2025-11-15T00:46:50.000Z</time></trkpt>
        <trkpt lat="28.7190738" lon="104.7265173"><ele>523.08</ele><time>2025-11-15T00:47:00.000Z</time></trkpt>
        <trkpt lat="28.7190758" lon="104.7264068"><ele>522.26</ele><time>2025-11-15T00:47:08.000Z</time></trkpt>
        <trkpt lat="28.7191118" lon="104.7263131"><ele>521.25</ele><time>2025-11-15T00:47:26.000Z</time></trkpt>
        <trkpt lat="28.7191609" lon="104.7262084"><ele>518.85</ele><time>2025-11-15T00:47:38.000Z</time></trkpt>
        <trkpt lat="28.7192047" lon="104.726101"><ele>518.07</ele><time>2025-11-15T00:47:50.000Z</time></trkpt>
        <trkpt lat="28.7192373" lon="104.7259947"><ele>518.02</ele><time>2025-11-15T00:48:02.000Z</time></trkpt>
        <trkpt lat="28.7192875" lon="104.725901"><ele>518.47</ele><time>2025-11-15T00:48:10.000Z</time></trkpt>
        <trkpt lat="28.7193578" lon="104.7258239"><ele>519.32</ele><time>2025-11-15T00:48:20.000Z</time></trkpt>
        <trkpt lat="28.7194325" lon="104.7257602"><ele>519.84</ele><time>2025-11-15T00:48:30.000Z</time></trkpt>
        <trkpt lat="28.7194385" lon="104.72567"><ele>520.36</ele><time>2025-11-15T00:49:08.000Z</time></trkpt>
        <trkpt lat="28.7193806" lon="104.7255866"><ele>521.47</ele><time>2025-11-15T00:49:18.000Z</time></trkpt>
        <trkpt lat="28.7192746" lon="104.7255716"><ele>525.48</ele><time>2025-11-15T00:49:30.000Z</time></trkpt>
        <trkpt lat="28.7191715" lon="104.7256148"><ele>528.13</ele><time>2025-11-15T00:49:40.000Z</time></trkpt>
        <trkpt lat="28.7190792" lon="104.725671"><ele>529.72</ele><time>2025-11-15T00:49:50.000Z</time></trkpt>
        <trkpt lat="28.7189964" lon="104.7257326"><ele>531.29</ele><time>2025-11-15T00:49:58.000Z</time></trkpt>
        <trkpt lat="28.7189145" lon="104.7258057"><ele>532.56</ele><time>2025-11-15T00:50:08.000Z</time></trkpt>
        <trkpt lat="28.718815" lon="104.7258467"><ele>534.08</ele><time>2025-11-15T00:51:19.000Z</time></trkpt>
        <trkpt lat="28.7187695" lon="104.7259494"><ele>538.25</ele><time>2025-11-15T00:51:34.000Z</time></trkpt>
        <trkpt lat="28.7187113" lon="104.7260318"><ele>539.74</ele><time>2025-11-15T00:51:44.000Z</time></trkpt>
        <trkpt lat="28.7186529" lon="104.7261165"><ele>542.1</ele><time>2025-11-15T00:51:56.000Z</time></trkpt>
        <trkpt lat="28.7185703" lon="104.7261653"><ele>544.39</ele><time>2025-11-15T00:52:28.000Z</time></trkpt>
        <trkpt lat="28.7184747" lon="104.7261884"><ele>549.45</ele><time>2025-11-15T00:52:40.000Z</time></trkpt>
        <trkpt lat="28.7183728" lon="104.7261963"><ele>551.97</ele><time>2025-11-15T00:52:54.000Z</time></trkpt>
        <trkpt lat="28.7182779" lon="104.726144"><ele>554.91</ele><time>2025-11-15T00:53:11.000Z</time></trkpt>
        <trkpt lat="28.7181804" lon="104.7260857"><ele>558.61</ele><time>2025-11-15T00:53:27.000Z</time></trkpt>
        <trkpt lat="28.7180878" lon="104.7260199"><ele>560.11</ele><time>2025-11-15T00:53:38.000Z</time></trkpt>
        <trkpt lat="28.718018" lon="104.7259183"><ele>557.86</ele><time>2025-11-15T00:53:48.000Z</time></trkpt>
        <trkpt lat="28.7179315" lon="104.7258852"><ele>557.26</ele><time>2025-11-15T00:54:00.000Z</time></trkpt>
        <trkpt lat="28.7178518" lon="104.7259286"><ele>558.27</ele><time>2025-11-15T00:54:10.000Z</time></trkpt>
        <trkpt lat="28.7177658" lon="104.7259921"><ele>558.91</ele><time>2025-11-15T00:54:20.000Z</time></trkpt>
        <trkpt lat="28.7176765" lon="104.7260205"><ele>559.18</ele><time>2025-11-15T00:54:28.000Z</time></trkpt>
        <trkpt lat="28.71759" lon="104.7260671"><ele>559.1</ele><time>2025-11-15T00:54:36.000Z</time></trkpt>
        <trkpt lat="28.7174911" lon="104.7260897"><ele>558.32</ele><time>2025-11-15T00:54:44.000Z</time></trkpt>
        <trkpt lat="28.7173718" lon="104.7260689"><ele>557.78</ele><time>2025-11-15T00:54:52.000Z</time></trkpt>
        <trkpt lat="28.717267" lon="104.7260386"><ele>557.34</ele><time>2025-11-15T00:55:37.000Z</time></trkpt>
        <trkpt lat="28.717175" lon="104.7260077"><ele>558.51</ele><time>2025-11-15T00:55:46.000Z</time></trkpt>
        <trkpt lat="28.7170878" lon="104.7259364"><ele>559.61</ele><time>2025-11-15T00:55:55.000Z</time></trkpt>
        <trkpt lat="28.7170113" lon="104.7258571"><ele>558.73</ele><time>2025-11-15T00:56:11.000Z</time></trkpt>
        <trkpt lat="28.7169199" lon="104.7258007"><ele>557.75</ele><time>2025-11-15T00:56:23.000Z</time></trkpt>
        <trkpt lat="28.7168353" lon="104.7257355"><ele>556.19</ele><time>2025-11-15T00:56:40.000Z</time></trkpt>
        <trkpt lat="28.7167638" lon="104.7256656"><ele>555.01</ele><time>2025-11-15T00:56:48.000Z</time></trkpt>
        <trkpt lat="28.716676" lon="104.7256258"><ele>555.21</ele><time>2025-11-15T00:57:02.000Z</time></trkpt>
        <trkpt lat="28.7165746" lon="104.7256131"><ele>555.15</ele><time>2025-11-15T00:57:14.000Z</time></trkpt>
        <trkpt lat="28.716479" lon="104.7256049"><ele>554.35</ele><time>2025-11-15T00:57:22.000Z</time></trkpt>
        <trkpt lat="28.7163806" lon="104.7255813"><ele>553.24</ele><time>2025-11-15T00:57:32.000Z</time></trkpt>
        <trkpt lat="28.7162943" lon="104.7255314"><ele>552.49</ele><time>2025-11-15T00:57:41.000Z</time></trkpt>
        <trkpt lat="28.7162086" lon="104.7254947"><ele>553.94</ele><time>2025-11-15T00:57:52.000Z</time></trkpt>
        <trkpt lat="28.7161251" lon="104.7254351"><ele>554.78</ele><time>2025-11-15T00:58:02.000Z</time></trkpt>
        <trkpt lat="28.7160829" lon="104.7255014"><ele>554.63</ele><time>2025-11-15T00:58:49.000Z</time></trkpt>
        <trkpt lat="28.7161141" lon="104.7256091"><ele>552.6</ele><time>2025-11-15T00:59:04.000Z</time></trkpt>
        <trkpt lat="28.7161476" lon="104.7257235"><ele>550.25</ele><time>2025-11-15T00:59:17.000Z</time></trkpt>
        <trkpt lat="28.7161922" lon="104.7258366"><ele>548.45</ele><time>2025-11-15T00:59:28.000Z</time></trkpt>
        <trkpt lat="28.7162136" lon="104.7259572"><ele>548.96</ele><time>2025-11-15T00:59:40.000Z</time></trkpt>
        <trkpt lat="28.7162265" lon="104.7260774"><ele>549.64</ele><time>2025-11-15T00:59:54.000Z</time></trkpt>
        <trkpt lat="28.7162328" lon="104.726196"><ele>549.96</ele><time>2025-11-15T01:00:04.000Z</time></trkpt>
        <trkpt lat="28.7162724" lon="104.7262989"><ele>550.03</ele><time>2025-11-15T01:00:14.000Z</time></trkpt>
        <trkpt lat="28.7163586" lon="104.7263734"><ele>549.73</ele><time>2025-11-15T01:00:30.000Z</time></trkpt>
        <trkpt lat="28.7164483" lon="104.7264435"><ele>548.34</ele><time>2025-11-15T01:00:44.000Z</time></trkpt>
        <trkpt lat="28.7165316" lon="104.7265162"><ele>547.21</ele><time>2025-11-15T01:00:54.000Z</time></trkpt>
        <trkpt lat="28.7166269" lon="104.7265868"><ele>546.25</ele><time>2025-11-15T01:01:02.000Z</time></trkpt>
        <trkpt lat="28.7167239" lon="104.7266336"><ele>545.66</ele><time>2025-11-15T01:01:10.000Z</time></trkpt>
        <trkpt lat="28.7168223" lon="104.726648"><ele>545.55</ele><time>2025-11-15T01:01:18.000Z</time></trkpt>
        <trkpt lat="28.7169271" lon="104.7266515"><ele>544.64</ele><time>2025-11-15T01:01:26.000Z</time></trkpt>
        <trkpt lat="28.7169983" lon="104.7267181"><ele>543.02</ele><time>2025-11-15T01:02:04.000Z</time></trkpt>
        <trkpt lat="28.7170042" lon="104.7268279"><ele>530.5</ele><time>2025-11-15T01:02:15.000Z</time></trkpt>
        <trkpt lat="28.7169685" lon="104.7269356"><ele>520.15</ele><time>2025-11-15T01:02:29.000Z</time></trkpt>
        <trkpt lat="28.7168859" lon="104.7269969"><ele>514.01</ele><time>2025-11-15T01:02:42.000Z</time></trkpt>
        <trkpt lat="28.7167858" lon="104.7269624"><ele>513.79</ele><time>2025-11-15T01:02:50.000Z</time></trkpt>
        <trkpt lat="28.7166874" lon="104.7269083"><ele>541.16</ele><time>2025-11-15T01:02:56.000Z</time></trkpt>
        <trkpt lat="28.7165844" lon="104.726895"><ele>555.08</ele><time>2025-11-15T01:03:05.000Z</time></trkpt>
        <trkpt lat="28.7164865" lon="104.7268796"><ele>540.25</ele><time>2025-11-15T01:03:11.000Z</time></trkpt>
        <trkpt lat="28.7163975" lon="104.7269062"><ele>532.19</ele><time>2025-11-15T01:03:22.000Z</time></trkpt>
        <trkpt lat="28.7163468" lon="104.7269936"><ele>529.57</ele><time>2025-11-15T01:03:45.000Z</time></trkpt>
        <trkpt lat="28.7162979" lon="104.7270686"><ele>530.04</ele><time>2025-11-15T01:03:51.000Z</time></trkpt>
        <trkpt lat="28.7161963" lon="104.7271289"><ele>532.62</ele><time>2025-11-15T01:05:55.000Z</time></trkpt>
        <trkpt lat="28.7160913" lon="104.7271649"><ele>538.27</ele><time>2025-11-15T01:06:04.000Z</time></trkpt>
        <trkpt lat="28.7160065" lon="104.7272322"><ele>542.29</ele><time>2025-11-15T01:06:10.000Z</time></trkpt>
        <trkpt lat="28.7159348" lon="104.7273106"><ele>544.72</ele><time>2025-11-15T01:06:18.000Z</time></trkpt>
        <trkpt lat="28.7158535" lon="104.7273833"><ele>545.47</ele><time>2025-11-15T01:06:28.000Z</time></trkpt>
        <trkpt lat="28.7157676" lon="104.727373"><ele>545.92</ele><time>2025-11-15T01:06:38.000Z</time></trkpt>
        <trkpt lat="28.7156836" lon="104.7274147"><ele>546.05</ele><time>2025-11-15T01:06:50.000Z</time></trkpt>
        <trkpt lat="28.7156268" lon="104.7274974"><ele>546.26</ele><time>2025-11-15T01:07:00.000Z</time></trkpt>
        <trkpt lat="28.7156417" lon="104.7275991"><ele>545.62</ele><time>2025-11-15T01:07:08.000Z</time></trkpt>
        <trkpt lat="28.7157134" lon="104.7276801"><ele>544.32</ele><time>2025-11-15T01:07:16.000Z</time></trkpt>
        <trkpt lat="28.7157939" lon="104.7277566"><ele>542.61</ele><time>2025-11-15T01:07:26.000Z</time></trkpt>
        <trkpt lat="28.7158814" lon="104.7278319"><ele>541.08</ele><time>2025-11-15T01:07:38.000Z</time></trkpt>
        <trkpt lat="28.7159513" lon="104.7279189"><ele>539.87</ele><time>2025-11-15T01:07:48.000Z</time></trkpt>
        <trkpt lat="28.7160017" lon="104.7280092"><ele>539.68</ele><time>2025-11-15T01:07:56.000Z</time></trkpt>
        <trkpt lat="28.7160271" lon="104.7281626"><ele>539.56</ele><time>2025-11-15T01:08:09.000Z</time></trkpt>
        <trkpt lat="28.7160337" lon="104.7282138"><ele>538.24</ele><time>2025-11-15T01:08:13.000Z</time></trkpt>
        <trkpt lat="28.7160898" lon="104.7282765"><ele>537.4</ele><time>2025-11-15T01:08:22.000Z</time></trkpt>
        <trkpt lat="28.7161527" lon="104.728371"><ele>536.64</ele><time>2025-11-15T01:08:28.000Z</time></trkpt>
        <trkpt lat="28.7162348" lon="104.7284254"><ele>537.11</ele><time>2025-11-15T01:08:36.000Z</time></trkpt>
        <trkpt lat="28.7162814" lon="104.7284225"><ele>536.6</ele><time>2025-11-15T01:08:47.000Z</time></trkpt>
        <trkpt lat="28.716356" lon="104.7284357"><ele>536.43</ele><time>2025-11-15T01:09:25.000Z</time></trkpt>
        <trkpt lat="28.7164448" lon="104.7284752"><ele>536.33</ele><time>2025-11-15T01:09:37.000Z</time></trkpt>
        <trkpt lat="28.7165283" lon="104.7285305"><ele>535.27</ele><time>2025-11-15T01:09:52.000Z</time></trkpt>
        <trkpt lat="28.7165423" lon="104.7286242"><ele>535.23</ele><time>2025-11-15T01:10:23.000Z</time></trkpt>
        <trkpt lat="28.7164703" lon="104.7286467"><ele>536</ele><time>2025-11-15T01:10:36.000Z</time></trkpt>
        <trkpt lat="28.7163554" lon="104.7286356"><ele>537.72</ele><time>2025-11-15T01:10:48.000Z</time></trkpt>
        <trkpt lat="28.7162486" lon="104.7286069"><ele>542.53</ele><time>2025-11-15T01:10:54.000Z</time></trkpt>
        <trkpt lat="28.7161471" lon="104.7286074"><ele>545.38</ele><time>2025-11-15T01:11:00.000Z</time></trkpt>
        <trkpt lat="28.7160434" lon="104.7285996"><ele>547.29</ele><time>2025-11-15T01:11:06.000Z</time></trkpt>
        <trkpt lat="28.7159468" lon="104.7286084"><ele>548.26</ele><time>2025-11-15T01:11:18.000Z</time></trkpt>
        <trkpt lat="28.7158539" lon="104.7286375"><ele>548.18</ele><time>2025-11-15T01:11:28.000Z</time></trkpt>
        <trkpt lat="28.7157662" lon="104.7286688"><ele>548.05</ele><time>2025-11-15T01:11:40.000Z</time></trkpt>
        <trkpt lat="28.7156835" lon="104.7287149"><ele>547.91</ele><time>2025-11-15T01:11:50.000Z</time></trkpt>
        <trkpt lat="28.7155846" lon="104.7287356"><ele>547.41</ele><time>2025-11-15T01:12:02.000Z</time></trkpt>
        <trkpt lat="28.715477" lon="104.7287559"><ele>547.08</ele><time>2025-11-15T01:12:12.000Z</time></trkpt>
        <trkpt lat="28.715374" lon="104.7287852"><ele>547.13</ele><time>2025-11-15T01:12:22.000Z</time></trkpt>
        <trkpt lat="28.7152859" lon="104.7288328"><ele>546.91</ele><time>2025-11-15T01:12:30.000Z</time></trkpt>
        <trkpt lat="28.7152606" lon="104.7289266"><ele>546.94</ele><time>2025-11-15T01:12:48.000Z</time></trkpt>
        <trkpt lat="28.7152696" lon="104.7290343"><ele>546.16</ele><time>2025-11-15T01:12:56.000Z</time></trkpt>
        <trkpt lat="28.7152886" lon="104.7291448"><ele>545.23</ele><time>2025-11-15T01:13:10.000Z</time></trkpt>
        <trkpt lat="28.7153195" lon="104.7292502"><ele>544.39</ele><time>2025-11-15T01:13:17.000Z</time></trkpt>
        <trkpt lat="28.7153732" lon="104.7293391"><ele>544.27</ele><time>2025-11-15T01:13:26.000Z</time></trkpt>
        <trkpt lat="28.7154396" lon="104.7294329"><ele>543.69</ele><time>2025-11-15T01:13:36.000Z</time></trkpt>
        <trkpt lat="28.7155383" lon="104.729493"><ele>539.86</ele><time>2025-11-15T01:13:44.000Z</time></trkpt>
        <trkpt lat="28.715646" lon="104.7295258"><ele>537.5</ele><time>2025-11-15T01:13:52.000Z</time></trkpt>
        <trkpt lat="28.7157523" lon="104.7295326"><ele>535.62</ele><time>2025-11-15T01:14:00.000Z</time></trkpt>
        <trkpt lat="28.7158473" lon="104.7295427"><ele>533.87</ele><time>2025-11-15T01:14:06.000Z</time></trkpt>
        <trkpt lat="28.7159263" lon="104.7295866"><ele>532.89</ele><time>2025-11-15T01:14:22.000Z</time></trkpt>
        <trkpt lat="28.7159823" lon="104.7296683"><ele>533.89</ele><time>2025-11-15T01:14:34.000Z</time></trkpt>
        <trkpt lat="28.716042" lon="104.729747"><ele>534.86</ele><time>2025-11-15T01:14:44.000Z</time></trkpt>
        <trkpt lat="28.7160896" lon="104.7298417"><ele>534.9</ele><time>2025-11-15T01:14:54.000Z</time></trkpt>
        <trkpt lat="28.7160497" lon="104.7299312"><ele>534.95</ele><time>2025-11-15T01:15:06.000Z</time></trkpt>
        <trkpt lat="28.7159601" lon="104.7299677"><ele>535.69</ele><time>2025-11-15T01:15:16.000Z</time></trkpt>
        <trkpt lat="28.7158475" lon="104.7299693"><ele>536.76</ele><time>2025-11-15T01:15:26.000Z</time></trkpt>
        <trkpt lat="28.7157381" lon="104.729948"><ele>537.33</ele><time>2025-11-15T01:15:36.000Z</time></trkpt>
        <trkpt lat="28.7156288" lon="104.7299211"><ele>538.87</ele><time>2025-11-15T01:15:44.000Z</time></trkpt>
        <trkpt lat="28.7155263" lon="104.7299323"><ele>539.45</ele><time>2025-11-15T01:15:58.000Z</time></trkpt>
        <trkpt lat="28.715438" lon="104.7299696"><ele>539.87</ele><time>2025-11-15T01:16:10.000Z</time></trkpt>
        <trkpt lat="28.7153667" lon="104.7300368"><ele>540.38</ele><time>2025-11-15T01:16:18.000Z</time></trkpt>
        <trkpt lat="28.7152915" lon="104.7301031"><ele>541</ele><time>2025-11-15T01:16:30.000Z</time></trkpt>
        <trkpt lat="28.7152117" lon="104.7301746"><ele>541.22</ele><time>2025-11-15T01:16:40.000Z</time></trkpt>
        <trkpt lat="28.7151144" lon="104.7302266"><ele>541.03</ele><time>2025-11-15T01:16:50.000Z</time></trkpt>
        <trkpt lat="28.7150193" lon="104.7302402"><ele>541.38</ele><time>2025-11-15T01:17:00.000Z</time></trkpt>
        <trkpt lat="28.7149252" lon="104.7302586"><ele>542.28</ele><time>2025-11-15T01:17:07.000Z</time></trkpt>
        <trkpt lat="28.7148335" lon="104.7302712"><ele>540.12</ele><time>2025-11-15T01:17:16.000Z</time></trkpt>
        <trkpt lat="28.7147611" lon="104.73033"><ele>542.66</ele><time>2025-11-15T01:17:24.000Z</time></trkpt>
        <trkpt lat="28.7147404" lon="104.7304389"><ele>542.92</ele><time>2025-11-15T01:17:36.000Z</time></trkpt>
        <trkpt lat="28.7147849" lon="104.7305442"><ele>541.95</ele><time>2025-11-15T01:17:46.000Z</time></trkpt>
        <trkpt lat="28.7148254" lon="104.7306606"><ele>539.96</ele><time>2025-11-15T01:17:58.000Z</time></trkpt>
        <trkpt lat="28.7149008" lon="104.7307352"><ele>537.74</ele><time>2025-11-15T01:18:19.000Z</time></trkpt>
        <trkpt lat="28.7149927" lon="104.7307968"><ele>536.59</ele><time>2025-11-15T01:18:29.000Z</time></trkpt>
        <trkpt lat="28.7150833" lon="104.7308517"><ele>536.1</ele><time>2025-11-15T01:18:38.000Z</time></trkpt>
        <trkpt lat="28.7151758" lon="104.7309068"><ele>533.85</ele><time>2025-11-15T01:18:46.000Z</time></trkpt>
        <trkpt lat="28.7152772" lon="104.7309591"><ele>532.97</ele><time>2025-11-15T01:18:52.000Z</time></trkpt>
        <trkpt lat="28.7153734" lon="104.7309995"><ele>532.89</ele><time>2025-11-15T01:19:04.000Z</time></trkpt>
        <trkpt lat="28.7154633" lon="104.7310439"><ele>532.87</ele><time>2025-11-15T01:19:12.000Z</time></trkpt>
        <trkpt lat="28.7155562" lon="104.7310879"><ele>532.79</ele><time>2025-11-15T01:19:22.000Z</time></trkpt>
        <trkpt lat="28.7156634" lon="104.7311034"><ele>532.6</ele><time>2025-11-15T01:19:40.000Z</time></trkpt>
        <trkpt lat="28.7157808" lon="104.7311035"><ele>532.29</ele><time>2025-11-15T01:19:49.000Z</time></trkpt>
        <trkpt lat="28.715872" lon="104.7311554"><ele>534.01</ele><time>2025-11-15T01:19:57.000Z</time></trkpt>
        <trkpt lat="28.715958" lon="104.7312291"><ele>535.13</ele><time>2025-11-15T01:20:04.000Z</time></trkpt>
        <trkpt lat="28.7160515" lon="104.7312756"><ele>535.33</ele><time>2025-11-15T01:20:18.000Z</time></trkpt>
        <trkpt lat="28.7161613" lon="104.7312857"><ele>534.76</ele><time>2025-11-15T01:20:28.000Z</time></trkpt>
        <trkpt lat="28.7162609" lon="104.7313215"><ele>533.68</ele><time>2025-11-15T01:20:36.000Z</time></trkpt>
        <trkpt lat="28.7163106" lon="104.7314139"><ele>533.33</ele><time>2025-11-15T01:20:46.000Z</time></trkpt>
        <trkpt lat="28.7163481" lon="104.7315144"><ele>533.08</ele><time>2025-11-15T01:20:53.000Z</time></trkpt>
        <trkpt lat="28.7163958" lon="104.7316043"><ele>532.72</ele><time>2025-11-15T01:21:02.000Z</time></trkpt>
        <trkpt lat="28.7164052" lon="104.7317102"><ele>535.05</ele><time>2025-11-15T01:21:12.000Z</time></trkpt>
        <trkpt lat="28.7163346" lon="104.731739"><ele>536.95</ele><time>2025-11-15T01:21:20.000Z</time></trkpt>
        <trkpt lat="28.7162305" lon="104.7317254"><ele>539.4</ele><time>2025-11-15T01:21:28.000Z</time></trkpt>
        <trkpt lat="28.7161244" lon="104.7317154"><ele>541.99</ele><time>2025-11-15T01:21:40.000Z</time></trkpt>
        <trkpt lat="28.7160086" lon="104.7317081"><ele>544.25</ele><time>2025-11-15T01:21:50.000Z</time></trkpt>
        <trkpt lat="28.7159048" lon="104.7316494"><ele>545.9</ele><time>2025-11-15T01:21:58.000Z</time></trkpt>
        <trkpt lat="28.7158187" lon="104.7315886"><ele>547.64</ele><time>2025-11-15T01:22:06.000Z</time></trkpt>
        <trkpt lat="28.7157304" lon="104.7315521"><ele>548.8</ele><time>2025-11-15T01:22:14.000Z</time></trkpt>
        <trkpt lat="28.7156413" lon="104.7315298"><ele>550.19</ele><time>2025-11-15T01:22:22.000Z</time></trkpt>
        <trkpt lat="28.715545" lon="104.7315368"><ele>551.56</ele><time>2025-11-15T01:22:30.000Z</time></trkpt>
        <trkpt lat="28.7154366" lon="104.7315549"><ele>552.01</ele><time>2025-11-15T01:22:40.000Z</time></trkpt>
        <trkpt lat="28.7153289" lon="104.7315931"><ele>551.77</ele><time>2025-11-15T01:22:48.000Z</time></trkpt>
        <trkpt lat="28.7152289" lon="104.7316556"><ele>551.61</ele><time>2025-11-15T01:22:56.000Z</time></trkpt>
        <trkpt lat="28.7151498" lon="104.7317406"><ele>551.55</ele><time>2025-11-15T01:23:06.000Z</time></trkpt>
        <trkpt lat="28.7150604" lon="104.7317765"><ele>550.62</ele><time>2025-11-15T01:23:16.000Z</time></trkpt>
        <trkpt lat="28.7149587" lon="104.731791"><ele>550.44</ele><time>2025-11-15T01:23:26.000Z</time></trkpt>
        <trkpt lat="28.7148564" lon="104.7318247"><ele>550.85</ele><time>2025-11-15T01:23:36.000Z</time></trkpt>
        <trkpt lat="28.7147604" lon="104.7318796"><ele>551.08</ele><time>2025-11-15T01:23:49.000Z</time></trkpt>
        <trkpt lat="28.7147081" lon="104.7319673"><ele>549.65</ele><time>2025-11-15T01:23:57.000Z</time></trkpt>
        <trkpt lat="28.7147058" lon="104.7320757"><ele>545.84</ele><time>2025-11-15T01:24:06.000Z</time></trkpt>
        <trkpt lat="28.7147165" lon="104.7321964"><ele>544.39</ele><time>2025-11-15T01:24:14.000Z</time></trkpt>
        <trkpt lat="28.7147374" lon="104.7323172"><ele>544.82</ele><time>2025-11-15T01:24:24.000Z</time></trkpt>
        <trkpt lat="28.7147622" lon="104.7324382"><ele>545.28</ele><time>2025-11-15T01:24:34.000Z</time></trkpt>
        <trkpt lat="28.7148325" lon="104.7325221"><ele>545.18</ele><time>2025-11-15T01:24:44.000Z</time></trkpt>
        <trkpt lat="28.7149257" lon="104.7325574"><ele>544.72</ele><time>2025-11-15T01:24:57.000Z</time></trkpt>
        <trkpt lat="28.7150339" lon="104.7325562"><ele>544.08</ele><time>2025-11-15T01:25:13.000Z</time></trkpt>
        <trkpt lat="28.7151372" lon="104.7325751"><ele>543.21</ele><time>2025-11-15T01:25:25.000Z</time></trkpt>
        <trkpt lat="28.7152282" lon="104.7326126"><ele>542.41</ele><time>2025-11-15T01:25:42.000Z</time></trkpt>
        <trkpt lat="28.7153252" lon="104.7326489"><ele>541.64</ele><time>2025-11-15T01:25:52.000Z</time></trkpt>
        <trkpt lat="28.7154097" lon="104.7327055"><ele>540.95</ele><time>2025-11-15T01:26:02.000Z</time></trkpt>
        <trkpt lat="28.7154573" lon="104.7328096"><ele>540.54</ele><time>2025-11-15T01:26:14.000Z</time></trkpt>
        <trkpt lat="28.7154285" lon="104.7329112"><ele>539.9</ele><time>2025-11-15T01:26:22.000Z</time></trkpt>
        <trkpt lat="28.7153644" lon="104.7329989"><ele>539.01</ele><time>2025-11-15T01:26:28.000Z</time></trkpt>
        <trkpt lat="28.7152828" lon="104.7330786"><ele>538.73</ele><time>2025-11-15T01:26:36.000Z</time></trkpt>
        <trkpt lat="28.7152149" lon="104.7331823"><ele>538.88</ele><time>2025-11-15T01:26:46.000Z</time></trkpt>
        <trkpt lat="28.7151335" lon="104.7332489"><ele>539.13</ele><time>2025-11-15T01:26:54.000Z</time></trkpt>
        <trkpt lat="28.7150435" lon="104.7332885"><ele>539.38</ele><time>2025-11-15T01:27:02.000Z</time></trkpt>
        <trkpt lat="28.7149599" lon="104.7333376"><ele>539.39</ele><time>2025-11-15T01:27:10.000Z</time></trkpt>
        <trkpt lat="28.7149008" lon="104.7334125"><ele>539.44</ele><time>2025-11-15T01:27:20.000Z</time></trkpt>
        <trkpt lat="28.7148551" lon="104.7335112"><ele>539.83</ele><time>2025-11-15T01:27:30.000Z</time></trkpt>
        <trkpt lat="28.7148156" lon="104.7336225"><ele>539.8</ele><time>2025-11-15T01:27:40.000Z</time></trkpt>
        <trkpt lat="28.7147839" lon="104.7337438"><ele>539.67</ele><time>2025-11-15T01:27:50.000Z</time></trkpt>
        <trkpt lat="28.7147466" lon="104.7338486"><ele>539.31</ele><time>2025-11-15T01:27:58.000Z</time></trkpt>
        <trkpt lat="28.7147362" lon="104.7339273"><ele>539.23</ele><time>2025-11-15T01:28:04.000Z</time></trkpt>
        <trkpt lat="28.7147686" lon="104.7340277"><ele>538.79</ele><time>2025-11-15T01:28:52.000Z</time></trkpt>
        <trkpt lat="28.7147866" lon="104.7341071"><ele>538.35</ele><time>2025-11-15T01:29:04.000Z</time></trkpt>
        <trkpt lat="28.7147537" lon="104.7339991"><ele>538.87</ele><time>2025-11-15T01:31:04.000Z</time></trkpt>
        <trkpt lat="28.7147449" lon="104.7338897"><ele>538.45</ele><time>2025-11-15T01:31:13.000Z</time></trkpt>
        <trkpt lat="28.7147209" lon="104.7337846"><ele>539.82</ele><time>2025-11-15T01:31:22.000Z</time></trkpt>
        <trkpt lat="28.7147242" lon="104.7337402"><ele>539.48</ele><time>2025-11-15T01:31:25.000Z</time></trkpt>
        <trkpt lat="28.7147556" lon="104.7336547"><ele>538.56</ele><time>2025-11-15T01:31:43.000Z</time></trkpt>
        <trkpt lat="28.7147939" lon="104.7335439"><ele>536.66</ele><time>2025-11-15T01:31:53.000Z</time></trkpt>
        <trkpt lat="28.7148434" lon="104.7334411"><ele>534.27</ele><time>2025-11-15T01:32:04.000Z</time></trkpt>
        <trkpt lat="28.7148994" lon="104.7333394"><ele>532.21</ele><time>2025-11-15T01:32:22.000Z</time></trkpt>
        <trkpt lat="28.7149558" lon="104.7332443"><ele>529.92</ele><time>2025-11-15T01:32:33.000Z</time></trkpt>
        <trkpt lat="28.7149305" lon="104.733345"><ele>528.18</ele><time>2025-11-15T01:34:55.000Z</time></trkpt>
        <trkpt lat="28.7148653" lon="104.733449"><ele>530.61</ele><time>2025-11-15T01:35:09.000Z</time></trkpt>
        <trkpt lat="28.7148281" lon="104.7335217"><ele>532.18</ele><time>2025-11-15T01:35:17.000Z</time></trkpt>
        <trkpt lat="28.7147893" lon="104.7336146"><ele>533.11</ele><time>2025-11-15T01:35:33.000Z</time></trkpt>
        <trkpt lat="28.7147447" lon="104.7337191"><ele>531.64</ele><time>2025-11-15T01:35:44.000Z</time></trkpt>
        <trkpt lat="28.7147222" lon="104.7338331"><ele>531.5</ele><time>2025-11-15T01:35:56.000Z</time></trkpt>
        <trkpt lat="28.7147472" lon="104.7339542"><ele>532.73</ele><time>2025-11-15T01:36:08.000Z</time></trkpt>
        <trkpt lat="28.7147921" lon="104.7340564"><ele>532.92</ele><time>2025-11-15T01:36:16.000Z</time></trkpt>
        <trkpt lat="28.714845" lon="104.7341359"><ele>532.89</ele><time>2025-11-15T01:36:24.000Z</time></trkpt>
        <trkpt lat="28.7148414" lon="104.7342313"><ele>533</ele><time>2025-11-15T01:38:19.000Z</time></trkpt>
        <trkpt lat="28.7148313" lon="104.7343342"><ele>533.2</ele><time>2025-11-15T01:38:47.000Z</time></trkpt>
        <trkpt lat="28.7147557" lon="104.7343771"><ele>533.08</ele><time>2025-11-15T01:39:43.000Z</time></trkpt>
        <trkpt lat="28.7146736" lon="104.7344253"><ele>531.18</ele><time>2025-11-15T01:40:17.000Z</time></trkpt>
        <trkpt lat="28.7145806" lon="104.7344816"><ele>528.42</ele><time>2025-11-15T01:41:51.000Z</time></trkpt>
        <trkpt lat="28.7145051" lon="104.7345425"><ele>523.77</ele><time>2025-11-15T01:44:25.000Z</time></trkpt>
        <trkpt lat="28.7144002" lon="104.7345521"><ele>519.94</ele><time>2025-11-15T01:45:11.000Z</time></trkpt>
        <trkpt lat="28.7143375" lon="104.7346229"><ele>514.8</ele><time>2025-11-15T01:45:55.000Z</time></trkpt>
        <trkpt lat="28.7142446" lon="104.7346655"><ele>510.16</ele><time>2025-11-15T01:46:29.000Z</time></trkpt>
        <trkpt lat="28.714165" lon="104.7347229"><ele>502.84</ele><time>2025-11-15T01:47:22.000Z</time></trkpt>
        <trkpt lat="28.7140863" lon="104.7348069"><ele>495.88</ele><time>2025-11-15T01:47:58.000Z</time></trkpt>
        <trkpt lat="28.7140097" lon="104.7348742"><ele>489.07</ele><time>2025-11-15T01:48:16.000Z</time></trkpt>
        <trkpt lat="28.7139182" lon="104.7349101"><ele>484.06</ele><time>2025-11-15T01:48:41.000Z</time></trkpt>
        <trkpt lat="28.7138401" lon="104.7349708"><ele>480.24</ele><time>2025-11-15T01:48:55.000Z</time></trkpt>
        <trkpt lat="28.7137579" lon="104.7350202"><ele>475.29</ele><time>2025-11-15T01:49:29.000Z</time></trkpt>
        <trkpt lat="28.7136957" lon="104.7350927"><ele>469.67</ele><time>2025-11-15T01:49:49.000Z</time></trkpt>
        <trkpt lat="28.7136264" lon="104.7351605"><ele>464.67</ele><time>2025-11-15T01:50:15.000Z</time></trkpt>
        <trkpt lat="28.7136733" lon="104.7352623"><ele>461.13</ele><time>2025-11-15T01:51:34.000Z</time></trkpt>
        <trkpt lat="28.7136198" lon="104.735347"><ele>458.82</ele><time>2025-11-15T01:52:05.000Z</time></trkpt>
        <trkpt lat="28.7135391" lon="104.7353903"><ele>456.18</ele><time>2025-11-15T01:52:55.000Z</time></trkpt>
        <trkpt lat="28.7134721" lon="104.7354697"><ele>451.64</ele><time>2025-11-15T01:53:23.000Z</time></trkpt>
        <trkpt lat="28.7133891" lon="104.735537"><ele>446.23</ele><time>2025-11-15T01:53:41.000Z</time></trkpt>
        <trkpt lat="28.7132992" lon="104.7355353"><ele>440.43</ele><time>2025-11-15T01:53:59.000Z</time></trkpt>
        <trkpt lat="28.7132012" lon="104.7355307"><ele>436.71</ele><time>2025-11-15T01:54:57.000Z</time></trkpt>
        <trkpt lat="28.7131063" lon="104.7355264"><ele>432.53</ele><time>2025-11-15T01:55:31.000Z</time></trkpt>
        <trkpt lat="28.71304" lon="104.7355954"><ele>427.98</ele><time>2025-11-15T01:56:04.000Z</time></trkpt>
        <trkpt lat="28.7130548" lon="104.7356896"><ele>424.05</ele><time>2025-11-15T01:56:37.000Z</time></trkpt>
        <trkpt lat="28.7130869" lon="104.7357977"><ele>421.96</ele><time>2025-11-15T01:56:51.000Z</time></trkpt>
        <trkpt lat="28.7131155" lon="104.7359068"><ele>418.71</ele><time>2025-11-15T01:57:03.000Z</time></trkpt>
        <trkpt lat="28.7132001" lon="104.7359719"><ele>416.14</ele><time>2025-11-15T01:57:21.000Z</time></trkpt>
        <trkpt lat="28.7133004" lon="104.7360238"><ele>416.31</ele><time>2025-11-15T01:57:29.000Z</time></trkpt>
        <trkpt lat="28.7133959" lon="104.7360821"><ele>416.75</ele><time>2025-11-15T01:57:37.000Z</time></trkpt>
        <trkpt lat="28.7134712" lon="104.7361689"><ele>415.06</ele><time>2025-11-15T01:57:47.000Z</time></trkpt>
        <trkpt lat="28.7135271" lon="104.7362575"><ele>413.99</ele><time>2025-11-15T01:57:55.000Z</time></trkpt>
        <trkpt lat="28.7135805" lon="104.7363572"><ele>413.37</ele><time>2025-11-15T01:58:05.000Z</time></trkpt>
        <trkpt lat="28.7136274" lon="104.7364519"><ele>413.37</ele><time>2025-11-15T01:58:14.000Z</time></trkpt>
        <trkpt lat="28.7136612" lon="104.7365633"><ele>412.86</ele><time>2025-11-15T01:58:27.000Z</time></trkpt>
        <trkpt lat="28.7136689" lon="104.7366786"><ele>411.35</ele><time>2025-11-15T01:58:41.000Z</time></trkpt>
        <trkpt lat="28.7136363" lon="104.7367809"><ele>412.62</ele><time>2025-11-15T01:58:53.000Z</time></trkpt>
        <trkpt lat="28.7135922" lon="104.7368805"><ele>413.03</ele><time>2025-11-15T01:59:05.000Z</time></trkpt>
        <trkpt lat="28.7135765" lon="104.7369854"><ele>413.21</ele><time>2025-11-15T01:59:15.000Z</time></trkpt>
        <trkpt lat="28.7135779" lon="104.7371042"><ele>413.77</ele><time>2025-11-15T01:59:27.000Z</time></trkpt>
        <trkpt lat="28.7135663" lon="104.7372127"><ele>414.36</ele><time>2025-11-15T01:59:38.000Z</time></trkpt>
        <trkpt lat="28.7135149" lon="104.737304"><ele>413.28</ele><time>2025-11-15T01:59:58.000Z</time></trkpt>
        <trkpt lat="28.713438" lon="104.737379"><ele>413.92</ele><time>2025-11-15T02:00:08.000Z</time></trkpt>
        <trkpt lat="28.7133932" lon="104.7374797"><ele>414.52</ele><time>2025-11-15T02:00:19.000Z</time></trkpt>
        <trkpt lat="28.7133688" lon="104.7375847"><ele>414.65</ele><time>2025-11-15T02:00:27.000Z</time></trkpt>
        <trkpt lat="28.7133521" lon="104.7376986"><ele>413.29</ele><time>2025-11-15T02:00:37.000Z</time></trkpt>
        <trkpt lat="28.7133686" lon="104.7378043"><ele>412.05</ele><time>2025-11-15T02:00:45.000Z</time></trkpt>
        <trkpt lat="28.7134026" lon="104.737911"><ele>413.31</ele><time>2025-11-15T02:00:55.000Z</time></trkpt>
        <trkpt lat="28.7134447" lon="104.7380253"><ele>411.91</ele><time>2025-11-15T02:01:04.000Z</time></trkpt>
        <trkpt lat="28.7135177" lon="104.7381056"><ele>410.87</ele><time>2025-11-15T02:01:16.000Z</time></trkpt>
        <trkpt lat="28.7136037" lon="104.7381748"><ele>410.51</ele><time>2025-11-15T02:01:32.000Z</time></trkpt>
        <trkpt lat="28.7136922" lon="104.7382282"><ele>410.14</ele><time>2025-11-15T02:01:42.000Z</time></trkpt>
        <trkpt lat="28.7137827" lon="104.7382599"><ele>410.1</ele><time>2025-11-15T02:01:52.000Z</time></trkpt>
        <trkpt lat="28.7138814" lon="104.7382964"><ele>410.21</ele><time>2025-11-15T02:02:02.000Z</time></trkpt>
        <trkpt lat="28.7139782" lon="104.7383369"><ele>410.03</ele><time>2025-11-15T02:02:10.000Z</time></trkpt>
        <trkpt lat="28.7140797" lon="104.7383537"><ele>411.79</ele><time>2025-11-15T02:02:22.000Z</time></trkpt>
        <trkpt lat="28.7141737" lon="104.7384156"><ele>412.07</ele><time>2025-11-15T02:02:36.000Z</time></trkpt>
        <trkpt lat="28.7142344" lon="104.738502"><ele>411.43</ele><time>2025-11-15T02:02:46.000Z</time></trkpt>
        <trkpt lat="28.7142633" lon="104.7386147"><ele>409.86</ele><time>2025-11-15T02:03:00.000Z</time></trkpt>
        <trkpt lat="28.7142916" lon="104.7387212"><ele>408.77</ele><time>2025-11-15T02:03:12.000Z</time></trkpt>
        <trkpt lat="28.7143227" lon="104.738823"><ele>408.28</ele><time>2025-11-15T02:03:21.000Z</time></trkpt>
        <trkpt lat="28.7143821" lon="104.7388997"><ele>408.52</ele><time>2025-11-15T02:03:29.000Z</time></trkpt>
        <trkpt lat="28.7144671" lon="104.7389448"><ele>408.89</ele><time>2025-11-15T02:03:42.000Z</time></trkpt>
        <trkpt lat="28.7145824" lon="104.7389429"><ele>408.78</ele><time>2025-11-15T02:03:53.000Z</time></trkpt>
        <trkpt lat="28.7146683" lon="104.7389851"><ele>406.77</ele><time>2025-11-15T02:04:15.000Z</time></trkpt>
        <trkpt lat="28.7147324" lon="104.7390568"><ele>405.19</ele><time>2025-11-15T02:04:23.000Z</time></trkpt>
        <trkpt lat="28.7147806" lon="104.7391484"><ele>404.24</ele><time>2025-11-15T02:04:31.000Z</time></trkpt>
        <trkpt lat="28.7147824" lon="104.7392562"><ele>404.93</ele><time>2025-11-15T02:04:49.000Z</time></trkpt>
        <trkpt lat="28.7147485" lon="104.7393629"><ele>404.95</ele><time>2025-11-15T02:04:56.000Z</time></trkpt>
        <trkpt lat="28.71473" lon="104.7394802"><ele>405.15</ele><time>2025-11-15T02:05:10.000Z</time></trkpt>
        <trkpt lat="28.7146935" lon="104.7395925"><ele>408.8</ele><time>2025-11-15T02:05:25.000Z</time></trkpt>
        <trkpt lat="28.7146582" lon="104.7396421"><ele>406.34</ele><time>2025-11-15T02:05:40.000Z</time></trkpt>
        <trkpt lat="28.7146238" lon="104.7397311"><ele>405.98</ele><time>2025-11-15T02:06:43.000Z</time></trkpt>
        <trkpt lat="28.714573" lon="104.739816"><ele>406.39</ele><time>2025-11-15T02:06:52.000Z</time></trkpt>
        <trkpt lat="28.7145218" lon="104.7399031"><ele>407.36</ele><time>2025-11-15T02:07:00.000Z</time></trkpt>
        <trkpt lat="28.7144604" lon="104.7400015"><ele>411.06</ele><time>2025-11-15T02:07:10.000Z</time></trkpt>
        <trkpt lat="28.7144005" lon="104.7400904"><ele>412.68</ele><time>2025-11-15T02:07:17.000Z</time></trkpt>
        <trkpt lat="28.7143367" lon="104.7401683"><ele>413.2</ele><time>2025-11-15T02:07:23.000Z</time></trkpt>
        <trkpt lat="28.7142699" lon="104.7402644"><ele>413.9</ele><time>2025-11-15T02:07:29.000Z</time></trkpt>
        <trkpt lat="28.7142578" lon="104.7403676"><ele>411.45</ele><time>2025-11-15T02:07:37.000Z</time></trkpt>
        <trkpt lat="28.7142962" lon="104.7404719"><ele>412.75</ele><time>2025-11-15T02:07:47.000Z</time></trkpt>
        <trkpt lat="28.714391" lon="104.7405117"><ele>411.21</ele><time>2025-11-15T02:07:53.000Z</time></trkpt>
        <trkpt lat="28.714507" lon="104.740522"><ele>410.62</ele><time>2025-11-15T02:08:01.000Z</time></trkpt>
        <trkpt lat="28.7146177" lon="104.7405318"><ele>410.21</ele><time>2025-11-15T02:08:07.000Z</time></trkpt>
        <trkpt lat="28.7147324" lon="104.7405487"><ele>407.72</ele><time>2025-11-15T02:08:18.000Z</time></trkpt>
        <trkpt lat="28.7148343" lon="104.7405725"><ele>406.62</ele><time>2025-11-15T02:08:25.000Z</time></trkpt>
        <trkpt lat="28.7149318" lon="104.7406167"><ele>406.07</ele><time>2025-11-15T02:08:33.000Z</time></trkpt>
        <trkpt lat="28.7150294" lon="104.7406505"><ele>405.51</ele><time>2025-11-15T02:08:40.000Z</time></trkpt>
        <trkpt lat="28.7151257" lon="104.7406554"><ele>406.52</ele><time>2025-11-15T02:08:49.000Z</time></trkpt>
        <trkpt lat="28.7152216" lon="104.7407"><ele>406.93</ele><time>2025-11-15T02:08:58.000Z</time></trkpt>
        <trkpt lat="28.7152997" lon="104.7407723"><ele>406.86</ele><time>2025-11-15T02:09:05.000Z</time></trkpt>
        <trkpt lat="28.7153427" lon="104.7408698"><ele>406.88</ele><time>2025-11-15T02:09:13.000Z</time></trkpt>
        <trkpt lat="28.7153757" lon="104.7409721"><ele>407.51</ele><time>2025-11-15T02:09:21.000Z</time></trkpt>
        <trkpt lat="28.7154476" lon="104.7410424"><ele>406.91</ele><time>2025-11-15T02:09:31.000Z</time></trkpt>
        <trkpt lat="28.7155468" lon="104.7410623"><ele>407.31</ele><time>2025-11-15T02:09:41.000Z</time></trkpt>
        <trkpt lat="28.7156497" lon="104.7410846"><ele>409.06</ele><time>2025-11-15T02:09:52.000Z</time></trkpt>
        <trkpt lat="28.7157283" lon="104.7411386"><ele>409.72</ele><time>2025-11-15T02:09:59.000Z</time></trkpt>
        <trkpt lat="28.7157659" lon="104.7412286"><ele>408</ele><time>2025-11-15T02:10:07.000Z</time></trkpt>
        <trkpt lat="28.7157647" lon="104.7413359"><ele>407.38</ele><time>2025-11-15T02:10:15.000Z</time></trkpt>
        <trkpt lat="28.7157427" lon="104.7414515"><ele>407.27</ele><time>2025-11-15T02:10:26.000Z</time></trkpt>
        <trkpt lat="28.7157469" lon="104.7415811"><ele>410.15</ele><time>2025-11-15T02:10:44.000Z</time></trkpt>
        <trkpt lat="28.7157814" lon="104.7416898"><ele>411.59</ele><time>2025-11-15T02:10:52.000Z</time></trkpt>
        <trkpt lat="28.7158442" lon="104.7417881"><ele>411.97</ele><time>2025-11-15T02:11:00.000Z</time></trkpt>
        <trkpt lat="28.7159402" lon="104.7418472"><ele>411.47</ele><time>2025-11-15T02:11:08.000Z</time></trkpt>
        <trkpt lat="28.7160453" lon="104.7418793"><ele>410.35</ele><time>2025-11-15T02:11:16.000Z</time></trkpt>
        <trkpt lat="28.7161072" lon="104.7419691"><ele>409.29</ele><time>2025-11-15T02:11:26.000Z</time></trkpt>
        <trkpt lat="28.71612" lon="104.7420928"><ele>409.29</ele><time>2025-11-15T02:11:34.000Z</time></trkpt>
        <trkpt lat="28.7161406" lon="104.7422182"><ele>409.77</ele><time>2025-11-15T02:11:42.000Z</time></trkpt>
        <trkpt lat="28.7162037" lon="104.7423144"><ele>409.75</ele><time>2025-11-15T02:11:52.000Z</time></trkpt>
        <trkpt lat="28.7162874" lon="104.742373"><ele>409.01</ele><time>2025-11-15T02:12:00.000Z</time></trkpt>
        <trkpt lat="28.7163827" lon="104.7424381"><ele>408</ele><time>2025-11-15T02:12:08.000Z</time></trkpt>
        <trkpt lat="28.7164639" lon="104.7425062"><ele>407.01</ele><time>2025-11-15T02:12:17.000Z</time></trkpt>
        <trkpt lat="28.7165383" lon="104.7425717"><ele>406.01</ele><time>2025-11-15T02:12:25.000Z</time></trkpt>
        <trkpt lat="28.716605" lon="104.7426563"><ele>405.84</ele><time>2025-11-15T02:12:34.000Z</time></trkpt>
        <trkpt lat="28.716664" lon="104.7427403"><ele>406.68</ele><time>2025-11-15T02:12:41.000Z</time></trkpt>
        <trkpt lat="28.7166931" lon="104.7428386"><ele>406.45</ele><time>2025-11-15T02:12:49.000Z</time></trkpt>
        <trkpt lat="28.7166775" lon="104.7429598"><ele>406.24</ele><time>2025-11-15T02:12:59.000Z</time></trkpt>
        <trkpt lat="28.7166438" lon="104.7430783"><ele>405.87</ele><time>2025-11-15T02:13:08.000Z</time></trkpt>
        <trkpt lat="28.7166468" lon="104.7431926"><ele>408.15</ele><time>2025-11-15T02:13:16.000Z</time></trkpt>
        <trkpt lat="28.7167177" lon="104.7432717"><ele>408.56</ele><time>2025-11-15T02:13:23.000Z</time></trkpt>
        <trkpt lat="28.7168129" lon="104.7432408"><ele>407.3</ele><time>2025-11-15T02:13:33.000Z</time></trkpt>
        <trkpt lat="28.7169152" lon="104.7432088"><ele>407.58</ele><time>2025-11-15T02:13:41.000Z</time></trkpt>
        <trkpt lat="28.7170099" lon="104.743168"><ele>408.44</ele><time>2025-11-15T02:13:49.000Z</time></trkpt>
        <trkpt lat="28.7170734" lon="104.743083"><ele>409.12</ele><time>2025-11-15T02:13:57.000Z</time></trkpt>
        <trkpt lat="28.7171623" lon="104.7430316"><ele>408.33</ele><time>2025-11-15T02:14:08.000Z</time></trkpt>
        <trkpt lat="28.7172662" lon="104.743028"><ele>405.75</ele><time>2025-11-15T02:14:16.000Z</time></trkpt>
        <trkpt lat="28.7173579" lon="104.7430784"><ele>404.45</ele><time>2025-11-15T02:14:24.000Z</time></trkpt>
        <trkpt lat="28.7174267" lon="104.743172"><ele>403.82</ele><time>2025-11-15T02:14:31.000Z</time></trkpt>
        <trkpt lat="28.7175017" lon="104.7432571"><ele>402.71</ele><time>2025-11-15T02:14:38.000Z</time></trkpt>
        <trkpt lat="28.7175535" lon="104.7433568"><ele>403.2</ele><time>2025-11-15T02:14:48.000Z</time></trkpt>
        <trkpt lat="28.7175769" lon="104.7434735"><ele>402.95</ele><time>2025-11-15T02:14:55.000Z</time></trkpt>
        <trkpt lat="28.7175998" lon="104.743587"><ele>402.46</ele><time>2025-11-15T02:15:03.000Z</time></trkpt>
        <trkpt lat="28.7175601" lon="104.743689"><ele>407.58</ele><time>2025-11-15T02:15:14.000Z</time></trkpt>
        <trkpt lat="28.7175099" lon="104.7438119"><ele>409.1</ele><time>2025-11-15T02:15:23.000Z</time></trkpt>
        <trkpt lat="28.7174702" lon="104.7439306"><ele>411.58</ele><time>2025-11-15T02:15:31.000Z</time></trkpt>
        <trkpt lat="28.717434" lon="104.7440452"><ele>414.19</ele><time>2025-11-15T02:15:42.000Z</time></trkpt>
        <trkpt lat="28.7174136" lon="104.7441738"><ele>414.44</ele><time>2025-11-15T02:15:49.000Z</time></trkpt>
        <trkpt lat="28.7174291" lon="104.7442972"><ele>416.32</ele><time>2025-11-15T02:16:00.000Z</time></trkpt>
        <trkpt lat="28.7174972" lon="104.7443941"><ele>416.46</ele><time>2025-11-15T02:16:15.000Z</time></trkpt>
        <trkpt lat="28.7175572" lon="104.7444985"><ele>413.51</ele><time>2025-11-15T02:16:25.000Z</time></trkpt>
        <trkpt lat="28.7176552" lon="104.7446085"><ele>411.81</ele><time>2025-11-15T02:16:36.000Z</time></trkpt>
        <trkpt lat="28.7177408" lon="104.7447006"><ele>409.03</ele><time>2025-11-15T02:16:46.000Z</time></trkpt>
        <trkpt lat="28.7178259" lon="104.7447698"><ele>407.17</ele><time>2025-11-15T02:16:53.000Z</time></trkpt>
        <trkpt lat="28.7178042" lon="104.7448229"><ele>406.15</ele><time>2025-11-15T02:17:05.000Z</time></trkpt>
        <trkpt lat="28.7178131" lon="104.7449153"><ele>406.42</ele><time>2025-11-15T02:17:27.000Z</time></trkpt>
        <trkpt lat="28.7178114" lon="104.7450185"><ele>404.07</ele><time>2025-11-15T02:17:45.000Z</time></trkpt>
        <trkpt lat="28.7178244" lon="104.7451246"><ele>401.44</ele><time>2025-11-15T02:17:59.000Z</time></trkpt>
        <trkpt lat="28.7178217" lon="104.7452305"><ele>399.08</ele><time>2025-11-15T02:18:11.000Z</time></trkpt>
        <trkpt lat="28.717781" lon="104.7453347"><ele>396.53</ele><time>2025-11-15T02:18:24.000Z</time></trkpt>
        <trkpt lat="28.7177483" lon="104.7454396"><ele>395.38</ele><time>2025-11-15T02:18:35.000Z</time></trkpt>
        <trkpt lat="28.7176846" lon="104.745523"><ele>394.26</ele><time>2025-11-15T02:18:53.000Z</time></trkpt>
        <trkpt lat="28.7176051" lon="104.7455883"><ele>395.5</ele><time>2025-11-15T02:19:05.000Z</time></trkpt>
        <trkpt lat="28.7175414" lon="104.745671"><ele>396.39</ele><time>2025-11-15T02:19:17.000Z</time></trkpt>
        <trkpt lat="28.7174665" lon="104.7457344"><ele>397.76</ele><time>2025-11-15T02:19:33.000Z</time></trkpt>
        <trkpt lat="28.7173888" lon="104.7458217"><ele>398.97</ele><time>2025-11-15T02:19:43.000Z</time></trkpt>
        <trkpt lat="28.7173087" lon="104.7458942"><ele>399.1</ele><time>2025-11-15T02:19:54.000Z</time></trkpt>
        <trkpt lat="28.7172759" lon="104.7459325"><ele>402.46</ele><time>2025-11-15T02:19:58.000Z</time></trkpt>
        <trkpt lat="28.7172146" lon="104.7459956"><ele>403.94</ele><time>2025-11-15T02:20:10.000Z</time></trkpt>
        <trkpt lat="28.7171979" lon="104.7461134"><ele>404.93</ele><time>2025-11-15T02:20:22.000Z</time></trkpt>
        <trkpt lat="28.7171807" lon="104.7462248"><ele>404.85</ele><time>2025-11-15T02:20:32.000Z</time></trkpt>
        <trkpt lat="28.7171214" lon="104.7463439"><ele>403.94</ele><time>2025-11-15T02:20:37.000Z</time></trkpt>
        <trkpt lat="28.7170861" lon="104.7464714"><ele>400.32</ele><time>2025-11-15T02:20:52.000Z</time></trkpt>
        <trkpt lat="28.7170778" lon="104.7465887"><ele>399.02</ele><time>2025-11-15T02:21:01.000Z</time></trkpt>
        <trkpt lat="28.7170871" lon="104.7467158"><ele>400.48</ele><time>2025-11-15T02:21:13.000Z</time></trkpt>
        <trkpt lat="28.7170868" lon="104.7468263"><ele>398.97</ele><time>2025-11-15T02:21:22.000Z</time></trkpt>
        <trkpt lat="28.7170758" lon="104.7469313"><ele>399.64</ele><time>2025-11-15T02:21:30.000Z</time></trkpt>
        <trkpt lat="28.7170934" lon="104.747051"><ele>400.47</ele><time>2025-11-15T02:21:40.000Z</time></trkpt>
        <trkpt lat="28.7171032" lon="104.7471607"><ele>400.13</ele><time>2025-11-15T02:21:50.000Z</time></trkpt>
        <trkpt lat="28.7170917" lon="104.7472728"><ele>400.24</ele><time>2025-11-15T02:22:02.000Z</time></trkpt>
        <trkpt lat="28.7171124" lon="104.7473788"><ele>398.98</ele><time>2025-11-15T02:22:14.000Z</time></trkpt>
        <trkpt lat="28.7171677" lon="104.7474622"><ele>398.03</ele><time>2025-11-15T02:22:24.000Z</time></trkpt>
        <trkpt lat="28.7171935" lon="104.7475634"><ele>397.09</ele><time>2025-11-15T02:22:30.000Z</time></trkpt>
        <trkpt lat="28.7172051" lon="104.7476747"><ele>396.13</ele><time>2025-11-15T02:22:40.000Z</time></trkpt>
        <trkpt lat="28.7172038" lon="104.7477942"><ele>395.45</ele><time>2025-11-15T02:22:54.000Z</time></trkpt>
        <trkpt lat="28.717202" lon="104.7479059"><ele>396.01</ele><time>2025-11-15T02:23:08.000Z</time></trkpt>
        <trkpt lat="28.7172193" lon="104.7480183"><ele>397.22</ele><time>2025-11-15T02:23:18.000Z</time></trkpt>
        <trkpt lat="28.7172508" lon="104.7481395"><ele>398.63</ele><time>2025-11-15T02:23:30.000Z</time></trkpt>
        <trkpt lat="28.7172414" lon="104.748254"><ele>400.09</ele><time>2025-11-15T02:23:38.000Z</time></trkpt>
        <trkpt lat="28.7172061" lon="104.7483579"><ele>401.18</ele><time>2025-11-15T02:23:46.000Z</time></trkpt>
        <trkpt lat="28.7171812" lon="104.748475"><ele>402.53</ele><time>2025-11-15T02:23:58.000Z</time></trkpt>
        <trkpt lat="28.7171976" lon="104.7485861"><ele>403.45</ele><time>2025-11-15T02:24:05.000Z</time></trkpt>
        <trkpt lat="28.7172537" lon="104.7486745"><ele>405.07</ele><time>2025-11-15T02:24:41.000Z</time></trkpt>
        <trkpt lat="28.7173542" lon="104.7486844"><ele>407.12</ele><time>2025-11-15T02:24:59.000Z</time></trkpt>
        <trkpt lat="28.7174439" lon="104.7486233"><ele>408.79</ele><time>2025-11-15T02:25:19.000Z</time></trkpt>
        <trkpt lat="28.7175557" lon="104.7485804"><ele>415.04</ele><time>2025-11-15T02:25:31.000Z</time></trkpt>
        <trkpt lat="28.717658" lon="104.748546"><ele>421.71</ele><time>2025-11-15T02:25:39.000Z</time></trkpt>
        <trkpt lat="28.7177725" lon="104.7485495"><ele>429.35</ele><time>2025-11-15T02:25:59.000Z</time></trkpt>
        <trkpt lat="28.717794" lon="104.7484654"><ele>435.63</ele><time>2025-11-15T02:26:21.000Z</time></trkpt>
        <trkpt lat="28.7178539" lon="104.7484683"><ele>438.64</ele><time>2025-11-15T02:26:45.000Z</time></trkpt>
        <trkpt lat="28.7179468" lon="104.7484593"><ele>442.17</ele><time>2025-11-15T02:26:58.000Z</time></trkpt>
        <trkpt lat="28.7180092" lon="104.7485201"><ele>445.32</ele><time>2025-11-15T02:27:21.000Z</time></trkpt>
        <trkpt lat="28.7180921" lon="104.7485745"><ele>445.77</ele><time>2025-11-15T02:27:57.000Z</time></trkpt>
        <trkpt lat="28.71818" lon="104.748563"><ele>438.28</ele><time>2025-11-15T02:28:07.000Z</time></trkpt>
        <trkpt lat="28.7182888" lon="104.7485356"><ele>432.03</ele><time>2025-11-15T02:28:15.000Z</time></trkpt>
        <trkpt lat="28.7183896" lon="104.7485217"><ele>420.85</ele><time>2025-11-15T02:28:25.000Z</time></trkpt>
        <trkpt lat="28.7184837" lon="104.7484982"><ele>418.82</ele><time>2025-11-15T02:28:33.000Z</time></trkpt>
        <trkpt lat="28.7185824" lon="104.7484857"><ele>414.4</ele><time>2025-11-15T02:28:41.000Z</time></trkpt>
        <trkpt lat="28.7186766" lon="104.7484465"><ele>413.3</ele><time>2025-11-15T02:28:50.000Z</time></trkpt>
        <trkpt lat="28.7187799" lon="104.7484421"><ele>411.95</ele><time>2025-11-15T02:29:04.000Z</time></trkpt>
        <trkpt lat="28.7188751" lon="104.748452"><ele>410.33</ele><time>2025-11-15T02:29:17.000Z</time></trkpt>
        <trkpt lat="28.7189528" lon="104.7485245"><ele>408.94</ele><time>2025-11-15T02:29:31.000Z</time></trkpt>
        <trkpt lat="28.719" lon="104.7486308"><ele>407.1</ele><time>2025-11-15T02:29:43.000Z</time></trkpt>
        <trkpt lat="28.7190097" lon="104.7487538"><ele>405.33</ele><time>2025-11-15T02:30:11.000Z</time></trkpt>
        <trkpt lat="28.7190148" lon="104.7488701"><ele>404.81</ele><time>2025-11-15T02:30:23.000Z</time></trkpt>
        <trkpt lat="28.7190229" lon="104.7489834"><ele>406.46</ele><time>2025-11-15T02:30:45.000Z</time></trkpt>
        <trkpt lat="28.7190567" lon="104.7490803"><ele>408.29</ele><time>2025-11-15T02:31:03.000Z</time></trkpt>
        <trkpt lat="28.7190452" lon="104.7490231"><ele>408.61</ele><time>2025-11-15T02:31:33.000Z</time></trkpt>
        <trkpt lat="28.7189998" lon="104.7490562"><ele>408.04</ele><time>2025-11-15T02:32:07.000Z</time></trkpt>
        <trkpt lat="28.7189808" lon="104.7491471"><ele>406.02</ele><time>2025-11-15T02:32:19.000Z</time></trkpt>
        <trkpt lat="28.7189749" lon="104.7492543"><ele>404.24</ele><time>2025-11-15T02:32:29.000Z</time></trkpt>
        <trkpt lat="28.7189849" lon="104.7493668"><ele>402.38</ele><time>2025-11-15T02:32:37.000Z</time></trkpt>
        <trkpt lat="28.7190319" lon="104.7494689"><ele>401.05</ele><time>2025-11-15T02:32:47.000Z</time></trkpt>
        <trkpt lat="28.7191106" lon="104.749547"><ele>399.94</ele><time>2025-11-15T02:32:58.000Z</time></trkpt>
        <trkpt lat="28.7191563" lon="104.7495747"><ele>401.64</ele><time>2025-11-15T02:33:21.000Z</time></trkpt>
        <trkpt lat="28.7192475" lon="104.7496045"><ele>400.75</ele><time>2025-11-15T02:33:38.000Z</time></trkpt>
        <trkpt lat="28.7193018" lon="104.7496948"><ele>400.68</ele><time>2025-11-15T02:33:46.000Z</time></trkpt>
        <trkpt lat="28.71932" lon="104.7498136"><ele>403.87</ele><time>2025-11-15T02:33:58.000Z</time></trkpt>
        <trkpt lat="28.7192657" lon="104.7499133"><ele>406.29</ele><time>2025-11-15T02:34:10.000Z</time></trkpt>
        <trkpt lat="28.7192233" lon="104.75002"><ele>408.52</ele><time>2025-11-15T02:34:19.000Z</time></trkpt>
        <trkpt lat="28.7192653" lon="104.750101"><ele>406.15</ele><time>2025-11-15T02:34:35.000Z</time></trkpt>
        <trkpt lat="28.7193314" lon="104.750182"><ele>403.94</ele><time>2025-11-15T02:34:46.000Z</time></trkpt>
        <trkpt lat="28.7193413" lon="104.7502806"><ele>402.76</ele><time>2025-11-15T02:34:56.000Z</time></trkpt>
        <trkpt lat="28.7193169" lon="104.7503838"><ele>406.83</ele><time>2025-11-15T02:35:17.000Z</time></trkpt>
        <trkpt lat="28.7192918" lon="104.750496"><ele>405.43</ele><time>2025-11-15T02:35:28.000Z</time></trkpt>
        <trkpt lat="28.7193045" lon="104.7506031"><ele>407.66</ele><time>2025-11-15T02:35:45.000Z</time></trkpt>
        <trkpt lat="28.7193237" lon="104.75072"><ele>408.91</ele><time>2025-11-15T02:35:59.000Z</time></trkpt>
        <trkpt lat="28.7193236" lon="104.7508325"><ele>410.76</ele><time>2025-11-15T02:36:09.000Z</time></trkpt>
        <trkpt lat="28.7193124" lon="104.7509414"><ele>413.09</ele><time>2025-11-15T02:36:19.000Z</time></trkpt>
        <trkpt lat="28.7193041" lon="104.7510499"><ele>416.04</ele><time>2025-11-15T02:36:29.000Z</time></trkpt>
        <trkpt lat="28.7192837" lon="104.7511554"><ele>418.55</ele><time>2025-11-15T02:36:47.000Z</time></trkpt>
        <trkpt lat="28.719273" lon="104.7512597"><ele>420.17</ele><time>2025-11-15T02:36:59.000Z</time></trkpt>
        <trkpt lat="28.7192577" lon="104.7513719"><ele>420.21</ele><time>2025-11-15T02:37:10.000Z</time></trkpt>
        <trkpt lat="28.7192499" lon="104.7514802"><ele>418.46</ele><time>2025-11-15T02:37:19.000Z</time></trkpt>
        <trkpt lat="28.7192431" lon="104.7515859"><ele>416.57</ele><time>2025-11-15T02:37:31.000Z</time></trkpt>
        <trkpt lat="28.7192434" lon="104.7516899"><ele>414.07</ele><time>2025-11-15T02:37:39.000Z</time></trkpt>
        <trkpt lat="28.7192661" lon="104.7517908"><ele>412.99</ele><time>2025-11-15T02:37:47.000Z</time></trkpt>
        <trkpt lat="28.7192902" lon="104.7518968"><ele>410.91</ele><time>2025-11-15T02:37:55.000Z</time></trkpt>
        <trkpt lat="28.7193318" lon="104.7519999"><ele>408.26</ele><time>2025-11-15T02:38:02.000Z</time></trkpt>
        <trkpt lat="28.7193567" lon="104.7520701"><ele>407.89</ele><time>2025-11-15T02:38:06.000Z</time></trkpt>
        <trkpt lat="28.7193826" lon="104.7521637"><ele>408.14</ele><time>2025-11-15T02:38:14.000Z</time></trkpt>
        <trkpt lat="28.7194206" lon="104.7522793"><ele>407.79</ele><time>2025-11-15T02:38:24.000Z</time></trkpt>
        <trkpt lat="28.7194865" lon="104.7523606"><ele>406.91</ele><time>2025-11-15T02:38:32.000Z</time></trkpt>
        <trkpt lat="28.7195741" lon="104.752432"><ele>405.64</ele><time>2025-11-15T02:38:42.000Z</time></trkpt>
        <trkpt lat="28.719627" lon="104.7525265"><ele>404.22</ele><time>2025-11-15T02:38:54.000Z</time></trkpt>
        <trkpt lat="28.7196509" lon="104.7526381"><ele>404.11</ele><time>2025-11-15T02:39:06.000Z</time></trkpt>
        <trkpt lat="28.719653" lon="104.7527548"><ele>404.04</ele><time>2025-11-15T02:39:18.000Z</time></trkpt>
        <trkpt lat="28.7196231" lon="104.7528743"><ele>404.35</ele><time>2025-11-15T02:39:27.000Z</time></trkpt>
        <trkpt lat="28.7195968" lon="104.752985"><ele>404.47</ele><time>2025-11-15T02:39:38.000Z</time></trkpt>
        <trkpt lat="28.7195936" lon="104.7530927"><ele>404.72</ele><time>2025-11-15T02:39:43.000Z</time></trkpt>
        <trkpt lat="28.71964" lon="104.7531932"><ele>403.42</ele><time>2025-11-15T02:39:53.000Z</time></trkpt>
        <trkpt lat="28.7197221" lon="104.7532667"><ele>403.19</ele><time>2025-11-15T02:40:05.000Z</time></trkpt>
        <trkpt lat="28.7198196" lon="104.7532813"><ele>402.23</ele><time>2025-11-15T02:40:15.000Z</time></trkpt>
        <trkpt lat="28.7199589" lon="104.753245"><ele>401.43</ele><time>2025-11-15T02:40:26.000Z</time></trkpt>
        <trkpt lat="28.7200184" lon="104.7532259"><ele>401.94</ele><time>2025-11-15T02:40:28.000Z</time></trkpt>
        <trkpt lat="28.7201069" lon="104.7532039"><ele>402.53</ele><time>2025-11-15T02:40:39.000Z</time></trkpt>
        <trkpt lat="28.7200529" lon="104.7531933"><ele>402.76</ele><time>2025-11-15T02:40:55.000Z</time></trkpt>
        <trkpt lat="28.7199487" lon="104.7532096"><ele>402.15</ele><time>2025-11-15T02:41:05.000Z</time></trkpt>
        <trkpt lat="28.7198229" lon="104.7532479"><ele>402.22</ele><time>2025-11-15T02:41:15.000Z</time></trkpt>
        <trkpt lat="28.7197807" lon="104.7532596"><ele>402.91</ele><time>2025-11-15T02:41:35.000Z</time></trkpt>
        <trkpt lat="28.7197219" lon="104.7533282"><ele>403.39</ele><time>2025-11-15T02:43:11.000Z</time></trkpt>
        <trkpt lat="28.7197255" lon="104.7534352"><ele>402.6</ele><time>2025-11-15T02:43:41.000Z</time></trkpt>
        <trkpt lat="28.7198176" lon="104.7534642"><ele>398.85</ele><time>2025-11-15T02:43:46.000Z</time></trkpt>
        <trkpt lat="28.7199183" lon="104.753467"><ele>396.42</ele><time>2025-11-15T02:43:49.000Z</time></trkpt>
        <trkpt lat="28.7198609" lon="104.753435"><ele>394.71</ele><time>2025-11-15T02:43:57.000Z</time></trkpt>
        <trkpt lat="28.71976" lon="104.7534333"><ele>395</ele><time>2025-11-15T02:44:31.000Z</time></trkpt>
        <trkpt lat="28.7197186" lon="104.7535167"><ele>396.14</ele><time>2025-11-15T02:45:16.000Z</time></trkpt>
        <trkpt lat="28.71969" lon="104.7536299"><ele>396.83</ele><time>2025-11-15T02:45:25.000Z</time></trkpt>
        <trkpt lat="28.7196833" lon="104.7537552"><ele>397.14</ele><time>2025-11-15T02:45:35.000Z</time></trkpt>
        <trkpt lat="28.7197419" lon="104.7538384"><ele>397.22</ele><time>2025-11-15T02:45:55.000Z</time></trkpt>
        <trkpt lat="28.719778" lon="104.7539454"><ele>398.66</ele><time>2025-11-15T02:46:57.000Z</time></trkpt>
        <trkpt lat="28.7196911" lon="104.753915"><ele>398.43</ele><time>2025-11-15T02:51:03.000Z</time></trkpt>
        <trkpt lat="28.7197734" lon="104.7540136"><ele>396.93</ele><time>2025-11-15T02:51:09.000Z</time></trkpt>
        <trkpt lat="28.7197633" lon="104.7541253"><ele>394.72</ele><time>2025-11-15T02:51:43.000Z</time></trkpt>
        <trkpt lat="28.7197702" lon="104.7542841"><ele>391.24</ele><time>2025-11-15T02:53:19.000Z</time></trkpt>
        <trkpt lat="28.7198698" lon="104.754338"><ele>389.57</ele><time>2025-11-15T02:53:23.000Z</time></trkpt>
        <trkpt lat="28.7198083" lon="104.7543094"><ele>388.71</ele><time>2025-11-15T02:53:27.000Z</time></trkpt>
        <trkpt lat="28.7199203" lon="104.754359"><ele>388.41</ele><time>2025-11-15T02:53:33.000Z</time></trkpt>
        <trkpt lat="28.7197563" lon="104.7544333"><ele>387.3</ele><time>2025-11-15T02:53:40.000Z</time></trkpt>
        <trkpt lat="28.71962" lon="104.7544698"><ele>385.91</ele><time>2025-11-15T02:53:46.000Z</time></trkpt>
        <trkpt lat="28.719563" lon="104.754529"><ele>389.24</ele><time>2025-11-15T02:53:53.000Z</time></trkpt>
        <trkpt lat="28.7195391" lon="104.7546222"><ele>390.55</ele><time>2025-11-15T02:54:07.000Z</time></trkpt>
        <trkpt lat="28.7195412" lon="104.7547356"><ele>389.77</ele><time>2025-11-15T02:54:25.000Z</time></trkpt>
        <trkpt lat="28.7195616" lon="104.7548572"><ele>389.59</ele><time>2025-11-15T02:54:37.000Z</time></trkpt>
        <trkpt lat="28.7195809" lon="104.7548935"><ele>390.08</ele><time>2025-11-15T02:54:41.000Z</time></trkpt>
        <trkpt lat="28.7195839" lon="104.754978"><ele>390.65</ele><time>2025-11-15T02:55:10.000Z</time></trkpt>
        <trkpt lat="28.7195553" lon="104.7550767"><ele>391.26</ele><time>2025-11-15T02:55:17.000Z</time></trkpt>
        <trkpt lat="28.7196234" lon="104.7550879"><ele>392.23</ele><time>2025-11-15T02:55:23.000Z</time></trkpt>
        <trkpt lat="28.7196935" lon="104.7551449"><ele>390</ele><time>2025-11-15T02:55:28.000Z</time></trkpt>
        <trkpt lat="28.7197814" lon="104.755179"><ele>390.47</ele><time>2025-11-15T02:55:38.000Z</time></trkpt>
        <trkpt lat="28.7198855" lon="104.7551677"><ele>389.72</ele><time>2025-11-15T02:55:48.000Z</time></trkpt>
        <trkpt lat="28.7199735" lon="104.7551085"><ele>388.52</ele><time>2025-11-15T02:56:00.000Z</time></trkpt>
        <trkpt lat="28.7200657" lon="104.7550701"><ele>387.6</ele><time>2025-11-15T02:56:11.000Z</time></trkpt>
        <trkpt lat="28.720139" lon="104.7551147"><ele>388.03</ele><time>2025-11-15T02:56:19.000Z</time></trkpt>
        <trkpt lat="28.7202189" lon="104.7552083"><ele>389.01</ele><time>2025-11-15T02:56:30.000Z</time></trkpt>
        <trkpt lat="28.7203084" lon="104.7552711"><ele>390.85</ele><time>2025-11-15T02:56:40.000Z</time></trkpt>
        <trkpt lat="28.7204012" lon="104.7553409"><ele>394.31</ele><time>2025-11-15T02:56:53.000Z</time></trkpt>
        <trkpt lat="28.7204482" lon="104.7554353"><ele>398</ele><time>2025-11-15T02:57:05.000Z</time></trkpt>
        <trkpt lat="28.7204824" lon="104.7555458"><ele>399.39</ele><time>2025-11-15T02:57:19.000Z</time></trkpt>
        <trkpt lat="28.7205325" lon="104.7556443"><ele>399.88</ele><time>2025-11-15T02:57:29.000Z</time></trkpt>
        <trkpt lat="28.720622" lon="104.7556814"><ele>398.53</ele><time>2025-11-15T02:57:41.000Z</time></trkpt>
        <trkpt lat="28.7207017" lon="104.755733"><ele>397.15</ele><time>2025-11-15T02:58:03.000Z</time></trkpt>
        <trkpt lat="28.7207158" lon="104.7558333"><ele>395.49</ele><time>2025-11-15T02:58:23.000Z</time></trkpt>
        <trkpt lat="28.7207443" lon="104.7559355"><ele>393.46</ele><time>2025-11-15T02:58:37.000Z</time></trkpt>
        <trkpt lat="28.7208215" lon="104.7559693"><ele>391.67</ele><time>2025-11-15T02:58:59.000Z</time></trkpt>
        <trkpt lat="28.7209194" lon="104.7559337"><ele>390.5</ele><time>2025-11-15T02:59:22.000Z</time></trkpt>
        <trkpt lat="28.7210242" lon="104.7558937"><ele>389.61</ele><time>2025-11-15T02:59:31.000Z</time></trkpt>
        <trkpt lat="28.7211282" lon="104.7558391"><ele>389.28</ele><time>2025-11-15T02:59:40.000Z</time></trkpt>
        <trkpt lat="28.7212259" lon="104.7557959"><ele>388.01</ele><time>2025-11-15T02:59:47.000Z</time></trkpt>
        <trkpt lat="28.721347" lon="104.755771"><ele>388.55</ele><time>2025-11-15T02:59:58.000Z</time></trkpt>
        <trkpt lat="28.7214583" lon="104.7557868"><ele>386.85</ele><time>2025-11-15T03:00:05.000Z</time></trkpt>
        <trkpt lat="28.7215498" lon="104.7558407"><ele>385.5</ele><time>2025-11-15T03:00:14.000Z</time></trkpt>
        <trkpt lat="28.7216045" lon="104.7558896"><ele>389.06</ele><time>2025-11-15T03:00:19.000Z</time></trkpt>
        <trkpt lat="28.7216873" lon="104.7559525"><ele>390.75</ele><time>2025-11-15T03:00:26.000Z</time></trkpt>
        <trkpt lat="28.7217511" lon="104.7560223"><ele>390.56</ele><time>2025-11-15T03:00:34.000Z</time></trkpt>
        <trkpt lat="28.7218389" lon="104.7560583"><ele>390.57</ele><time>2025-11-15T03:02:05.000Z</time></trkpt>
        <trkpt lat="28.7219002" lon="104.7561569"><ele>387.98</ele><time>2025-11-15T03:02:13.000Z</time></trkpt>
        <trkpt lat="28.7219469" lon="104.7562631"><ele>386.41</ele><time>2025-11-15T03:02:23.000Z</time></trkpt>
        <trkpt lat="28.7219707" lon="104.7563783"><ele>384.31</ele><time>2025-11-15T03:02:33.000Z</time></trkpt>
        <trkpt lat="28.7219632" lon="104.7564886"><ele>382.12</ele><time>2025-11-15T03:02:42.000Z</time></trkpt>
        <trkpt lat="28.7219551" lon="104.7565956"><ele>381.67</ele><time>2025-11-15T03:02:50.000Z</time></trkpt>
        <trkpt lat="28.7219499" lon="104.7567181"><ele>381.49</ele><time>2025-11-15T03:02:59.000Z</time></trkpt>
        <trkpt lat="28.7219264" lon="104.7568342"><ele>381.65</ele><time>2025-11-15T03:03:07.000Z</time></trkpt>
        <trkpt lat="28.7218921" lon="104.7569479"><ele>381.7</ele><time>2025-11-15T03:03:16.000Z</time></trkpt>
        <trkpt lat="28.7218968" lon="104.7570586"><ele>381.27</ele><time>2025-11-15T03:03:24.000Z</time></trkpt>
        <trkpt lat="28.7219458" lon="104.757157"><ele>381.07</ele><time>2025-11-15T03:03:35.000Z</time></trkpt>
        <trkpt lat="28.7220052" lon="104.7572456"><ele>380.48</ele><time>2025-11-15T03:03:43.000Z</time></trkpt>
        <trkpt lat="28.7220827" lon="104.7573256"><ele>380.26</ele><time>2025-11-15T03:03:53.000Z</time></trkpt>
        <trkpt lat="28.7221768" lon="104.7573594"><ele>379.65</ele><time>2025-11-15T03:04:05.000Z</time></trkpt>
        <trkpt lat="28.7222904" lon="104.7573915"><ele>379.37</ele><time>2025-11-15T03:04:14.000Z</time></trkpt>
        <trkpt lat="28.7223966" lon="104.7574"><ele>381.03</ele><time>2025-11-15T03:04:26.000Z</time></trkpt>
        <trkpt lat="28.7224827" lon="104.7574368"><ele>380.36</ele><time>2025-11-15T03:04:34.000Z</time></trkpt>
        <trkpt lat="28.7225344" lon="104.7575344"><ele>379.4</ele><time>2025-11-15T03:04:44.000Z</time></trkpt>
        <trkpt lat="28.7225598" lon="104.7576472"><ele>378.45</ele><time>2025-11-15T03:04:51.000Z</time></trkpt>
        <trkpt lat="28.7226324" lon="104.7577227"><ele>378.43</ele><time>2025-11-15T03:05:01.000Z</time></trkpt>
        <trkpt lat="28.7227223" lon="104.757755"><ele>378.41</ele><time>2025-11-15T03:05:11.000Z</time></trkpt>
        <trkpt lat="28.7228101" lon="104.7578018"><ele>378.45</ele><time>2025-11-15T03:05:19.000Z</time></trkpt>
        <trkpt lat="28.7228926" lon="104.7578565"><ele>378.86</ele><time>2025-11-15T03:05:29.000Z</time></trkpt>
        <trkpt lat="28.7229798" lon="104.7579073"><ele>379.24</ele><time>2025-11-15T03:05:40.000Z</time></trkpt>
        <trkpt lat="28.7230683" lon="104.7579391"><ele>379.18</ele><time>2025-11-15T03:05:55.000Z</time></trkpt>
        <trkpt lat="28.7230128" lon="104.7579136"><ele>380.76</ele><time>2025-11-15T03:06:17.000Z</time></trkpt>
        <trkpt lat="28.7229233" lon="104.7578607"><ele>382.25</ele><time>2025-11-15T03:06:23.000Z</time></trkpt>
        <trkpt lat="28.7228155" lon="104.7577783"><ele>383.35</ele><time>2025-11-15T03:06:32.000Z</time></trkpt>
        <trkpt lat="28.7227129" lon="104.7577047"><ele>382.39</ele><time>2025-11-15T03:06:42.000Z</time></trkpt>
        <trkpt lat="28.7226133" lon="104.7576855"><ele>381.16</ele><time>2025-11-15T03:06:53.000Z</time></trkpt>
        <trkpt lat="28.7225322" lon="104.7576255"><ele>380.8</ele><time>2025-11-15T03:07:03.000Z</time></trkpt>
        <trkpt lat="28.7225017" lon="104.7575602"><ele>381.71</ele><time>2025-11-15T03:07:07.000Z</time></trkpt>
        <trkpt lat="28.722567" lon="104.7575135"><ele>380.16</ele><time>2025-11-15T03:07:23.000Z</time></trkpt>
        <trkpt lat="28.7226673" lon="104.7575055"><ele>379.65</ele><time>2025-11-15T03:07:35.000Z</time></trkpt>
        <trkpt lat="28.7227736" lon="104.7575336"><ele>379.67</ele><time>2025-11-15T03:07:47.000Z</time></trkpt>
        <trkpt lat="28.7228734" lon="104.7575778"><ele>380.68</ele><time>2025-11-15T03:07:57.000Z</time></trkpt>
        <trkpt lat="28.7229732" lon="104.7576123"><ele>380.91</ele><time>2025-11-15T03:08:10.000Z</time></trkpt>
        <trkpt lat="28.7230664" lon="104.7575698"><ele>381.01</ele><time>2025-11-15T03:08:22.000Z</time></trkpt>
        <trkpt lat="28.7231379" lon="104.757497"><ele>379.79</ele><time>2025-11-15T03:08:29.000Z</time></trkpt>
        <trkpt lat="28.723193" lon="104.757408"><ele>381.15</ele><time>2025-11-15T03:08:37.000Z</time></trkpt>
        <trkpt lat="28.7232051" lon="104.7573006"><ele>382.09</ele><time>2025-11-15T03:08:52.000Z</time></trkpt>
        <trkpt lat="28.7232105" lon="104.7571679"><ele>382.56</ele><time>2025-11-15T03:09:02.000Z</time></trkpt>
        <trkpt lat="28.7232804" lon="104.7570982"><ele>382.63</ele><time>2025-11-15T03:09:16.000Z</time></trkpt>
        <trkpt lat="28.7233569" lon="104.7571455"><ele>385.19</ele><time>2025-11-15T03:09:32.000Z</time></trkpt>
        <trkpt lat="28.7234496" lon="104.7571755"><ele>385.54</ele><time>2025-11-15T03:09:46.000Z</time></trkpt>
        <trkpt lat="28.7235484" lon="104.7571766"><ele>384.86</ele><time>2025-11-15T03:09:57.000Z</time></trkpt>
        <trkpt lat="28.723645" lon="104.7571747"><ele>384.48</ele><time>2025-11-15T03:10:07.000Z</time></trkpt>
        <trkpt lat="28.7237439" lon="104.7571978"><ele>384.17</ele><time>2025-11-15T03:10:17.000Z</time></trkpt>
        <trkpt lat="28.7238403" lon="104.7572072"><ele>384.92</ele><time>2025-11-15T03:10:25.000Z</time></trkpt>
        <trkpt lat="28.7239213" lon="104.75728"><ele>386.61</ele><time>2025-11-15T03:10:41.000Z</time></trkpt>
        <trkpt lat="28.7240154" lon="104.7573425"><ele>387.11</ele><time>2025-11-15T03:10:54.000Z</time></trkpt>
        <trkpt lat="28.7240612" lon="104.7574341"><ele>387.82</ele><time>2025-11-15T03:11:09.000Z</time></trkpt>
        <trkpt lat="28.7241146" lon="104.7575281"><ele>388.96</ele><time>2025-11-15T03:11:20.000Z</time></trkpt>
        <trkpt lat="28.7242041" lon="104.7575556"><ele>389.91</ele><time>2025-11-15T03:11:29.000Z</time></trkpt>
        <trkpt lat="28.7242806" lon="104.7574896"><ele>389.9</ele><time>2025-11-15T03:11:41.000Z</time></trkpt>
        <trkpt lat="28.7243634" lon="104.7574108"><ele>389.15</ele><time>2025-11-15T03:11:59.000Z</time></trkpt>
        <trkpt lat="28.7244444" lon="104.7574356"><ele>388.06</ele><time>2025-11-15T03:12:16.000Z</time></trkpt>
        <trkpt lat="28.7244741" lon="104.757529"><ele>387.74</ele><time>2025-11-15T03:12:29.000Z</time></trkpt>
        <trkpt lat="28.7244667" lon="104.7576509"><ele>388.53</ele><time>2025-11-15T03:12:44.000Z</time></trkpt>
        <trkpt lat="28.7244403" lon="104.7577767"><ele>388.22</ele><time>2025-11-15T03:12:57.000Z</time></trkpt>
        <trkpt lat="28.7244534" lon="104.7578889"><ele>389.02</ele><time>2025-11-15T03:13:10.000Z</time></trkpt>
        <trkpt lat="28.7245045" lon="104.7579785"><ele>389.58</ele><time>2025-11-15T03:13:16.000Z</time></trkpt>
        <trkpt lat="28.7245795" lon="104.7580075"><ele>392.72</ele><time>2025-11-15T03:13:26.000Z</time></trkpt>
        <trkpt lat="28.7246711" lon="104.7579833"><ele>396.25</ele><time>2025-11-15T03:13:40.000Z</time></trkpt>
        <trkpt lat="28.7247254" lon="104.7580503"><ele>398.26</ele><time>2025-11-15T03:13:58.000Z</time></trkpt>
        <trkpt lat="28.7247254" lon="104.7581551"><ele>398.29</ele><time>2025-11-15T03:14:11.000Z</time></trkpt>
        <trkpt lat="28.7247134" lon="104.7582659"><ele>397.71</ele><time>2025-11-15T03:14:27.000Z</time></trkpt>
        <trkpt lat="28.7247449" lon="104.758374"><ele>397.47</ele><time>2025-11-15T03:14:41.000Z</time></trkpt>
        <trkpt lat="28.7247946" lon="104.7584745"><ele>399.58</ele><time>2025-11-15T03:15:00.000Z</time></trkpt>
        <trkpt lat="28.7248562" lon="104.7585612"><ele>400.3</ele><time>2025-11-15T03:15:14.000Z</time></trkpt>
        <trkpt lat="28.7249469" lon="104.7586268"><ele>402.32</ele><time>2025-11-15T03:15:29.000Z</time></trkpt>
        <trkpt lat="28.7250506" lon="104.7586622"><ele>403.44</ele><time>2025-11-15T03:15:44.000Z</time></trkpt>
        <trkpt lat="28.7251533" lon="104.7586534"><ele>403.88</ele><time>2025-11-15T03:15:55.000Z</time></trkpt>
        <trkpt lat="28.7252604" lon="104.7586474"><ele>403.24</ele><time>2025-11-15T03:16:08.000Z</time></trkpt>
        <trkpt lat="28.7253587" lon="104.7586509"><ele>402.83</ele><time>2025-11-15T03:16:18.000Z</time></trkpt>
        <trkpt lat="28.725411" lon="104.7587002"><ele>403.27</ele><time>2025-11-15T03:16:35.000Z</time></trkpt>
        <trkpt lat="28.7254043" lon="104.7587975"><ele>402.4</ele><time>2025-11-15T03:16:57.000Z</time></trkpt>
        <trkpt lat="28.7253456" lon="104.758891"><ele>400.93</ele><time>2025-11-15T03:17:11.000Z</time></trkpt>
        <trkpt lat="28.7253221" lon="104.7590071"><ele>407.29</ele><time>2025-11-15T03:17:26.000Z</time></trkpt>
        <trkpt lat="28.7253126" lon="104.7591358"><ele>408.64</ele><time>2025-11-15T03:17:35.000Z</time></trkpt>
        <trkpt lat="28.7253646" lon="104.7592305"><ele>410.35</ele><time>2025-11-15T03:17:49.000Z</time></trkpt>
        <trkpt lat="28.7254403" lon="104.7593109"><ele>410.81</ele><time>2025-11-15T03:18:01.000Z</time></trkpt>
        <trkpt lat="28.7254912" lon="104.7594055"><ele>409.92</ele><time>2025-11-15T03:18:12.000Z</time></trkpt>
        <trkpt lat="28.7255067" lon="104.7595103"><ele>408.5</ele><time>2025-11-15T03:18:22.000Z</time></trkpt>
        <trkpt lat="28.7254519" lon="104.7595947"><ele>410.59</ele><time>2025-11-15T03:18:31.000Z</time></trkpt>
        <trkpt lat="28.7253919" lon="104.7596878"><ele>415.05</ele><time>2025-11-15T03:18:48.000Z</time></trkpt>
        <trkpt lat="28.7253532" lon="104.7597942"><ele>416.93</ele><time>2025-11-15T03:19:00.000Z</time></trkpt>
        <trkpt lat="28.7253223" lon="104.7598968"><ele>417.51</ele><time>2025-11-15T03:19:13.000Z</time></trkpt>
        <trkpt lat="28.7252798" lon="104.7599965"><ele>416.35</ele><time>2025-11-15T03:19:28.000Z</time></trkpt>
        <trkpt lat="28.7252414" lon="104.7601016"><ele>416.94</ele><time>2025-11-15T03:19:41.000Z</time></trkpt>
        <trkpt lat="28.7251952" lon="104.7602003"><ele>416.36</ele><time>2025-11-15T03:19:54.000Z</time></trkpt>
        <trkpt lat="28.7251495" lon="104.7603043"><ele>413.59</ele><time>2025-11-15T03:20:07.000Z</time></trkpt>
        <trkpt lat="28.725111" lon="104.760412"><ele>414.39</ele><time>2025-11-15T03:20:22.000Z</time></trkpt>
        <trkpt lat="28.7250573" lon="104.7605083"><ele>411.5</ele><time>2025-11-15T03:20:43.000Z</time></trkpt>
        <trkpt lat="28.7250184" lon="104.7606056"><ele>407.15</ele><time>2025-11-15T03:21:01.000Z</time></trkpt>
        <trkpt lat="28.7249946" lon="104.7607078"><ele>402.83</ele><time>2025-11-15T03:21:16.000Z</time></trkpt>
        <trkpt lat="28.725009" lon="104.7608114"><ele>399.76</ele><time>2025-11-15T03:21:57.000Z</time></trkpt>
        <trkpt lat="28.7250345" lon="104.7609164"><ele>395.02</ele><time>2025-11-15T03:22:47.000Z</time></trkpt>
        <trkpt lat="28.7250548" lon="104.7610335"><ele>390.54</ele><time>2025-11-15T03:23:25.000Z</time></trkpt>
        <trkpt lat="28.7250621" lon="104.7610778"><ele>385.38</ele><time>2025-11-15T03:23:33.000Z</time></trkpt>
        <trkpt lat="28.7250921" lon="104.7610093"><ele>381.55</ele><time>2025-11-15T03:23:55.000Z</time></trkpt>
        <trkpt lat="28.7251655" lon="104.7608868"><ele>378.83</ele><time>2025-11-15T03:25:05.000Z</time></trkpt>
        <trkpt lat="28.7252345" lon="104.7608103"><ele>376.56</ele><time>2025-11-15T03:25:22.000Z</time></trkpt>
        <trkpt lat="28.7253267" lon="104.7608035"><ele>373.15</ele><time>2025-11-15T03:25:44.000Z</time></trkpt>
        <trkpt lat="28.7254233" lon="104.7608045"><ele>372.26</ele><time>2025-11-15T03:25:53.000Z</time></trkpt>
        <trkpt lat="28.7255004" lon="104.7608603"><ele>371.75</ele><time>2025-11-15T03:26:05.000Z</time></trkpt>
        <trkpt lat="28.7255465" lon="104.7609669"><ele>371.03</ele><time>2025-11-15T03:26:17.000Z</time></trkpt>
        <trkpt lat="28.7255465" lon="104.7610828"><ele>370.86</ele><time>2025-11-15T03:26:30.000Z</time></trkpt>
        <trkpt lat="28.725542" lon="104.7611964"><ele>371.34</ele><time>2025-11-15T03:26:43.000Z</time></trkpt>
        <trkpt lat="28.7255759" lon="104.7613043"><ele>370.73</ele><time>2025-11-15T03:26:51.000Z</time></trkpt>
        <trkpt lat="28.7256449" lon="104.7613903"><ele>370.48</ele><time>2025-11-15T03:27:00.000Z</time></trkpt>
        <trkpt lat="28.7257087" lon="104.7614028"><ele>370.99</ele><time>2025-11-15T03:27:05.000Z</time></trkpt>
        <trkpt lat="28.7257935" lon="104.7614539"><ele>369.25</ele><time>2025-11-15T03:27:16.000Z</time></trkpt>
        <trkpt lat="28.7258773" lon="104.7615037"><ele>368.8</ele><time>2025-11-15T03:27:25.000Z</time></trkpt>
        <trkpt lat="28.7259453" lon="104.7615727"><ele>367.41</ele><time>2025-11-15T03:27:34.000Z</time></trkpt>
        <trkpt lat="28.7260143" lon="104.7616465"><ele>366.04</ele><time>2025-11-15T03:27:40.000Z</time></trkpt>
        <trkpt lat="28.7260483" lon="104.7616723"><ele>366.58</ele><time>2025-11-15T03:27:45.000Z</time></trkpt>
        <trkpt lat="28.72611" lon="104.7617147"><ele>366.5</ele><time>2025-11-15T03:27:52.000Z</time></trkpt>
        <trkpt lat="28.726186" lon="104.7617729"><ele>368.61</ele><time>2025-11-15T03:28:01.000Z</time></trkpt>
        <trkpt lat="28.7262558" lon="104.7618475"><ele>369.97</ele><time>2025-11-15T03:28:19.000Z</time></trkpt>
        <trkpt lat="28.7262885" lon="104.7619465"><ele>369.18</ele><time>2025-11-15T03:28:28.000Z</time></trkpt>
        <trkpt lat="28.7263272" lon="104.7620613"><ele>369.32</ele><time>2025-11-15T03:28:37.000Z</time></trkpt>
        <trkpt lat="28.7263483" lon="104.7621823"><ele>369.74</ele><time>2025-11-15T03:28:49.000Z</time></trkpt>
        <trkpt lat="28.7263909" lon="104.7623013"><ele>369.89</ele><time>2025-11-15T03:29:00.000Z</time></trkpt>
        <trkpt lat="28.726457" lon="104.7623912"><ele>370.32</ele><time>2025-11-15T03:29:08.000Z</time></trkpt>
        <trkpt lat="28.7265538" lon="104.7624241"><ele>371.1</ele><time>2025-11-15T03:29:17.000Z</time></trkpt>
        <trkpt lat="28.7266227" lon="104.7623913"><ele>371.29</ele><time>2025-11-15T03:29:25.000Z</time></trkpt>
        <trkpt lat="28.7267019" lon="104.7623395"><ele>370.18</ele><time>2025-11-15T03:29:33.000Z</time></trkpt>
        <trkpt lat="28.7267995" lon="104.7622887"><ele>369.8</ele><time>2025-11-15T03:29:43.000Z</time></trkpt>
        <trkpt lat="28.7269165" lon="104.7622737"><ele>369.54</ele><time>2025-11-15T03:29:52.000Z</time></trkpt>
        <trkpt lat="28.7270176" lon="104.7622679"><ele>367.25</ele><time>2025-11-15T03:30:03.000Z</time></trkpt>
        <trkpt lat="28.7271146" lon="104.7622844"><ele>367.97</ele><time>2025-11-15T03:30:14.000Z</time></trkpt>
        <trkpt lat="28.7272149" lon="104.7623016"><ele>367.14</ele><time>2025-11-15T03:30:24.000Z</time></trkpt>
        <trkpt lat="28.7273174" lon="104.7622939"><ele>366.62</ele><time>2025-11-15T03:30:34.000Z</time></trkpt>
        <trkpt lat="28.7274355" lon="104.7622933"><ele>366.55</ele><time>2025-11-15T03:30:41.000Z</time></trkpt>
        <trkpt lat="28.7275382" lon="104.7623042"><ele>367.25</ele><time>2025-11-15T03:30:50.000Z</time></trkpt>
        <trkpt lat="28.7276347" lon="104.7623359"><ele>367.46</ele><time>2025-11-15T03:31:00.000Z</time></trkpt>
        <trkpt lat="28.7277181" lon="104.7623943"><ele>366.85</ele><time>2025-11-15T03:31:10.000Z</time></trkpt>
        <trkpt lat="28.7277631" lon="104.7624872"><ele>366.27</ele><time>2025-11-15T03:31:22.000Z</time></trkpt>
        <trkpt lat="28.7277688" lon="104.7626028"><ele>365.2</ele><time>2025-11-15T03:31:31.000Z</time></trkpt>
        <trkpt lat="28.7277613" lon="104.7627158"><ele>362.06</ele><time>2025-11-15T03:31:43.000Z</time></trkpt>
        <trkpt lat="28.7277312" lon="104.7628269"><ele>359.7</ele><time>2025-11-15T03:33:27.000Z</time></trkpt>
        <trkpt lat="28.7277376" lon="104.7628356"><ele>358.18</ele><time>2025-11-15T03:33:34.000Z</time></trkpt>
        <trkpt lat="28.7277506" lon="104.7629529"><ele>357.66</ele><time>2025-11-15T03:35:01.000Z</time></trkpt>
        <trkpt lat="28.7277697" lon="104.7630549"><ele>358.63</ele><time>2025-11-15T03:35:15.000Z</time></trkpt>
        <trkpt lat="28.7278102" lon="104.763172"><ele>359.24</ele><time>2025-11-15T03:35:25.000Z</time></trkpt>
        <trkpt lat="28.7278376" lon="104.7632776"><ele>360.29</ele><time>2025-11-15T03:35:37.000Z</time></trkpt>
        <trkpt lat="28.7278855" lon="104.7633749"><ele>361.5</ele><time>2025-11-15T03:35:50.000Z</time></trkpt>
        <trkpt lat="28.7279532" lon="104.7634606"><ele>362.44</ele><time>2025-11-15T03:36:00.000Z</time></trkpt>
        <trkpt lat="28.7280019" lon="104.7634875"><ele>364.44</ele><time>2025-11-15T03:36:11.000Z</time></trkpt>
        <trkpt lat="28.7280852" lon="104.7635315"><ele>363.93</ele><time>2025-11-15T03:36:23.000Z</time></trkpt>
        <trkpt lat="28.7281651" lon="104.7635932"><ele>363.32</ele><time>2025-11-15T03:36:31.000Z</time></trkpt>
        <trkpt lat="28.7282629" lon="104.763632"><ele>364.24</ele><time>2025-11-15T03:36:43.000Z</time></trkpt>
        <trkpt lat="28.7283696" lon="104.7636572"><ele>364.21</ele><time>2025-11-15T03:36:53.000Z</time></trkpt>
        <trkpt lat="28.7284647" lon="104.7636379"><ele>364.41</ele><time>2025-11-15T03:37:04.000Z</time></trkpt>
        <trkpt lat="28.7285194" lon="104.7635412"><ele>365.17</ele><time>2025-11-15T03:37:15.000Z</time></trkpt>
        <trkpt lat="28.7285634" lon="104.7634256"><ele>365.51</ele><time>2025-11-15T03:37:28.000Z</time></trkpt>
        <trkpt lat="28.7286008" lon="104.7633119"><ele>365.69</ele><time>2025-11-15T03:37:39.000Z</time></trkpt>
        <trkpt lat="28.7286572" lon="104.7632028"><ele>365.95</ele><time>2025-11-15T03:37:48.000Z</time></trkpt>
        <trkpt lat="28.7286957" lon="104.7630976"><ele>366.31</ele><time>2025-11-15T03:38:00.000Z</time></trkpt>
        <trkpt lat="28.7287302" lon="104.76299"><ele>366.73</ele><time>2025-11-15T03:38:13.000Z</time></trkpt>
        <trkpt lat="28.7287778" lon="104.7628955"><ele>366.51</ele><time>2025-11-15T03:38:26.000Z</time></trkpt>
        <trkpt lat="28.7288546" lon="104.7628279"><ele>365.4</ele><time>2025-11-15T03:38:37.000Z</time></trkpt>
        <trkpt lat="28.7289415" lon="104.7627692"><ele>364.54</ele><time>2025-11-15T03:38:47.000Z</time></trkpt>
        <trkpt lat="28.7290254" lon="104.7626985"><ele>363.37</ele><time>2025-11-15T03:38:58.000Z</time></trkpt>
        <trkpt lat="28.7290883" lon="104.7626048"><ele>362.55</ele><time>2025-11-15T03:39:07.000Z</time></trkpt>
        <trkpt lat="28.7291511" lon="104.7625104"><ele>361.89</ele><time>2025-11-15T03:39:17.000Z</time></trkpt>
        <trkpt lat="28.7292237" lon="104.7624418"><ele>360.95</ele><time>2025-11-15T03:39:26.000Z</time></trkpt>
        <trkpt lat="28.7293164" lon="104.7623771"><ele>360.19</ele><time>2025-11-15T03:39:35.000Z</time></trkpt>
        <trkpt lat="28.7294051" lon="104.7623338"><ele>359.81</ele><time>2025-11-15T03:39:43.000Z</time></trkpt>
        <trkpt lat="28.729496" lon="104.7622896"><ele>358.8</ele><time>2025-11-15T03:39:56.000Z</time></trkpt>
        <trkpt lat="28.7295877" lon="104.7622435"><ele>358.57</ele><time>2025-11-15T03:40:06.000Z</time></trkpt>
        <trkpt lat="28.7296539" lon="104.7621627"><ele>358.43</ele><time>2025-11-15T03:40:19.000Z</time></trkpt>
        <trkpt lat="28.7297231" lon="104.7620837"><ele>356.55</ele><time>2025-11-15T03:40:29.000Z</time></trkpt>
        <trkpt lat="28.7297847" lon="104.7619927"><ele>355.89</ele><time>2025-11-15T03:40:40.000Z</time></trkpt>
        <trkpt lat="28.7298597" lon="104.7619172"><ele>355.13</ele><time>2025-11-15T03:40:50.000Z</time></trkpt>
        <trkpt lat="28.7299311" lon="104.7618424"><ele>354.46</ele><time>2025-11-15T03:40:59.000Z</time></trkpt>
        <trkpt lat="28.7300028" lon="104.7617464"><ele>353.86</ele><time>2025-11-15T03:41:10.000Z</time></trkpt>
        <trkpt lat="28.7300617" lon="104.7616556"><ele>352.57</ele><time>2025-11-15T03:41:19.000Z</time></trkpt>
        <trkpt lat="28.730095" lon="104.7615562"><ele>350.87</ele><time>2025-11-15T03:41:36.000Z</time></trkpt>
        <trkpt lat="28.7301243" lon="104.7614562"><ele>349.07</ele><time>2025-11-15T03:41:49.000Z</time></trkpt>
        <trkpt lat="28.730178" lon="104.7613736"><ele>347.92</ele><time>2025-11-15T03:42:01.000Z</time></trkpt>
        <trkpt lat="28.7302254" lon="104.761273"><ele>345.59</ele><time>2025-11-15T03:42:19.000Z</time></trkpt>
        <trkpt lat="28.730273" lon="104.7611795"><ele>341.97</ele><time>2025-11-15T03:42:31.000Z</time></trkpt>
        <trkpt lat="28.7303141" lon="104.761081"><ele>338.51</ele><time>2025-11-15T03:42:43.000Z</time></trkpt>
        <trkpt lat="28.7303464" lon="104.76098"><ele>338.67</ele><time>2025-11-15T03:42:59.000Z</time></trkpt>
        <trkpt lat="28.7303712" lon="104.7608713"><ele>337.74</ele><time>2025-11-15T03:43:13.000Z</time></trkpt>
        <trkpt lat="28.7303888" lon="104.760766"><ele>336.29</ele><time>2025-11-15T03:43:33.000Z</time></trkpt>
        <trkpt lat="28.7303984" lon="104.7606585"><ele>333.56</ele><time>2025-11-15T03:43:58.000Z</time></trkpt>
        <trkpt lat="28.7303851" lon="104.7605519"><ele>331.95</ele><time>2025-11-15T03:44:16.000Z</time></trkpt>
        <trkpt lat="28.7303886" lon="104.7604374"><ele>327.93</ele><time>2025-11-15T03:44:40.000Z</time></trkpt>
        <trkpt lat="28.7303952" lon="104.7603305"><ele>324.5</ele><time>2025-11-15T03:44:56.000Z</time></trkpt>
        <trkpt lat="28.730406" lon="104.7602249"><ele>321.89</ele><time>2025-11-15T03:45:14.000Z</time></trkpt>
        <trkpt lat="28.7304177" lon="104.7601206"><ele>317.53</ele><time>2025-11-15T03:45:32.000Z</time></trkpt>
        <trkpt lat="28.7304651" lon="104.7600344"><ele>313.42</ele><time>2025-11-15T03:45:47.000Z</time></trkpt>
        <trkpt lat="28.7304913" lon="104.7599346"><ele>313.08</ele><time>2025-11-15T03:46:05.000Z</time></trkpt>
        <trkpt lat="28.7305295" lon="104.7598308"><ele>311.05</ele><time>2025-11-15T03:46:20.000Z</time></trkpt>
        <trkpt lat="28.730567" lon="104.7597299"><ele>306.71</ele><time>2025-11-15T03:46:31.000Z</time></trkpt>
        <trkpt lat="28.7306121" lon="104.7596245"><ele>303.38</ele><time>2025-11-15T03:46:48.000Z</time></trkpt>
        <trkpt lat="28.7306625" lon="104.7595302"><ele>301.11</ele><time>2025-11-15T03:47:04.000Z</time></trkpt>
        <trkpt lat="28.7307267" lon="104.7594422"><ele>300.04</ele><time>2025-11-15T03:47:16.000Z</time></trkpt>
        <trkpt lat="28.7308023" lon="104.7593754"><ele>300.03</ele><time>2025-11-15T03:47:26.000Z</time></trkpt>
        <trkpt lat="28.7308813" lon="104.7593188"><ele>300</ele><time>2025-11-15T03:47:38.000Z</time></trkpt>
        <trkpt lat="28.7309697" lon="104.7592887"><ele>299.51</ele><time>2025-11-15T03:47:53.000Z</time></trkpt>
        <trkpt lat="28.7310389" lon="104.7592258"><ele>303.03</ele><time>2025-11-15T03:48:16.000Z</time></trkpt>
        <trkpt lat="28.731107" lon="104.759144"><ele>303.22</ele><time>2025-11-15T03:48:34.000Z</time></trkpt>
        <trkpt lat="28.7311586" lon="104.7590482"><ele>303.24</ele><time>2025-11-15T03:48:53.000Z</time></trkpt>
        <trkpt lat="28.7312088" lon="104.7589527"><ele>301.83</ele><time>2025-11-15T03:49:05.000Z</time></trkpt>
        <trkpt lat="28.7312495" lon="104.7588573"><ele>300.17</ele><time>2025-11-15T03:49:15.000Z</time></trkpt>
        <trkpt lat="28.7312941" lon="104.7587638"><ele>295.15</ele><time>2025-11-15T03:49:31.000Z</time></trkpt>
        <trkpt lat="28.7313589" lon="104.7586734"><ele>294.21</ele><time>2025-11-15T03:49:44.000Z</time></trkpt>
        <trkpt lat="28.7314102" lon="104.7585713"><ele>290.7</ele><time>2025-11-15T03:49:56.000Z</time></trkpt>
        <trkpt lat="28.7314399" lon="104.7584577"><ele>288.81</ele><time>2025-11-15T03:50:10.000Z</time></trkpt>
        <trkpt lat="28.7314545" lon="104.758349"><ele>286.99</ele><time>2025-11-15T03:50:27.000Z</time></trkpt>
        <trkpt lat="28.7314618" lon="104.7582409"><ele>283.73</ele><time>2025-11-15T03:50:49.000Z</time></trkpt>
        <trkpt lat="28.7314903" lon="104.7581442"><ele>282.22</ele><time>2025-11-15T03:50:58.000Z</time></trkpt>
        <trkpt lat="28.7315355" lon="104.7580486"><ele>281.81</ele><time>2025-11-15T03:51:08.000Z</time></trkpt>
        <trkpt lat="28.7315899" lon="104.7579508"><ele>281.6</ele><time>2025-11-15T03:51:20.000Z</time></trkpt>
        <trkpt lat="28.7316575" lon="104.7578688"><ele>280.99</ele><time>2025-11-15T03:51:30.000Z</time></trkpt>
        <trkpt lat="28.7317263" lon="104.7577745"><ele>280.36</ele><time>2025-11-15T03:51:40.000Z</time></trkpt>
        <trkpt lat="28.7318019" lon="104.7576859"><ele>279.95</ele><time>2025-11-15T03:51:52.000Z</time></trkpt>
        <trkpt lat="28.7318822" lon="104.7576016"><ele>279.47</ele><time>2025-11-15T03:52:02.000Z</time></trkpt>
        <trkpt lat="28.731978" lon="104.7575717"><ele>278.69</ele><time>2025-11-15T03:52:12.000Z</time></trkpt>
        <trkpt lat="28.7320729" lon="104.757578"><ele>278.32</ele><time>2025-11-15T03:52:20.000Z</time></trkpt>
        <trkpt lat="28.7321672" lon="104.7575304"><ele>278.18</ele><time>2025-11-15T03:52:32.000Z</time></trkpt>
        <trkpt lat="28.732244" lon="104.7574425"><ele>277.7</ele><time>2025-11-15T03:52:39.000Z</time></trkpt>
        <trkpt lat="28.7323017" lon="104.7573461"><ele>278.1</ele><time>2025-11-15T03:52:49.000Z</time></trkpt>
        <trkpt lat="28.7323495" lon="104.7572383"><ele>277.24</ele><time>2025-11-15T03:53:00.000Z</time></trkpt>
        <trkpt lat="28.7324339" lon="104.7571475"><ele>277.18</ele><time>2025-11-15T03:53:12.000Z</time></trkpt>
        <trkpt lat="28.7324796" lon="104.7570397"><ele>279.18</ele><time>2025-11-15T03:53:22.000Z</time></trkpt>
        <trkpt lat="28.7325078" lon="104.7569322"><ele>280.8</ele><time>2025-11-15T03:53:32.000Z</time></trkpt>
        <trkpt lat="28.7325349" lon="104.7568252"><ele>281.6</ele><time>2025-11-15T03:53:42.000Z</time></trkpt>
        <trkpt lat="28.7325645" lon="104.7567218"><ele>281.92</ele><time>2025-11-15T03:53:52.000Z</time></trkpt>
        <trkpt lat="28.7325753" lon="104.7566171"><ele>281.98</ele><time>2025-11-15T03:54:02.000Z</time></trkpt>
        <trkpt lat="28.7325769" lon="104.7565088"><ele>281.74</ele><time>2025-11-15T03:54:12.000Z</time></trkpt>
        <trkpt lat="28.7325758" lon="104.7564037"><ele>281.18</ele><time>2025-11-15T03:54:22.000Z</time></trkpt>
        <trkpt lat="28.7326005" lon="104.7563014"><ele>280.53</ele><time>2025-11-15T03:54:29.000Z</time></trkpt>
        <trkpt lat="28.7326101" lon="104.7561901"><ele>281.88</ele><time>2025-11-15T03:54:45.000Z</time></trkpt>
        <trkpt lat="28.732618" lon="104.7560738"><ele>282.65</ele><time>2025-11-15T03:54:56.000Z</time></trkpt>
        <trkpt lat="28.7326364" lon="104.7559598"><ele>282.87</ele><time>2025-11-15T03:55:07.000Z</time></trkpt>
        <trkpt lat="28.7326834" lon="104.7558598"><ele>282.74</ele><time>2025-11-15T03:55:17.000Z</time></trkpt>
        <trkpt lat="28.7327456" lon="104.7557772"><ele>282.1</ele><time>2025-11-15T03:55:32.000Z</time></trkpt>
        <trkpt lat="28.7328134" lon="104.7557032"><ele>281.67</ele><time>2025-11-15T03:55:39.000Z</time></trkpt>
        <trkpt lat="28.7328871" lon="104.7556277"><ele>282.3</ele><time>2025-11-15T03:55:50.000Z</time></trkpt>
        <trkpt lat="28.7329611" lon="104.7555631"><ele>280</ele><time>2025-11-15T03:55:59.000Z</time></trkpt>
        <trkpt lat="28.7330335" lon="104.7554985"><ele>280.22</ele><time>2025-11-15T03:56:08.000Z</time></trkpt>
        <trkpt lat="28.7330945" lon="104.7554212"><ele>279.29</ele><time>2025-11-15T03:56:18.000Z</time></trkpt>
        <trkpt lat="28.7331606" lon="104.7553379"><ele>280.41</ele><time>2025-11-15T03:56:29.000Z</time></trkpt>
        <trkpt lat="28.7332057" lon="104.7552404"><ele>280.02</ele><time>2025-11-15T03:56:40.000Z</time></trkpt>
        <trkpt lat="28.733251" lon="104.7551478"><ele>279.57</ele><time>2025-11-15T03:56:49.000Z</time></trkpt>
        <trkpt lat="28.7333074" lon="104.7550633"><ele>279.67</ele><time>2025-11-15T03:57:01.000Z</time></trkpt>
        <trkpt lat="28.7333612" lon="104.7549792"><ele>280.26</ele><time>2025-11-15T03:57:12.000Z</time></trkpt>
        <trkpt lat="28.7334232" lon="104.7548965"><ele>280.85</ele><time>2025-11-15T03:57:28.000Z</time></trkpt>
        <trkpt lat="28.733495" lon="104.7548287"><ele>280.02</ele><time>2025-11-15T03:57:37.000Z</time></trkpt>
        <trkpt lat="28.7335775" lon="104.7547662"><ele>281.19</ele><time>2025-11-15T03:57:47.000Z</time></trkpt>
        <trkpt lat="28.7336596" lon="104.7546953"><ele>282.19</ele><time>2025-11-15T03:57:57.000Z</time></trkpt>
        <trkpt lat="28.7337476" lon="104.7546278"><ele>282.07</ele><time>2025-11-15T03:58:11.000Z</time></trkpt>
        <trkpt lat="28.7338359" lon="104.7545768"><ele>282.59</ele><time>2025-11-15T03:58:23.000Z</time></trkpt>
        <trkpt lat="28.7339175" lon="104.7545029"><ele>282.26</ele><time>2025-11-15T03:58:33.000Z</time></trkpt>
        <trkpt lat="28.7340016" lon="104.7544343"><ele>281.32</ele><time>2025-11-15T03:58:46.000Z</time></trkpt>
        <trkpt lat="28.7340804" lon="104.7543601"><ele>280.58</ele><time>2025-11-15T03:58:55.000Z</time></trkpt>
        <trkpt lat="28.7341554" lon="104.7542803"><ele>279.86</ele><time>2025-11-15T03:59:06.000Z</time></trkpt>
        <trkpt lat="28.7342243" lon="104.7541984"><ele>280.05</ele><time>2025-11-15T03:59:17.000Z</time></trkpt>
        <trkpt lat="28.7343018" lon="104.7541214"><ele>279.92</ele><time>2025-11-15T03:59:28.000Z</time></trkpt>
        <trkpt lat="28.7343856" lon="104.754053"><ele>279.41</ele><time>2025-11-15T03:59:41.000Z</time></trkpt>
        <trkpt lat="28.7344752" lon="104.7539931"><ele>279.78</ele><time>2025-11-15T03:59:53.000Z</time></trkpt>
        <trkpt lat="28.7345728" lon="104.7539437"><ele>279.95</ele><time>2025-11-15T04:00:03.000Z</time></trkpt>
        <trkpt lat="28.7346723" lon="104.753924"><ele>280.28</ele><time>2025-11-15T04:00:13.000Z</time></trkpt>
        <trkpt lat="28.7347646" lon="104.7538821"><ele>282.47</ele><time>2025-11-15T04:00:28.000Z</time></trkpt>
        <trkpt lat="28.7348518" lon="104.7538224"><ele>282.65</ele><time>2025-11-15T04:00:39.000Z</time></trkpt>
        <trkpt lat="28.7349189" lon="104.7537338"><ele>282.85</ele><time>2025-11-15T04:00:49.000Z</time></trkpt>
        <trkpt lat="28.7349744" lon="104.7536395"><ele>283.54</ele><time>2025-11-15T04:01:02.000Z</time></trkpt>
        <trkpt lat="28.7350436" lon="104.7535617"><ele>284.67</ele><time>2025-11-15T04:01:13.000Z</time></trkpt>
        <trkpt lat="28.7351076" lon="104.7534807"><ele>285.51</ele><time>2025-11-15T04:01:23.000Z</time></trkpt>
        <trkpt lat="28.7351436" lon="104.7533791"><ele>285.07</ele><time>2025-11-15T04:01:35.000Z</time></trkpt>
        <trkpt lat="28.7351882" lon="104.7532814"><ele>285.66</ele><time>2025-11-15T04:01:47.000Z</time></trkpt>
        <trkpt lat="28.7352612" lon="104.7532141"><ele>286.68</ele><time>2025-11-15T04:01:57.000Z</time></trkpt>
        <trkpt lat="28.7353502" lon="104.7532069"><ele>287.46</ele><time>2025-11-15T04:02:07.000Z</time></trkpt>
        <trkpt lat="28.7354465" lon="104.7532614"><ele>287.24</ele><time>2025-11-15T04:02:22.000Z</time></trkpt>
        <trkpt lat="28.7355479" lon="104.7532907"><ele>286.47</ele><time>2025-11-15T04:02:28.000Z</time></trkpt>
        <trkpt lat="28.7356446" lon="104.7533016"><ele>286.75</ele><time>2025-11-15T04:02:35.000Z</time></trkpt>
        <trkpt lat="28.7357417" lon="104.7532888"><ele>287.89</ele><time>2025-11-15T04:02:46.000Z</time></trkpt>
        <trkpt lat="28.7358328" lon="104.7532358"><ele>287.2</ele><time>2025-11-15T04:03:00.000Z</time></trkpt>
        <trkpt lat="28.7359218" lon="104.7531732"><ele>285.54</ele><time>2025-11-15T04:03:07.000Z</time></trkpt>
        <trkpt lat="28.7359897" lon="104.7530964"><ele>286.31</ele><time>2025-11-15T04:03:18.000Z</time></trkpt>
        <trkpt lat="28.7360601" lon="104.7530126"><ele>286.27</ele><time>2025-11-15T04:03:28.000Z</time></trkpt>
        <trkpt lat="28.7361117" lon="104.7529232"><ele>286.1</ele><time>2025-11-15T04:03:38.000Z</time></trkpt>
        <trkpt lat="28.7361813" lon="104.7528317"><ele>284.64</ele><time>2025-11-15T04:03:49.000Z</time></trkpt>
        <trkpt lat="28.736266" lon="104.752772"><ele>283.92</ele><time>2025-11-15T04:04:02.000Z</time></trkpt>
        <trkpt lat="28.7363626" lon="104.7527394"><ele>282.56</ele><time>2025-11-15T04:04:11.000Z</time></trkpt>
        <trkpt lat="28.7364375" lon="104.7527089"><ele>282.56</ele><time>2025-11-15T04:04:20.000Z</time></trkpt>
        <trkpt lat="28.7365257" lon="104.7526801"><ele>282.23</ele><time>2025-11-15T04:04:29.000Z</time></trkpt>
        <trkpt lat="28.7366178" lon="104.7526455"><ele>281.35</ele><time>2025-11-15T04:04:40.000Z</time></trkpt>
        <trkpt lat="28.7367148" lon="104.752604"><ele>280.19</ele><time>2025-11-15T04:04:52.000Z</time></trkpt>
        <trkpt lat="28.7368134" lon="104.7525602"><ele>279.71</ele><time>2025-11-15T04:05:01.000Z</time></trkpt>
        <trkpt lat="28.7369076" lon="104.752515"><ele>279.19</ele><time>2025-11-15T04:05:14.000Z</time></trkpt>
        <trkpt lat="28.7370063" lon="104.7524814"><ele>278.96</ele><time>2025-11-15T04:05:23.000Z</time></trkpt>
        <trkpt lat="28.737106" lon="104.7524482"><ele>278.33</ele><time>2025-11-15T04:05:33.000Z</time></trkpt>
        <trkpt lat="28.7372036" lon="104.7524248"><ele>277.64</ele><time>2025-11-15T04:05:44.000Z</time></trkpt>
        <trkpt lat="28.7373114" lon="104.7524119"><ele>278.04</ele><time>2025-11-15T04:05:54.000Z</time></trkpt>
        <trkpt lat="28.7374191" lon="104.7523997"><ele>280.57</ele><time>2025-11-15T04:06:01.000Z</time></trkpt>
        <trkpt lat="28.7375146" lon="104.7524004"><ele>280.15</ele><time>2025-11-15T04:06:14.000Z</time></trkpt>
        <trkpt lat="28.7376108" lon="104.7523865"><ele>279.25</ele><time>2025-11-15T04:06:21.000Z</time></trkpt>
        <trkpt lat="28.7377073" lon="104.7524162"><ele>278.35</ele><time>2025-11-15T04:06:32.000Z</time></trkpt>
        <trkpt lat="28.737808" lon="104.7524423"><ele>279.06</ele><time>2025-11-15T04:06:43.000Z</time></trkpt>
        <trkpt lat="28.737908" lon="104.7524564"><ele>278.86</ele><time>2025-11-15T04:06:55.000Z</time></trkpt>
        <trkpt lat="28.7380066" lon="104.7524447"><ele>279.12</ele><time>2025-11-15T04:07:05.000Z</time></trkpt>
        <trkpt lat="28.7381064" lon="104.7524234"><ele>279.19</ele><time>2025-11-15T04:07:17.000Z</time></trkpt>
        <trkpt lat="28.7381955" lon="104.7523858"><ele>278.92</ele><time>2025-11-15T04:07:28.000Z</time></trkpt>
        <trkpt lat="28.7382724" lon="104.7523283"><ele>278.69</ele><time>2025-11-15T04:07:35.000Z</time></trkpt>
        <trkpt lat="28.7383496" lon="104.7522635"><ele>278.14</ele><time>2025-11-15T04:07:46.000Z</time></trkpt>
        <trkpt lat="28.738388" lon="104.7521693"><ele>277.49</ele><time>2025-11-15T04:07:56.000Z</time></trkpt>
        <trkpt lat="28.7384007" lon="104.7520484"><ele>277.99</ele><time>2025-11-15T04:08:05.000Z</time></trkpt>
        <trkpt lat="28.7384269" lon="104.7519322"><ele>278.23</ele><time>2025-11-15T04:08:15.000Z</time></trkpt>
        <trkpt lat="28.7384711" lon="104.7518254"><ele>278.12</ele><time>2025-11-15T04:08:26.000Z</time></trkpt>
        <trkpt lat="28.7385155" lon="104.7517207"><ele>277.88</ele><time>2025-11-15T04:08:37.000Z</time></trkpt>
        <trkpt lat="28.7385688" lon="104.7516247"><ele>277.4</ele><time>2025-11-15T04:08:47.000Z</time></trkpt>
        <trkpt lat="28.7386218" lon="104.7515366"><ele>276.84</ele><time>2025-11-15T04:08:58.000Z</time></trkpt>
        <trkpt lat="28.7386752" lon="104.7514462"><ele>277.26</ele><time>2025-11-15T04:09:09.000Z</time></trkpt>
        <trkpt lat="28.7387356" lon="104.7513639"><ele>276.91</ele><time>2025-11-15T04:09:17.000Z</time></trkpt>
        <trkpt lat="28.7387897" lon="104.7512755"><ele>277.05</ele><time>2025-11-15T04:09:31.000Z</time></trkpt>
        <trkpt lat="28.7388469" lon="104.7511921"><ele>277.43</ele><time>2025-11-15T04:09:43.000Z</time></trkpt>
        <trkpt lat="28.7389151" lon="104.7511144"><ele>277.58</ele><time>2025-11-15T04:09:53.000Z</time></trkpt>
        <trkpt lat="28.7389708" lon="104.7510282"><ele>277.54</ele><time>2025-11-15T04:10:05.000Z</time></trkpt>
        <trkpt lat="28.7390219" lon="104.7509262"><ele>277.63</ele><time>2025-11-15T04:10:17.000Z</time></trkpt>
        <trkpt lat="28.7390543" lon="104.7508756"><ele>278.03</ele><time>2025-11-15T04:10:28.000Z</time></trkpt>
        <trkpt lat="28.7391214" lon="104.7508269"><ele>278.35</ele><time>2025-11-15T04:10:39.000Z</time></trkpt>
        <trkpt lat="28.7392158" lon="104.7508152"><ele>278.59</ele><time>2025-11-15T04:10:49.000Z</time></trkpt>
        <trkpt lat="28.7393153" lon="104.7508294"><ele>278.87</ele><time>2025-11-15T04:10:59.000Z</time></trkpt>
        <trkpt lat="28.7394167" lon="104.7508287"><ele>279.66</ele><time>2025-11-15T04:11:19.000Z</time></trkpt>
        <trkpt lat="28.7394167" lon="104.7508287"><ele>279.66</ele><time>2025-11-15T04:11:24.000Z</time></trkpt>
      </trkseg>
  </trk>
</gpx>